Dirección General De Aeronáutica Civil

Dirección Meteorológica de Chile - Servicios Climáticos

Informe General de Control de Calidad de la Estación

Listado de niveles de control de calidad para algunos parámetros
Estación Guardiamarina Zañartu, Pto Williams Ad. (550001)
Fecha de Revisión de los datos :

Elementos

Registros Niveles de Control Total
Nivel 0 Nivel 1 Nivel 2 Nivel 3 Errores Porcentaje
01 Temperatura del Aire Seco 210.837 0 . 26 0.01 % 0 . 0 . 26 0.01 %
02 Temperatura de Rocío 165.645 0 . 0 . 0 . 0 . 0 0.00 %
03 Humedad Relativa del Aire 210.396 0 . 0 . 0 . 0 . 0 0.00 %
04 Temperatura Máxima PM 17.877 0 . 0 . 453 2.53 % 0 . 453 2.53 %
05 Temperatura Mínima AM 17.593 0 . 0 . 230 1.31 % 0 . 230 1.31 %
06 Viento a 10 m. de Altura 216.534 5 0.00 % 0 . 18 0.01 % 0 . 23 0.01 %
07 Agua Caida, Acumulada 6 Horas 74.004 0 . 982 1.33 % 0 . 0 . 982 1.33 %
08 Presión Atm. a Nivel de Estación (QFE) 208.835 0 . 0 . 0 . 0 . 0 0.00 %
09 Presión Atm. a Nivel Medio del Mar (QFF) 201.458 0 . 0 . 0 . 0 . 0 0.00 %
10 Presión Atm. Estándar OACI (QNH) 164.250 0 . 0 . 0 . 0 . 0 0.00 %
11 Tiempo Pasado Sinóptico 15.336 0 . 0 . 0 . 0 . 0 0.00 %
12 Tiempo Presente Sinóptico 16.250 0 . 18 0.11 % 0 . 0 . 18 0.11 %

Totales

1.519.015 . 0.0003 % . 0.0675 % . 0.0461 % . 0.0000 % 1,732 0.1140 %

Detalle de Errores Recientes

Fecha del Dato Descripción Información Error Fecha Ingreso
2010-12-09 19:00:00 Ts debe ser mayor o igual a Td Ts=3.6 - Td=3.9 2024-06-10 14:58:00
2011-08-08 15:00:00 Ts debe ser mayor o igual a Td Ts=3.8 - Td=5.7 2024-05-30 21:14:00
2011-10-05 13:00:00 Ts debe ser mayor o igual a Td Ts=4.4 - Td=4.9 2024-06-03 19:37:00
2010-01-29 17:00:00 ts > 5.0 y ((ww >= 70 y ww <= 79) || (ww >= 85 y ww <= 88))) 86 2024-05-20 20:38:00
2010-02-11 13:00:00 ts > 5.0 y ((ww >= 70 y ww <= 79) || (ww >= 85 y ww <= 88))) 86 2024-05-22 17:37:00
2010-02-15 14:00:00 ts > 5.0 y ((ww >= 70 y ww <= 79) || (ww >= 85 y ww <= 88))) 86 2024-05-22 18:32:00
2010-11-08 18:00:00 ts > 5.0 y ((ww >= 70 y ww <= 79) || (ww >= 85 y ww <= 88))) 87 2024-06-11 15:37:00
2010-11-08 19:00:00 ts > 5.0 y ((ww >= 70 y ww <= 79) || (ww >= 85 y ww <= 88))) 88 2024-06-11 15:37:00
2010-11-08 20:00:00 ts > 5.0 y ((ww >= 70 y ww <= 79) || (ww >= 85 y ww <= 88))) 87 2024-06-11 15:37:00
2010-08-01 00:00:00 Temperatura 1.6 del 31-07-2010 15:00, Mayor que la Máxima 1.0 01-08-2010 00:00 1.6 -- 1.0 2024-06-28 12:09:00
2011-07-22 00:00:00 Temperatura 4.4 del 21-07-2011 20:00, Mayor que la Máxima 4.3 22-07-2011 00:00 4.4 -- 4.3 2024-06-11 14:05:00
2011-08-01 00:00:00 Temperatura 0.9 del 31-07-2011 18:00, Mayor que la Máxima 0.0 01-08-2011 00:00 0.9 -- 0.0 2024-06-11 16:42:00
2011-08-02 00:00:00 Temperatura 3.0 del 01-08-2011 19:00, Mayor que la Máxima 2.7 02-08-2011 00:00 3.0 -- 2.7 2024-06-11 16:52:00
2011-08-03 00:00:00 Temperatura 4.0 del 03-08-2011 00:00, Mayor que la Máxima 0.9 03-08-2011 00:00 4.0 -- 0.9 2024-06-11 16:57:00
2011-08-05 00:00:00 Temperatura 3.4 del 04-08-2011 17:00, Mayor que la Máxima 3.2 05-08-2011 00:00 3.4 -- 3.2 2024-06-11 18:40:00
2011-08-07 00:00:00 Temperatura 1.8 del 07-08-2011 00:00, Mayor que la Máxima 0.4 07-08-2011 00:00 1.8 -- 0.4 2024-06-11 18:49:00
2011-08-27 00:00:00 Temperatura 6.5 del 26-08-2011 19:00, Mayor que la Máxima 5.5 27-08-2011 00:00 6.5 -- 5.5 2024-06-11 20:07:00
2011-09-07 00:00:00 Temperatura 5.6 del 06-09-2011 19:00, Mayor que la Máxima 5.1 07-09-2011 00:00 5.6 -- 5.1 2024-06-12 12:52:00
2011-09-08 00:00:00 Temperatura 4.9 del 07-09-2011 20:00, Mayor que la Máxima 4.8 08-09-2011 00:00 4.9 -- 4.8 2024-06-12 12:55:00
2011-09-10 00:00:00 Temperatura 6.6 del 09-09-2011 17:00, Mayor que la Máxima 6.3 10-09-2011 00:00 6.6 -- 6.3 2024-06-12 13:03:00
2011-09-21 00:00:00 Temperatura 2.6 del 20-09-2011 13:00, Mayor que la Máxima 2.2 21-09-2011 00:00 2.6 -- 2.2 2024-06-12 14:47:00
2011-09-26 00:00:00 Temperatura 5.2 del 25-09-2011 13:00, Mayor que la Máxima 5.0 26-09-2011 00:00 5.2 -- 5.0 2024-06-12 15:10:00
2011-09-27 00:00:00 Temperatura 9.2 del 26-09-2011 17:00, Mayor que la Máxima 9.0 27-09-2011 00:00 9.2 -- 9.0 2024-06-12 15:12:00
2011-10-03 00:00:00 Temperatura 5.2 del 02-10-2011 18:00, Mayor que la Máxima 5.0 03-10-2011 00:00 5.2 -- 5.0 2024-06-12 16:10:00
2011-10-21 00:00:00 Temperatura 11.6 del 20-10-2011 18:00, Mayor que la Máxima 11.2 21-10-2011 00:00 11.6 -- 11.2 2024-06-12 18:55:00
2011-10-22 00:00:00 Temperatura 8.6 del 21-10-2011 17:00, Mayor que la Máxima 8.0 22-10-2011 00:00 8.6 -- 8.0 2024-06-12 18:57:00
2011-11-01 00:00:00 Temperatura 13.2 del 31-10-2011 14:00, Mayor que la Máxima 12.9 01-11-2011 00:00 13.2 -- 12.9 2024-06-12 20:29:00
2011-11-18 00:00:00 Temperatura 15.4 del 17-11-2011 20:00, Mayor que la Máxima 14.9 18-11-2011 00:00 15.4 -- 14.9 2024-06-13 14:51:00
2011-11-22 00:00:00 Temperatura 5.2 del 21-11-2011 20:00, Mayor que la Máxima 4.9 22-11-2011 00:00 5.2 -- 4.9 2024-06-13 15:25:00
2011-11-23 00:00:00 Temperatura 7.9 del 22-11-2011 20:00, Mayor que la Máxima 7.2 23-11-2011 00:00 7.9 -- 7.2 2024-06-13 15:27:00
2011-11-25 00:00:00 Temperatura 8.9 del 24-11-2011 13:00, Mayor que la Máxima 8.2 25-11-2011 00:00 8.9 -- 8.2 2024-06-13 16:13:00
2011-12-07 00:00:00 Temperatura 15.7 del 07-12-2011 00:00, Mayor que la Máxima 15.4 07-12-2011 00:00 15.7 -- 15.4 2024-06-13 19:27:00
2011-12-13 00:00:00 Temperatura 16.4 del 12-12-2011 20:00, Mayor que la Máxima 15.8 13-12-2011 00:00 16.4 -- 15.8 2024-06-14 13:29:00
2011-12-14 00:00:00 Temperatura 18.2 del 13-12-2011 17:00, Mayor que la Máxima 17.7 14-12-2011 00:00 18.2 -- 17.7 2024-06-14 13:31:00
2011-12-22 00:00:00 Temperatura 7.2 del 21-12-2011 15:00, Mayor que la Máxima 7.1 22-12-2011 00:00 7.2 -- 7.1 2024-06-14 14:08:00
2011-12-27 00:00:00 Temperatura 12.2 del 26-12-2011 16:00, Mayor que la Máxima 12.0 27-12-2011 00:00 12.2 -- 12.0 2024-06-14 14:52:00
2011-12-30 00:00:00 Temperatura 15.4 del 29-12-2011 19:00, Mayor que la Máxima 15.2 30-12-2011 00:00 15.4 -- 15.2 2024-06-14 14:55:00
2011-08-14 12:00:00 Temperatura -1.7 del 14-08-2011 12:00, Menor que la Mínima -1.1 14-08-2011 12:00 -1.7 -- -1.1 2024-06-11 19:14:00
2011-10-29 12:00:00 Temperatura 3.8 del 29-10-2011 07:00, Menor que la Mínima 4.0 29-10-2011 12:00 3.8 -- 4.0 2024-06-12 20:07:00
2024-06-27 12:00:00 Temperatura -4.9 del 27-06-2024 11:00, Menor que la Mínima -4.0 27-06-2024 12:00 -4.9 -- -4.0 2024-06-27 11:56:00
Total de Errores Recientes 40

Detalle de Errores Encontrados

Nivel Fecha del Dato Descripción Información Error Fecha Ingreso
0 1970-04-14 06:00:00 ff (Intensidad del Viento) debe ser numerico, entre 0 y 70 kt. 72 2011-09-28 17:34:00
0 1973-06-12 00:00:00 ff (Intensidad del Viento) debe ser numerico, entre 0 y 70 kt. 80 2011-09-28 17:46:00
0 1974-04-19 03:00:00 ff (Intensidad del Viento) debe ser numerico, entre 0 y 70 kt. 80 2011-09-28 17:49:00
0 1978-01-28 00:00:00 ff (Intensidad del Viento) debe ser numerico, entre 0 y 70 kt. 72 2011-09-28 18:04:00
0 1990-10-12 12:00:00 ff (Intensidad del Viento) debe ser numerico, entre 0 y 70 kt. 72 2011-09-28 18:40:00
Errores del Nivel 5
Nivel Fecha del Dato Descripción Información Error Fecha Ingreso
1 1969-02-04 18:00:00 Ts debe ser mayor o igual a Td Ts=1.5 - Td=17.8 2011-09-30 11:32:00
1 1971-04-08 15:00:00 Ts debe ser mayor o igual a Td Ts=4.0 - Td=15.0 2011-09-30 11:38:00
1 1973-10-17 15:00:00 Ts debe ser mayor o igual a Td Ts=5.2 - Td=5.6 2011-09-30 11:45:00
1 1975-07-07 06:00:00 Ts debe ser mayor o igual a Td Ts=-3.0 - Td=-0.4 2011-09-30 11:50:00
1 1975-07-07 12:00:00 Ts debe ser mayor o igual a Td Ts=-5.2 - Td=-0.9 2011-09-30 11:51:00
1 1975-07-07 15:00:00 Ts debe ser mayor o igual a Td Ts=-4.0 - Td=-2.6 2011-09-30 11:51:00
1 1975-07-08 00:00:00 Ts debe ser mayor o igual a Td Ts=-9.2 - Td=-3.7 2011-09-30 11:51:00
1 1975-07-08 09:00:00 Ts debe ser mayor o igual a Td Ts=-6.0 - Td=-4.8 2011-09-30 11:51:00
1 1975-07-09 03:00:00 Ts debe ser mayor o igual a Td Ts=-4.0 - Td=4.2 2011-09-30 11:51:00
1 1975-07-09 12:00:00 Ts debe ser mayor o igual a Td Ts=-4.8 - Td=-3.1 2011-09-30 11:51:00
1 1975-07-10 09:00:00 Ts debe ser mayor o igual a Td Ts=-6.3 - Td=14.6 2011-09-30 11:51:00
1 1975-07-10 12:00:00 Ts debe ser mayor o igual a Td Ts=-5.1 - Td=-4.8 2011-09-30 11:51:00
1 1975-07-10 21:00:00 Ts debe ser mayor o igual a Td Ts=-2.6 - Td=-2.1 2011-09-30 11:51:00
1 1975-07-11 15:00:00 Ts debe ser mayor o igual a Td Ts=0.2 - Td=0.7 2011-09-30 11:51:00
1 1975-07-12 06:00:00 Ts debe ser mayor o igual a Td Ts=-2.5 - Td=8.0 2011-09-30 11:51:00
1 1975-07-12 09:00:00 Ts debe ser mayor o igual a Td Ts=-0.4 - Td=0.1 2011-09-30 11:51:00
1 1975-07-13 03:00:00 Ts debe ser mayor o igual a Td Ts=0.2 - Td=0.7 2011-09-30 11:51:00
1 1975-07-13 21:00:00 Ts debe ser mayor o igual a Td Ts=1.2 - Td=2.1 2011-09-30 11:51:00
1 1975-07-14 03:00:00 Ts debe ser mayor o igual a Td Ts=-2.0 - Td=7.2 2011-09-30 11:51:00
1 1975-07-14 12:00:00 Ts debe ser mayor o igual a Td Ts=-4.2 - Td=12.0 2011-09-30 11:51:00
1 1975-07-14 21:00:00 Ts debe ser mayor o igual a Td Ts=0.6 - Td=1.5 2011-09-30 11:51:00
1 1975-07-15 00:00:00 Ts debe ser mayor o igual a Td Ts=-2.0 - Td=6.9 2011-09-30 11:51:00
1 2010-12-09 19:00:00 Ts debe ser mayor o igual a Td Ts=3.6 - Td=3.9 2024-06-10 14:58:00
1 2011-04-04 12:00:00 HR (Humedad Relativa) es igual a 100% y Ts <> Td 3.2 - 2.8 2015-05-12 14:40:00
1 2011-08-08 15:00:00 Ts debe ser mayor o igual a Td Ts=3.8 - Td=5.7 2024-05-30 21:14:00
1 2011-10-05 13:00:00 Ts debe ser mayor o igual a Td Ts=4.4 - Td=4.9 2024-06-03 19:37:00
1 2009-03-05 12:00:00 rrr = s/p y WW = 1 w1=8 w2=1 0.0 2016-09-16 17:57:00
1 2009-03-06 12:00:00 rrr = s/p y WW = 2 w1=8 w2=2 0.0 2016-09-16 17:58:00
1 2009-05-11 18:00:00 rrr = 0.3 y WW = 2 w1=2 w2=2 0.3 2016-09-21 20:19:00
1 2009-05-15 18:00:00 rrr = s/p y WW = 2 w1=8 w2=2 0.0 2016-09-21 20:25:00
1 2009-05-26 18:00:00 rrr = 0.3 y WW = 3 w1=2 w2=2 0.3 2016-09-22 14:12:00
1 2009-06-23 18:00:00 rrr = 4.1 y WW = 2 w1=2 w2=2 4.1 2016-09-22 19:28:00
1 2009-07-14 18:00:00 rrr = 0.5 y WW = 2 w1=2 w2=2 0.5 2016-09-23 14:40:00
1 2009-07-21 18:00:00 rrr = s/p y WW = 22 w1=8 w2=2 0.0 2016-09-23 16:48:00
1 2009-07-28 18:00:00 rrr = s/p y WW = 85 w1=8 w2=8 0.0 2016-09-23 19:16:00
1 2009-07-29 18:00:00 rrr = 1.4 y WW = 2 w1=2 w2=2 1.4 2016-09-23 19:20:00
1 2009-09-01 18:00:00 rrr = s/p y WW = 2 w1=8 w2=2 0.0 2016-09-27 20:11:00
1 2009-10-13 12:00:00 rrr = s/p y WW = 85 w1=8 w2=8 0.0 2016-09-29 19:01:00
1 2009-10-13 18:00:00 rrr = s/p y WW = 75 w1=8 w2=7 0.0 2016-09-29 19:03:00
1 2009-11-09 12:00:00 rrr = s/p y WW = 16 w1=8 w2=8 0.0 2016-09-30 18:28:00
1 2009-11-22 18:00:00 rrr = 0.1 y WW = 2 w1=2 w2=2 0.1 2016-10-03 13:14:00
1 2009-11-30 12:00:00 rrr = s/p y WW = 3 w1=8 w2=2 0.0 2016-10-03 13:36:00
1 2009-12-02 12:00:00 rrr = s/p y WW = 16 w1=8 w2=2 0.0 2016-10-03 13:46:00
1 2009-12-10 12:00:00 rrr = s/p y WW = 1 w1=8 w2=2 0.0 2016-10-11 14:40:00
1 2009-12-24 12:00:00 rrr = s/p y WW = 2 w1=8 w2=8 0.0 2016-10-12 13:38:00
1 2009-12-30 12:00:00 rrr = 0.1 y WW = 2 w1=2 w2=2 0.1 2016-09-01 17:03:00
1 2009-12-31 18:00:00 rrr = 0.1 y WW = 2 w1=2 w2=2 0.1 2016-09-01 17:06:00
1 2010-01-05 18:00:00 rrr = 0.2 y WW = 3 w1=2 w2=2 0.2 2016-09-01 17:19:00
1 2010-01-07 18:00:00 rrr = 0.1 y WW = 3 w1=2 w2=2 0.1 2016-09-01 17:27:00
1 2010-01-12 12:00:00 rrr = 0.1 y WW = 2 w1=2 w2=2 0.1 2016-09-01 18:55:00
1 2010-01-12 18:00:00 rrr = 0.2 y WW = 2 w1=2 w2=2 0.2 2016-09-01 18:58:00
1 2010-01-14 12:00:00 rrr = s/p y WW = 2 w1=8 w2=2 0.0 2011-09-30 17:20:00
1 2010-01-14 18:00:00 rrr = 0.7 y WW = 2 w1=2 w2=2 0.7 2016-09-01 19:05:00
1 2010-01-20 18:00:00 rrr = 0.2 y WW = 2 w1=2 w2=2 0.2 2016-09-01 20:25:00
1 2010-01-24 12:00:00 rrr = 2.5 y WW = 2 w1=2 w2=2 2.5 2016-09-02 13:54:00
1 2010-01-24 18:00:00 rrr = 0.3 y WW = 2 w1=2 w2=2 0.3 2016-09-02 13:57:00
1 2010-01-25 12:00:00 rrr = s/p y WW = 1 w1=8 w2=2 0.0 2016-09-02 14:00:00
1 2010-01-26 12:00:00 rrr = s/p y WW = 1 w1=8 w2=1 0.0 2016-09-02 14:05:00
1 2010-02-05 12:00:00 rrr = s/p y WW = 1 w1=8 w2=2 0.0 2016-09-02 14:50:00
1 2010-02-07 00:00:00 rrr = 0.4 y WW = 2 w1=2 w2=2 0.4 2016-09-02 15:41:00
1 2010-02-07 12:00:00 rrr = 7.4 y WW = 2 w1=2 w2=2 7.4 2016-09-02 15:45:00
1 2010-02-07 18:00:00 rrr = 2.4 y WW = 2 w1=2 w2=2 2.4 2016-09-02 15:56:00
1 2010-02-08 12:00:00 rrr = s/p y WW = 3 w1=8 w2=2 0.0 2016-09-02 15:56:00
1 2010-02-22 12:00:00 rrr = s/p y WW = 21 w1=6 w2=2 0.0 2016-09-02 18:30:00
1 2010-03-15 12:00:00 rrr = s/p y WW = 3 w1=8 w2=2 0.0 2016-09-05 16:46:00
1 2010-03-25 12:00:00 rrr = s/p y WW = 1 w1=8 w2=2 0.0 2016-09-05 19:26:00
1 2010-04-01 18:00:00 rrr = s/p y WW = 2 w1=6 w2=2 0.0 2016-09-05 20:25:00
1 2010-04-15 18:00:00 rrr = 0.1 y WW = 2 w1=2 w2=2 0.1 2016-09-06 14:18:00
1 2010-05-11 18:00:00 rrr = s/p y WW = 2 w1=8 w2=2 0.0 2016-09-06 18:10:00
1 2010-05-14 18:00:00 rrr = s/p y WW = 1 w1=8 w2=2 0.0 2016-09-06 18:31:00
1 2010-05-31 18:00:00 rrr = s/p y WW = 2 w1=8 w2=2 0.0 2016-09-06 20:04:00
1 2010-06-18 18:00:00 rrr = s/p y WW = 72 w1=7 w2=2 0.0 2016-09-07 14:05:00
1 2010-07-06 18:00:00 rrr = s/p y WW = 83 w1=7 w2=2 0.0 2016-09-07 16:28:00
1 2010-07-12 18:00:00 rrr = s/p y WW = 80 w1=8 w2=2 0.0 2016-09-07 17:28:00
1 2010-08-27 12:00:00 rrr = 0.2 y WW = 3 w1=2 w2=2 0.2 2016-09-07 20:13:00
1 2010-09-21 18:00:00 rrr = s/p y WW = 3 w1=8 w2=2 0.0 2016-09-08 19:11:00
1 2010-10-13 18:00:00 rrr = s/p y WW = 2 w1=6 w2=2 0.0 2016-09-08 20:04:00
1 2010-10-29 18:00:00 rrr = s/p y WW = 3 w1=8 w2=2 0.0 2016-09-12 13:08:00
1 2010-11-06 12:00:00 rrr = 0.5 y WW = 2 w1=2 w2=2 0.5 2016-09-12 13:21:00
1 2010-11-23 12:00:00 rrr = s/p y WW = 80 w1=8 w2=2 0.0 2016-09-12 15:35:00
1 2010-11-26 12:00:00 rrr = 0.7 y WW = 1 w1=1 w2=1 0.7 2016-09-12 16:00:00
1 2010-12-01 12:00:00 rrr = 0.6 y WW = 1 w1=2 w2=2 0.6 2011-09-30 17:21:00
1 2010-12-07 12:00:00 rrr = s/p y WW = 2 w1=8 w2=2 0.0 2016-09-12 16:39:00
1 2010-12-27 12:00:00 rrr = 0.2 y WW = 2 w1=2 w2=2 0.2 2011-09-30 17:21:00
1 2011-03-10 12:00:00 rrr = 1.7 y WW = 2 w1=2 w2=2 1.7 2011-09-30 17:22:00
1 2011-03-11 12:00:00 rrr = 0.2 y WW = 1 w1=0 w2=0 0.2 2011-09-30 17:22:00
1 2011-03-15 12:00:00 rrr = 5.8 y WW = 40 w1=0 w2=0 5.8 2016-08-02 19:23:00
1 2011-03-21 12:00:00 rrr = 0.5 y WW = 3 w1=0 w2=0 0.5 2011-09-30 17:22:00
1 2011-03-25 12:00:00 rrr = 0.5 y WW = 1 w1=0 w2=0 0.5 2011-09-30 17:22:00
1 2011-04-01 12:00:00 rrr = 4.8 y WW = 1 w1=2 w2=2 4.8 2016-08-02 19:45:00
1 2011-04-02 18:00:00 rrr = 0.1 y WW = 2 w1=2 w2=2 0.1 2016-08-02 19:55:00
1 2011-04-04 12:00:00 rrr = s/p y WW = 3 w1=8 w2=2 0.0 2016-08-02 19:59:00
1 2011-04-05 12:00:00 rrr = s/p y WW = 1 w1=8 w2=2 0.0 2016-08-02 20:04:00
1 2011-04-07 12:00:00 rrr = 0.2 y WW = 16 w1=2 w2=2 0.2 2016-08-02 20:14:00
1 2011-04-08 12:00:00 rrr = 5.6 y WW = 3 w1=1 w2=1 5.6 2016-08-02 20:19:00
1 2011-04-08 18:00:00 rrr = 0.1 y WW = 2 w1=2 w2=2 0.1 2016-08-02 20:22:00
1 2011-04-12 12:00:00 rrr = s/p y WW = 2 w1=7 w2=2 0.0 2016-08-02 21:22:00
1 2011-04-14 12:00:00 rrr = s/p y WW = 2 w1=8 w2=2 0.0 2016-08-10 14:06:00
1 2011-04-25 12:00:00 rrr = s/p y WW = 2 w1=6 w2=2 0.0 2016-08-03 13:50:00
1 2011-04-25 18:00:00 rrr = s/p y WW = 2 w1=6 w2=6 0.0 2016-08-03 13:53:00
1 2011-04-26 12:00:00 rrr = s/p y WW = 2 w1=6 w2=2 0.0 2016-08-03 13:54:00
1 2011-04-28 12:00:00 rrr = s/p y WW = 2 w1=8 w2=2 0.0 2016-08-03 14:02:00
1 2011-05-04 12:00:00 rrr = 1.1 y WW = 1 w1=0 w2=0 1.1 2016-08-03 14:34:00
1 2011-05-11 12:00:00 rrr = s/p y WW = 2 w1=6 w2=2 0.0 2016-08-03 15:46:00
1 2011-05-18 18:00:00 rrr = s/p y WW = 1 w1=8 w2=0 0.0 2016-08-03 17:09:00
1 2011-05-24 18:00:00 rrr = s/p y WW = 2 w1=8 w2=1 0.0 2016-08-03 17:37:00
1 2011-06-06 18:00:00 rrr = s/p y WW = 2 w1=7 w2=2 0.0 2016-08-03 18:46:00
1 2011-06-09 18:00:00 rrr = s/p y WW = 1 w1=5 w2=2 0.0 2016-08-03 19:03:00
1 2011-06-11 12:00:00 rrr = s/p y WW = 2 w1=6 w2=2 0.0 2016-08-03 19:09:00
1 2011-06-23 18:00:00 rrr = s/p y WW = 1 w1=8 w2=7 0.0 2016-08-03 19:38:00
1 2011-06-24 12:00:00 rrr = s/p y WW = 2 w1=6 w2=2 0.0 2016-08-03 19:40:00
1 2011-07-16 18:00:00 rrr = 1.7 y WW = 2 w1=1 w2=1 1.7 2016-08-05 14:22:00
1 2011-08-24 12:00:00 rrr = s/p y WW = 70 w1=8 w2=7 0.0 2016-08-08 15:05:00
1 2011-09-01 18:00:00 rrr = s/p y WW = 16 w1=5 w2=2 0.0 2016-08-08 15:51:00
1 2011-09-16 12:00:00 rrr = 16.3 y WW = 2 w1=2 w2=1 16.3 2016-08-08 17:17:00
1 2011-09-21 18:00:00 rrr = s/p y WW = 1 w1=7 w2=2 0.0 2016-08-08 19:47:00
1 2011-09-22 12:00:00 rrr = s/p y WW = 2 w1=8 w2=2 0.0 2016-08-08 19:54:00
1 2011-09-26 18:00:00 rrr = 0.5 y WW = 3 w1=2 w2=1 0.5 2016-08-08 21:03:00
1 2011-10-14 18:00:00 rrr = s/p y WW = 3 w1=8 w2=2 0.0 2016-08-10 17:31:00
1 2011-10-17 12:00:00 rrr = 0.3 y WW = 3 w1=0 w2=0 0.3 2016-08-10 18:03:00
1 2011-10-19 12:00:00 rrr = 0.1 y WW = 1 w1=0 w2=0 0.1 2016-08-10 18:28:00
1 2011-10-21 12:00:00 rrr = 2.7 y WW = 3 w1=0 w2=0 2.7 2016-08-10 18:37:00
1 2011-10-21 18:00:00 rrr = s/p y WW = 3 w1=8 w2=2 0.0 2016-08-10 18:39:00
1 2011-10-24 12:00:00 rrr = 0.5 y WW = 3 w1=0 w2=0 0.5 2016-08-10 20:42:00
1 2011-10-28 18:00:00 rrr = s/p y WW = 3 w1=8 w2=2 0.0 2016-08-10 21:10:00
1 2011-11-07 12:00:00 rrr = s/p y WW = 2 w1=8 w2=1 0.0 2016-08-11 18:30:00
1 2011-11-10 18:00:00 rrr = s/p y WW = 2 w1=8 w2=2 0.0 2016-08-11 19:55:00
1 2011-11-15 12:00:00 rrr = s/p y WW = 2 w1=8 w2=2 0.0 2016-08-11 20:22:00
1 2011-11-22 12:00:00 rrr = s/p y WW = 2 w1=8 w2=2 0.0 2016-08-12 14:39:00
1 2011-11-24 12:00:00 rrr = s/p y WW = 2 w1=8 w2=2 0.0 2016-08-12 14:44:00
1 2011-11-25 18:00:00 rrr = 0.3 y WW = 15 w1=2 w2=2 0.3 2016-08-12 14:52:00
1 2011-11-30 12:00:00 rrr = 3.8 y WW = 2 w1=0 w2=0 3.8 2011-11-30 12:33:00
1 2011-12-04 18:00:00 rrr = s/p y WW = 2 w1=8 w2=2 0.0 2016-08-12 18:15:00
1 2011-12-12 12:00:00 rrr = s/p y WW = 2 w1=8 w2=2 0.0 2016-08-12 20:22:00
1 2011-12-19 12:00:00 rrr = s/p y WW = 2 w1=8 w2=1 0.0 2011-12-19 12:01:00
1 2011-12-21 12:00:00 rrr = 15.2 y WW = 3 w1=0 w2=0 15.2 2016-08-16 14:27:00
1 2011-12-28 12:00:00 rrr = 1.1 y WW = 1 w1=0 w2=0 1.1 2011-12-28 12:48:00
1 2012-01-03 12:00:00 rrr = 0.1 y WW = 1 w1=0 w2=0 0.1 2012-01-03 11:59:00
1 2012-01-04 12:00:00 rrr = 0.5 y WW = 1 w1=0 w2=0 0.5 2016-08-16 19:29:00
1 2012-01-06 12:00:00 rrr = s/p y WW = 2 w1=8 w2=2 0.0 2016-08-16 19:49:00
1 2012-01-10 12:00:00 rrr = 2.4 y WW = 2 w1=2 w2=2 2.4 2016-08-16 19:52:00
1 2012-01-30 18:00:00 rrr = trazas y WW = 2 w1=2 w2=2 0.0 2012-01-30 18:49:00
1 2012-02-06 12:00:00 rrr = s/p y WW = 60 w1=6 w2=2 0.0 2016-08-18 18:28:00
1 2012-02-14 00:00:00 rrr = 0.7 y WW = 2 w1=0 w2=0 0.7 2016-08-18 19:56:00
1 2012-02-18 00:00:00 rrr = trazas y WW = 2 w1=2 w2=2 0.0 2016-08-18 20:15:00
1 2012-02-27 12:00:00 rrr = 1.8 y WW = 3 w1=2 w2=2 1.8 2016-08-19 14:23:00
1 2012-03-06 00:00:00 rrr = 0.6 y WW = 2 w1=2 w2=2 0.6 2016-08-19 17:05:00
1 2012-03-08 12:00:00 rrr = 0.1 y WW = 1 w1=0 w2=0 0.1 2012-03-08 11:56:00
1 2012-03-09 12:00:00 rrr = 0.2 y WW = 10 w1=2 w2=2 0.2 2016-08-19 17:33:00
1 2012-03-09 18:00:00 rrr = 0.1 y WW = 1 w1=4 w2=2 0.1 2016-08-19 17:35:00
1 2012-03-17 00:00:00 rrr = 2.3 y WW = 2 w1=2 w2=2 2.3 2016-08-19 18:05:00
1 2012-03-24 12:00:00 rrr = 3.0 y WW = 1 w1=2 w2=2 3.0 2012-03-24 11:57:00
1 2012-03-29 12:00:00 rrr = 0.7 y WW = 1 w1=1 w2=1 0.7 2016-08-19 19:33:00
1 2012-04-03 12:00:00 rrr = 0.8 y WW = 1 w1=0 w2=0 0.8 2012-04-03 11:51:00
1 2012-04-05 00:00:00 rrr = 0.1 y WW = 1 w1=2 w2=2 0.1 2016-08-22 15:19:00
1 2012-04-22 18:00:00 rrr = s/p y WW = 21 w1=2 w2=2 0.0 2016-08-22 19:26:00
1 2012-04-24 18:00:00 rrr = trazas y WW = 2 w1=2 w2=2 0.0 2012-04-24 17:48:00
1 2012-05-04 12:00:00 rrr = 0.5 y WW = 2 w1=2 w2=2 0.5 2016-08-23 14:49:00
1 2012-05-07 12:00:00 rrr = 0.1 y WW = 2 w1=2 w2=2 0.1 2012-05-07 13:02:00
1 2012-05-10 00:00:00 rrr = 0.4 y WW = 2 w1=2 w2=2 0.4 2016-08-23 16:18:00
1 2012-05-11 00:00:00 rrr = 0.1 y WW = 2 w1=2 w2=2 0.1 2016-08-23 16:23:00
1 2012-05-12 18:00:00 rrr = 1.6 y WW = 2 w1=2 w2=2 1.6 2016-08-23 16:40:00
1 2012-05-21 18:00:00 rrr = 0.2 y WW = 2 w1=2 w2=2 0.2 2016-08-23 17:28:00
1 2012-05-22 00:00:00 rrr = 1.3 y WW = 2 w1=2 w2=2 1.3 2016-08-23 17:29:00
1 2012-05-24 12:00:00 rrr = 0.1 y WW = 2 w1=2 w2=2 0.1 2016-08-23 18:17:00
1 2012-05-25 00:00:00 rrr = 0.4 y WW = 2 w1=2 w2=2 0.4 2016-08-23 18:23:00
1 2012-05-30 00:00:00 rrr = 0.2 y WW = 2 w1=2 w2=2 0.2 2012-05-30 12:57:00
1 2012-06-01 00:00:00 rrr = 0.1 y WW = 2 w1=2 w2=2 0.1 2016-08-23 19:43:00
1 2012-06-08 00:00:00 rrr = trazas y WW = 2 w1=2 w2=2 0.0 2012-06-08 12:54:00
1 2012-06-08 12:00:00 rrr = 0.8 y WW = 2 w1=2 w2=2 0.8 2012-06-08 12:57:00
1 2012-06-09 12:00:00 rrr = 2.1 y WW = 2 w1=2 w2=2 2.1 2012-06-09 14:48:00
1 2012-06-20 18:00:00 rrr = 0.2 y WW = 1 w1=2 w2=2 0.2 2016-08-24 18:33:00
1 2012-06-21 18:00:00 rrr = trazas y WW = 2 w1=2 w2=2 0.0 2012-06-21 17:46:00
1 2012-06-27 00:00:00 rrr = trazas y WW = 2 w1=2 w2=2 0.0 2016-08-24 19:52:00
1 2012-07-24 00:00:00 rrr = 1.1 y WW = 2 w1=2 w2=2 1.1 2016-08-25 19:29:00
1 2012-07-25 00:00:00 rrr = 1.7 y WW = 2 w1=1 w2=1 1.7 2016-08-25 19:36:00
1 2012-07-25 12:00:00 rrr = s/p y WW = 91 w1=7 w2=7 0.0 2016-08-25 19:36:00
1 2012-07-28 12:00:00 rrr = s/p y WW = 83 w1=7 w2=2 0.0 2012-07-28 11:58:00
1 2012-07-31 12:00:00 rrr = 1.2 y WW = 2 w1=0 w2=0 1.2 2012-07-31 12:55:00
1 2012-08-19 12:00:00 rrr = 0.5 y WW = 2 w1=2 w2=2 0.5 2016-08-26 18:25:00
1 2012-08-31 12:00:00 rrr = 0.4 y WW = 2 w1=0 w2=0 0.4 2016-08-29 12:59:00
1 2012-09-04 00:00:00 rrr = 0.1 y WW = 2 w1=2 w2=2 0.1 2016-08-29 13:19:00
1 2012-09-07 18:00:00 rrr = 0.1 y WW = 3 w1=2 w2=2 0.1 2012-09-07 17:49:00
1 2012-09-15 00:00:00 rrr = 0.2 y WW = 2 w1=2 w2=2 0.2 2016-08-29 16:17:00
1 2012-09-20 18:00:00 rrr = trazas y WW = 2 w1=2 w2=2 0.0 2012-09-20 17:55:00
1 2012-09-22 00:00:00 rrr = trazas y WW = 3 w1=2 w2=2 0.0 2012-09-22 13:43:00
1 2012-09-22 18:00:00 rrr = 0.1 y WW = 2 w1=2 w2=1 0.1 2012-09-22 17:56:00
1 2012-10-04 12:00:00 rrr = 0.5 y WW = 2 w1=0 w2=0 0.5 2012-10-04 11:54:00
1 2012-10-06 18:00:00 rrr = 0.8 y WW = 3 w1=2 w2=2 0.8 2016-08-29 18:53:00
1 2012-10-20 18:00:00 rrr = s/p y WW = 2 w1=6 w2=2 0.0 2016-08-29 19:30:00
1 2012-10-24 18:00:00 rrr = 0.1 y WW = 2 w1=2 w2=1 0.1 2012-10-24 17:58:00
1 2012-10-26 12:00:00 rrr = 0.2 y WW = 15 w1=2 w2=2 0.2 2016-08-29 19:43:00
1 2012-10-29 12:00:00 rrr = 3.3 y WW = 1 w1=0 w2=0 3.3 2016-08-29 20:12:00
1 2012-11-05 12:00:00 rrr = 0.1 y WW = 2 w1=2 w2=2 0.1 2016-08-30 13:23:00
1 2012-11-07 12:00:00 rrr = 0.1 y WW = 2 w1=2 w2=2 0.1 2012-11-07 11:57:00
1 2012-11-09 12:00:00 rrr = 1.0 y WW = 15 w1=2 w2=2 1.0 2016-08-30 14:33:00
1 2012-11-21 12:00:00 rrr = 8.4 y WW = 2 w1=2 w2=2 8.4 2012-11-21 11:54:00
1 2012-11-24 12:00:00 rrr = s/p y WW = 2 w1=8 w2=2 0.0 2016-08-31 15:54:00
1 2012-12-03 12:00:00 rrr = 0.1 y WW = 2 w1=2 w2=2 0.1 2012-12-03 11:57:00
1 2012-12-04 12:00:00 rrr = trazas y WW = 2 w1=2 w2=2 0.0 2012-12-04 11:52:00
1 2012-12-10 12:00:00 rrr = 0.1 y WW = 2 w1=2 w2=2 0.1 2012-12-10 11:58:00
1 2012-12-11 12:00:00 rrr = 1.1 y WW = 2 w1=2 w2=2 1.1 2012-12-11 11:57:00
1 2012-12-14 12:00:00 rrr = s/p y WW = 2 w1=8 w2=2 0.0 2016-08-31 17:15:00
1 2012-12-17 12:00:00 rrr = s/p y WW = 2 w1=8 w2=2 0.0 2016-08-31 17:45:00
1 2012-12-19 12:00:00 rrr = 0.7 y WW = 2 w1=2 w2=2 0.7 2012-12-19 11:55:00
1 2012-12-20 06:00:00 rrr = s/p y WW = 1 w1=5 w2=2 0.0 2016-08-31 17:53:00
1 2012-12-20 12:00:00 rrr = 0.2 y WW = 2 w1=2 w2=2 0.2 2012-12-20 11:54:00
1 2012-12-25 18:00:00 rrr = 0.7 y WW = 3 w1=2 w2=2 0.7 2016-08-31 18:34:00
1 2012-12-26 18:00:00 rrr = 0.3 y WW = 1 w1=2 w2=2 0.3 2016-08-31 18:36:00
1 2012-12-28 12:00:00 rrr = 0.3 y WW = 2 w1=2 w2=2 0.3 2012-12-28 11:49:00
1 2012-12-31 12:00:00 rrr = 0.3 y WW = 2 w1=2 w2=2 0.3 2016-08-31 19:12:00
1 2013-01-04 12:00:00 rrr = 1.1 y WW = 2 w1=2 w2=2 1.1 2013-01-04 11:51:00
1 2013-01-07 12:00:00 rrr = 18.8 y WW = 2 w1=2 w2=2 18.8 2013-01-07 11:52:00
1 2013-01-08 12:00:00 rrr = 4.7 y WW = 2 w1=2 w2=2 4.7 2013-01-08 11:51:00
1 2013-01-08 18:00:00 rrr = 0.1 y WW = 2 w1=2 w2=2 0.1 2013-01-08 17:57:00
1 2013-01-10 12:00:00 rrr = 1.4 y WW = 2 w1=2 w2=2 1.4 2013-01-10 11:55:00
1 2013-01-14 12:00:00 rrr = 0.1 y WW = 2 w1=2 w2=2 0.1 2013-01-14 11:58:00
1 2013-01-16 12:00:00 rrr = 0.1 y WW = 2 w1=2 w2=2 0.1 2013-01-16 11:54:00
1 2013-01-23 12:00:00 rrr = 0.5 y WW = 2 w1=2 w2=2 0.5 2013-01-23 11:59:00
1 2013-01-23 18:00:00 rrr = 1.9 y WW = 2 w1=2 w2=2 1.9 2013-01-23 17:55:00
1 2013-01-24 12:00:00 rrr = 7.3 y WW = 2 w1=2 w2=2 7.3 2013-01-24 11:54:00
1 2013-01-28 12:00:00 rrr = 2.8 y WW = 2 w1=2 w2=1 2.8 2013-01-28 11:58:00
1 2013-01-30 12:00:00 rrr = 0.6 y WW = 2 w1=2 w2=2 0.6 2013-01-30 11:54:00
1 2013-01-31 12:00:00 rrr = 0.9 y WW = 2 w1=2 w2=2 0.9 2013-01-31 12:01:00
1 2013-02-01 12:00:00 rrr = 0.5 y WW = 3 w1=2 w2=2 0.5 2013-02-01 11:56:00
1 2013-02-04 12:00:00 rrr = 8.9 y WW = 2 w1=2 w2=1 8.9 2013-02-04 12:02:00
1 2013-02-05 12:00:00 rrr = 0.4 y WW = 2 w1=2 w2=2 0.4 2013-02-05 11:51:00
1 2013-02-05 18:00:00 rrr = 0.1 y WW = 2 w1=2 w2=2 0.1 2013-02-05 17:57:00
1 2013-02-07 12:00:00 rrr = 0.8 y WW = 3 w1=2 w2=2 0.8 2013-02-07 11:53:00
1 2013-02-08 18:00:00 rrr = trazas y WW = 3 w1=2 w2=2 0.0 2013-02-08 17:55:00
1 2013-02-12 18:00:00 rrr = 8.8 y WW = 2 w1=2 w2=2 8.8 2013-02-12 17:55:00
1 2013-02-13 12:00:00 rrr = 0.2 y WW = 2 w1=2 w2=2 0.2 2013-02-13 11:50:00
1 2013-02-14 12:00:00 rrr = 0.1 y WW = 2 w1=2 w2=2 0.1 2013-02-14 11:51:00
1 2013-02-14 18:00:00 rrr = 0.1 y WW = 2 w1=3 w2=2 0.1 2013-02-14 17:54:00
1 2013-02-15 12:00:00 rrr = 2.3 y WW = 2 w1=2 w2=2 2.3 2013-02-15 11:50:00
1 2013-02-18 12:00:00 rrr = 10.1 y WW = 2 w1=2 w2=2 10.1 2013-02-18 12:02:00
1 2013-02-20 12:00:00 rrr = 0.3 y WW = 2 w1=2 w2=2 0.3 2013-02-20 11:51:00
1 2013-02-22 12:00:00 rrr = 0.4 y WW = 2 w1=2 w2=2 0.4 2013-02-22 11:54:00
1 2013-02-23 18:00:00 rrr = 0.1 y WW = 2 w1=2 w2=2 0.1 2013-02-23 17:58:00
1 2013-02-26 12:00:00 rrr = 0.4 y WW = 11 w1=2 w2=2 0.4 2013-02-26 11:52:00
1 2013-02-26 18:00:00 rrr = s/p y WW = 25 w1=2 w2=2 0.0 2013-02-26 17:56:00
1 2013-03-06 12:00:00 rrr = 3.0 y WW = 2 w1=2 w2=2 3.0 2013-03-06 11:53:00
1 2013-03-08 12:00:00 rrr = 0.3 y WW = 2 w1=2 w2=2 0.3 2013-03-08 11:49:00
1 2013-03-11 12:00:00 rrr = 5.2 y WW = 2 w1=2 w2=2 5.2 2013-03-11 11:54:00
1 2013-03-11 18:00:00 rrr = 0.3 y WW = 3 w1=2 w2=2 0.3 2013-03-11 17:51:00
1 2013-03-12 12:00:00 rrr = 0.8 y WW = 2 w1=2 w2=2 0.8 2013-03-12 11:53:00
1 2013-03-12 18:00:00 rrr = trazas y WW = 2 w1=2 w2=2 0.0 2013-03-12 17:51:00
1 2013-03-18 12:00:00 rrr = trazas y WW = 2 w1=2 w2=2 0.0 2013-03-18 11:58:00
1 2013-03-21 12:00:00 rrr = 1.5 y WW = 2 w1=2 w2=2 1.5 2013-03-21 11:51:00
1 2013-03-21 18:00:00 rrr = 0.1 y WW = 1 w1=2 w2=2 0.1 2013-03-21 17:50:00
1 2013-03-22 18:00:00 rrr = 0.1 y WW = 3 w1=2 w2=2 0.1 2013-03-22 17:53:00
1 2013-03-25 18:00:00 rrr = 0.1 y WW = 2 w1=3 w2=2 0.1 2013-03-25 17:51:00
1 2013-03-26 12:00:00 rrr = 6.1 y WW = 2 w1=2 w2=2 6.1 2013-03-26 11:58:00
1 2013-03-26 18:00:00 rrr = 0.1 y WW = 3 w1=2 w2=2 0.1 2013-03-26 17:53:00
1 2013-03-27 18:00:00 rrr = 0.3 y WW = 2 w1=2 w2=2 0.3 2013-03-27 17:57:00
1 2013-03-28 12:00:00 rrr = 0.3 y WW = 2 w1=2 w2=2 0.3 2013-03-28 11:54:00
1 2013-04-01 12:00:00 rrr = 1.0 y WW = 2 w1=2 w2=2 1.0 2013-04-01 11:55:00
1 2013-04-04 12:00:00 rrr = 2.1 y WW = 2 w1=2 w2=2 2.1 2013-04-04 11:54:00
1 2013-04-05 18:00:00 rrr = 0.4 y WW = 1 w1=1 w2=0 0.4 2013-04-05 17:52:00
1 2013-04-08 12:00:00 rrr = 3.2 y WW = 2 w1=2 w2=2 3.2 2013-04-08 11:56:00
1 2013-04-12 12:00:00 rrr = 0.2 y WW = 2 w1=2 w2=2 0.2 2013-04-12 11:53:00
1 2013-04-16 12:00:00 rrr = 6.0 y WW = 2 w1=2 w2=2 6.0 2013-04-16 11:56:00
1 2013-04-19 12:00:00 rrr = 0.1 y WW = 2 w1=2 w2=2 0.1 2013-04-19 11:55:00
1 2013-04-22 12:00:00 rrr = 0.7 y WW = 2 w1=2 w2=2 0.7 2013-04-22 11:58:00
1 2013-05-07 18:00:00 rrr = trazas y WW = 2 w1=2 w2=1 0.0 2013-05-07 17:53:00
1 2013-06-01 18:00:00 rrr = 0.3 y WW = 2 w1=2 w2=2 0.3 2013-06-01 17:56:00
1 2013-06-03 18:00:00 rrr = 1.2 y WW = 3 w1=2 w2=2 1.2 2013-06-03 17:56:00
1 2013-07-03 18:00:00 rrr = 0.1 y WW = 28 w1=4 w2=2 0.1 2013-07-03 17:53:00
1 2013-07-25 18:00:00 rrr = 0.7 y WW = 3 w1=1 w2=0 0.7 2013-07-25 17:57:00
1 2013-07-27 12:00:00 rrr = 0.2 y WW = 3 w1=2 w2=2 0.2 2013-07-27 12:00:00
1 2013-08-01 18:00:00 rrr = 0.1 y WW = 2 w1=2 w2=2 0.1 2013-08-01 17:54:00
1 2013-09-09 12:00:00 rrr = 0.5 y WW = 2 w1=2 w2=2 0.5 2013-09-09 11:57:00
1 2013-09-10 12:00:00 rrr = 0.1 y WW = 3 w1=2 w2=2 0.1 2013-09-10 11:52:00
1 2013-09-11 12:00:00 rrr = 0.3 y WW = 0 w1=0 w2=0 0.3 2013-09-11 11:54:00
1 2013-09-21 18:00:00 rrr = 0.7 y WW = 16 w1=2 w2=2 0.7 2013-09-21 17:50:00
1 2013-09-23 12:00:00 rrr = 3.2 y WW = 2 w1=0 w2=0 3.2 2013-09-23 16:34:00
1 2013-09-24 12:00:00 rrr = 0.1 y WW = 3 w1=2 w2=2 0.1 2013-09-24 11:54:00
1 2013-09-25 18:00:00 rrr = s/p y WW = 69 w1=7 w2=2 0.0 2013-09-25 17:57:00
1 2013-10-02 12:00:00 rrr = 0.2 y WW = 1 w1=2 w2=2 0.2 2013-10-02 11:51:00
1 2013-10-07 12:00:00 rrr = 0.9 y WW = 2 w1=2 w2=2 0.9 2013-10-07 11:52:00
1 2013-10-08 12:00:00 rrr = 0.1 y WW = 3 w1=2 w2=2 0.1 2013-10-08 11:53:00
1 2013-10-08 18:00:00 rrr = 0.1 y WW = 2 w1=2 w2=2 0.1 2013-10-08 17:52:00
1 2013-10-10 12:00:00 rrr = 1.1 y WW = 3 w1=2 w2=2 1.1 2013-10-10 11:52:00
1 2013-10-14 18:00:00 rrr = 0.1 y WW = 3 w1=2 w2=2 0.1 2013-10-14 17:52:00
1 2013-10-15 12:00:00 rrr = 0.1 y WW = 2 w1=1 w2=0 0.1 2013-10-15 11:54:00
1 2013-10-16 12:00:00 rrr = 0.4 y WW = 2 w1=1 w2=0 0.4 2013-10-16 11:57:00
1 2013-10-17 12:00:00 rrr = 0.1 y WW = 2 w1=2 w2=2 0.1 2013-10-17 11:59:00
1 2013-10-19 12:00:00 rrr = 0.3 y WW = 2 w1=1 w2=0 0.3 2013-10-19 11:56:00
1 2013-10-22 18:00:00 rrr = 0.7 y WW = 3 w1=2 w2=2 0.7 2013-10-22 17:54:00
1 2013-10-28 12:00:00 rrr = 2.8 y WW = 2 w1=1 w2=0 2.8 2013-10-28 11:58:00
1 2013-10-28 18:00:00 rrr = trazas y WW = 1 w1=0 w2=0 0.0 2013-10-28 17:55:00
1 2013-11-04 12:00:00 rrr = 2.0 y WW = 3 w1=2 w2=2 2.0 2013-11-04 11:55:00
1 2013-11-05 12:00:00 rrr = 0.1 y WW = 1 w1=2 w2=2 0.1 2013-11-05 11:52:00
1 2013-11-07 12:00:00 rrr = 3.1 y WW = 3 w1=0 w2=0 3.1 2013-11-07 11:54:00
1 2013-11-09 12:00:00 rrr = 0.1 y WW = 3 w1=2 w2=2 0.1 2013-11-09 11:56:00
1 2013-11-11 18:00:00 rrr = 0.8 y WW = 1 w1=2 w2=2 0.8 2013-11-11 17:56:00
1 2013-11-13 12:00:00 rrr = 0.6 y WW = 2 w1=2 w2=2 0.6 2013-11-13 11:47:00
1 2013-11-15 18:00:00 rrr = trazas y WW = 2 w1=2 w2=2 0.0 2013-11-15 17:54:00
1 2013-11-18 12:00:00 rrr = 3.8 y WW = 2 w1=2 w2=2 3.8 2013-11-18 11:54:00
1 2013-11-18 18:00:00 rrr = 0.1 y WW = 1 w1=2 w2=2 0.1 2013-11-18 17:50:00
1 2013-11-19 12:00:00 rrr = 0.2 y WW = 2 w1=2 w2=2 0.2 2013-11-19 11:52:00
1 2013-11-20 18:00:00 rrr = 0.1 y WW = 3 w1=2 w2=0 0.1 2013-11-20 17:55:00
1 2013-11-29 18:00:00 rrr = 0.2 y WW = 2 w1=2 w2=2 0.2 2013-11-29 17:56:00
1 2013-12-02 18:00:00 rrr = 0.1 y WW = 3 w1=2 w2=2 0.1 2013-12-02 17:58:00
1 2013-12-09 18:00:00 rrr = 1.6 y WW = 1 w1=2 w2=2 1.6 2013-12-09 17:53:00
1 2013-12-10 12:00:00 rrr = 1.0 y WW = 1 w1=0 w2=0 1.0 2013-12-10 11:58:00
1 2013-12-10 18:00:00 rrr = 0.8 y WW = 1 w1=2 w2=2 0.8 2013-12-10 17:53:00
1 2013-12-12 12:00:00 rrr = 1.5 y WW = 2 w1=2 w2=2 1.5 2013-12-12 11:52:00
1 2013-12-13 12:00:00 rrr = 1.1 y WW = 2 w1=2 w2=2 1.1 2013-12-13 11:49:00
1 2013-12-16 12:00:00 rrr = 6.4 y WW = 2 w1=2 w2=2 6.4 2013-12-16 12:04:00
1 2013-12-18 18:00:00 rrr = 0.6 y WW = 3 w1=2 w2=2 0.6 2013-12-18 17:51:00
1 2013-12-19 12:00:00 rrr = 0.4 y WW = 2 w1=2 w2=2 0.4 2013-12-19 11:57:00
1 2013-12-24 12:00:00 rrr = 0.9 y WW = 2 w1=2 w2=2 0.9 2013-12-24 11:52:00
1 2013-12-31 12:00:00 rrr = 2.2 y WW = 2 w1=2 w2=2 2.2 2013-12-31 11:55:00
1 2014-01-03 12:00:00 rrr = 0.6 y WW = 2 w1=2 w2=2 0.6 2014-01-03 11:51:00
1 2014-01-06 18:00:00 rrr = 2.6 y WW = 1 w1=2 w2=2 2.6 2014-01-06 17:52:00
1 2014-01-08 12:00:00 rrr = 1.0 y WW = 2 w1=2 w2=2 1.0 2014-01-08 11:55:00
1 2014-01-10 18:00:00 rrr = 0.3 y WW = 2 w1=2 w2=2 0.3 2014-01-10 17:51:00
1 2014-01-13 12:00:00 rrr = 1.5 y WW = 2 w1=2 w2=2 1.5 2014-01-13 11:57:00
1 2014-01-14 12:00:00 rrr = 0.1 y WW = 2 w1=2 w2=2 0.1 2014-01-14 11:49:00
1 2014-01-20 12:00:00 rrr = 1.0 y WW = 2 w1=2 w2=2 1.0 2014-01-20 11:53:00
1 2014-01-22 12:00:00 rrr = 4.3 y WW = 2 w1=2 w2=2 4.3 2014-01-22 11:52:00
1 2014-01-23 18:00:00 rrr = 0.1 y WW = 2 w1=2 w2=2 0.1 2014-01-23 17:55:00
1 2014-01-27 12:00:00 rrr = 3.0 y WW = 2 w1=2 w2=2 3.0 2014-01-27 11:51:00
1 2014-01-28 18:00:00 rrr = 0.1 y WW = 3 w1=2 w2=2 0.1 2014-01-28 17:50:00
1 2014-01-29 12:00:00 rrr = 0.4 y WW = 2 w1=0 w2=0 0.4 2014-01-29 11:51:00
1 2014-01-30 18:00:00 rrr = 1.4 y WW = 3 w1=2 w2=2 1.4 2014-01-30 17:53:00
1 2014-01-31 12:00:00 rrr = 1.2 y WW = 2 w1=2 w2=2 1.2 2014-01-31 11:54:00
1 2014-02-03 12:00:00 rrr = 1.4 y WW = 2 w1=2 w2=2 1.4 2014-02-03 11:52:00
1 2014-02-04 12:00:00 rrr = 0.2 y WW = 2 w1=2 w2=2 0.2 2014-02-04 11:55:00
1 2014-02-05 12:00:00 rrr = 7.1 y WW = 1 w1=2 w2=2 7.1 2014-02-05 11:55:00
1 2014-02-06 12:00:00 rrr = 2.5 y WW = 2 w1=2 w2=2 2.5 2014-02-06 11:53:00
1 2014-02-07 18:00:00 rrr = 0.8 y WW = 2 w1=2 w2=2 0.8 2014-02-07 17:59:00
1 2014-02-11 12:00:00 rrr = 0.2 y WW = 2 w1=2 w2=2 0.2 2014-02-11 11:55:00
1 2014-02-12 12:00:00 rrr = 0.4 y WW = 2 w1=2 w2=2 0.4 2014-02-12 11:54:00
1 2014-02-13 12:00:00 rrr = 1.8 y WW = 2 w1=2 w2=2 1.8 2014-02-13 11:54:00
1 2014-02-14 18:00:00 rrr = trazas y WW = 3 w1=0 w2=0 0.0 2014-02-14 17:56:00
1 2014-02-17 12:00:00 rrr = 1.4 y WW = 2 w1=2 w2=2 1.4 2014-02-17 11:52:00
1 2014-02-20 12:00:00 rrr = trazas y WW = 2 w1=2 w2=2 0.0 2014-02-20 11:58:00
1 2014-02-24 12:00:00 rrr = 2.8 y WW = 0 w1=0 w2=0 2.8 2014-02-25 15:16:00
1 2014-02-25 12:00:00 rrr = 0.1 y WW = 2 w1=2 w2=2 0.1 2014-02-25 13:40:00
1 2014-02-25 18:00:00 rrr = trazas y WW = 2 w1=2 w2=2 0.0 2014-02-25 17:55:00
1 2014-02-27 12:00:00 rrr = 2.6 y WW = 10 w1=2 w2=2 2.6 2014-02-27 11:51:00
1 2014-02-28 18:00:00 rrr = 0.3 y WW = 2 w1=2 w2=2 0.3 2014-02-28 17:54:00
1 2014-03-04 18:00:00 rrr = 0.8 y WW = 3 w1=2 w2=2 0.8 2014-03-04 17:54:00
1 2014-03-06 12:00:00 rrr = 0.8 y WW = 2 w1=0 w2=0 0.8 2014-03-06 11:54:00
1 2014-03-07 12:00:00 rrr = 0.2 y WW = 2 w1=0 w2=0 0.2 2014-03-07 11:54:00
1 2014-03-10 12:00:00 rrr = 1.0 y WW = 2 w1=1 w2=1 1.0 2014-03-10 11:57:00
1 2014-03-11 12:00:00 rrr = 4.7 y WW = 2 w1=0 w2=0 4.7 2014-03-11 11:56:00
1 2014-03-13 12:00:00 rrr = 3.3 y WW = 2 w1=2 w2=2 3.3 2014-03-13 11:55:00
1 2014-03-15 06:00:00 rrr = 0.2 y WW = 3 w1=2 w2=2 0.2 2014-03-15 05:56:00
1 2014-03-17 12:00:00 rrr = s/p y WW = 2 w1=8 w2=2 0.0 2014-03-17 11:57:00
1 2014-03-18 12:00:00 rrr = 1.5 y WW = 3 w1=2 w2=2 1.5 2014-03-18 11:56:00
1 2014-03-25 12:00:00 rrr = 0.1 y WW = 2 w1=2 w2=2 0.1 2014-03-25 11:57:00
1 2014-03-27 18:00:00 rrr = 2.4 y WW = 2 w1=2 w2=2 2.4 2014-03-27 17:57:00
1 2014-03-28 12:00:00 rrr = 1.4 y WW = 2 w1=0 w2=0 1.4 2014-03-28 11:58:00
1 2014-04-01 12:00:00 rrr = 0.1 y WW = 2 w1=0 w2=0 0.1 2014-04-01 11:56:00
1 2014-04-02 12:00:00 rrr = 0.3 y WW = 2 w1=2 w2=2 0.3 2014-04-02 11:54:00
1 2014-04-03 12:00:00 rrr = 0.2 y WW = 2 w1=2 w2=2 0.2 2014-04-03 11:53:00
1 2014-04-10 12:00:00 rrr = 0.1 y WW = 2 w1=2 w2=2 0.1 2014-04-10 11:59:00
1 2014-04-11 12:00:00 rrr = 2.8 y WW = 2 w1=2 w2=1 2.8 2014-04-11 11:55:00
1 2014-04-14 12:00:00 rrr = 12.2 y WW = 2 w1=2 w2=2 12.2 2014-04-14 11:58:00
1 2014-04-16 12:00:00 rrr = 0.4 y WW = 0 w1=0 w2=0 0.4 2014-04-16 11:51:00
1 2014-04-17 12:00:00 rrr = 1.0 y WW = 2 w1=2 w2=2 1.0 2014-04-17 11:56:00
1 2014-04-21 12:00:00 rrr = 2.3 y WW = 2 w1=2 w2=2 2.3 2014-04-21 11:54:00
1 2014-04-25 12:00:00 rrr = 0.1 y WW = 1 w1=2 w2=2 0.1 2014-04-25 11:51:00
1 2014-06-06 18:00:00 rrr = s/p y WW = 83 w1=8 w2=8 0.0 2014-06-06 18:10:00
1 2014-06-07 12:00:00 rrr = 0.1 y WW = 2 w1=2 w2=2 0.1 2014-06-07 11:57:00
1 2014-06-16 18:00:00 rrr = s/p y WW = 15 w1=8 w2=2 0.0 2014-06-16 17:56:00
1 2014-06-26 18:00:00 rrr = 0.1 y WW = 2 w1=2 w2=1 0.1 2014-06-26 17:58:00
1 2014-07-04 12:00:00 rrr = 0.8 y WW = 2 w1=0 w2=0 0.8 2014-07-04 11:53:00
1 2014-07-15 18:00:00 rrr = 0.6 y WW = 3 w1=2 w2=2 0.6 2014-07-15 17:56:00
1 2014-08-06 18:00:00 rrr = s/p y WW = 51 w1=8 w2=2 0.0 2014-08-06 17:55:00
1 2014-08-14 18:00:00 rrr = s/p y WW = 2 w1=8 w2=8 0.0 2014-08-14 17:52:00
1 2014-08-18 18:00:00 rrr = 0.1 y WW = 3 w1=2 w2=2 0.1 2014-08-18 17:54:00
1 2014-09-05 18:00:00 rrr = trazas y WW = 3 w1=2 w2=2 0.0 2014-09-05 17:57:00
1 2014-09-09 12:00:00 rrr = 0.1 y WW = 2 w1=2 w2=2 0.1 2014-09-09 11:52:00
1 2014-09-12 18:00:00 rrr = 0.1 y WW = 2 w1=2 w2=1 0.1 2014-09-12 17:58:00
1 2014-09-15 12:00:00 rrr = 1.0 y WW = 2 w1=2 w2=2 1.0 2014-10-14 19:24:00
1 2014-09-16 12:00:00 rrr = 0.2 y WW = 2 w1=2 w2=1 0.2 2014-09-16 11:48:00
1 2014-09-22 12:00:00 rrr = 15.8 y WW = 2 w1=2 w2=2 15.8 2014-09-22 11:48:00
1 2014-09-25 18:00:00 rrr = 0.1 y WW = 2 w1=2 w2=1 0.1 2014-09-25 17:56:00
1 2014-09-30 12:00:00 rrr = 0.1 y WW = 2 w1=2 w2=2 0.1 2014-09-30 11:56:00
1 2014-10-07 12:00:00 rrr = 3.6 y WW = 1 w1=2 w2=1 3.6 2014-10-07 11:56:00
1 2014-10-08 12:00:00 rrr = 0.2 y WW = 3 w1=2 w2=2 0.2 2014-10-08 11:49:00
1 2014-10-14 12:00:00 rrr = 2.2 y WW = 3 w1=2 w2=2 2.2 2014-10-14 11:58:00
1 2014-10-17 12:00:00 rrr = 0.1 y WW = 2 w1=2 w2=2 0.1 2014-10-17 11:55:00
1 2014-10-20 12:00:00 rrr = 0.2 y WW = 3 w1=2 w2=2 0.2 2014-10-20 11:53:00
1 2014-10-21 12:00:00 rrr = 0.6 y WW = 2 w1=2 w2=2 0.6 2014-10-21 11:56:00
1 2014-10-22 12:00:00 rrr = 4.9 y WW = 2 w1=2 w2=2 4.9 2014-10-22 11:51:00
1 2014-10-28 12:00:00 rrr = 0.1 y WW = 2 w1=2 w2=2 0.1 2014-10-28 11:55:00
1 2014-10-28 18:00:00 rrr = s/p y WW = 80 w1=8 w2=2 0.0 2014-10-28 17:54:00
1 2014-11-04 18:00:00 rrr = s/p y WW = 2 w1=8 w2=2 0.0 2014-11-04 17:58:00
1 2014-11-06 18:00:00 rrr = s/p y WW = 3 w1=8 w2=2 0.0 2014-11-06 17:56:00
1 2014-11-10 12:00:00 rrr = 5.3 y WW = 2 w1=2 w2=1 5.3 2014-11-10 11:53:00
1 2014-11-12 18:00:00 rrr = s/p y WW = 1 w1=5 w2=5 0.0 2014-11-12 17:59:00
1 2014-11-19 12:00:00 rrr = 0.2 y WW = 2 w1=1 w2=0 0.2 2014-11-19 11:55:00
1 2014-11-24 12:00:00 rrr = 0.2 y WW = 2 w1=2 w2=2 0.2 2014-11-24 11:51:00
1 2014-11-25 12:00:00 rrr = 0.2 y WW = 2 w1=2 w2=1 0.2 2014-11-25 11:52:00
1 2014-11-25 18:00:00 rrr = trazas y WW = 2 w1=2 w2=2 0.0 2014-11-25 17:53:00
1 2014-11-26 12:00:00 rrr = 0.5 y WW = 2 w1=2 w2=1 0.5 2014-11-26 11:53:00
1 2014-12-01 12:00:00 rrr = 0.8 y WW = 2 w1=2 w2=2 0.8 2014-12-01 11:53:00
1 2014-12-05 12:00:00 rrr = 0.6 y WW = 2 w1=2 w2=1 0.6 2014-12-05 11:50:00
1 2014-12-09 12:00:00 rrr = 0.2 y WW = 3 w1=2 w2=2 0.2 2014-12-09 11:57:00
1 2014-12-10 00:00:00 rrr = 2.6 y WW = 3 w1=1 w2=0 2.6 2014-12-09 23:58:00
1 2014-12-11 12:00:00 rrr = s/p y WW = 3 w1=8 w2=2 0.0 2014-12-11 11:54:00
1 2014-12-16 12:00:00 rrr = 3.5 y WW = 2 w1=2 w2=1 3.5 2014-12-16 11:55:00
1 2014-12-19 12:00:00 rrr = s/p y WW = 80 w1=5 w2=2 0.0 2014-12-19 11:56:00
1 2014-12-24 12:00:00 rrr = 0.2 y WW = 3 w1=2 w2=2 0.2 2014-12-24 11:54:00
1 2015-01-02 12:00:00 rrr = 0.3 y WW = 1 w1=2 w2=2 0.3 2015-01-02 11:58:00
1 2015-01-03 12:00:00 rrr = 0.1 y WW = 3 w1=0 w2=0 0.1 2015-01-03 11:53:00
1 2015-01-05 12:00:00 rrr = 0.6 y WW = 3 w1=2 w2=2 0.6 2015-01-05 11:52:00
1 2015-01-08 12:00:00 rrr = 0.6 y WW = 3 w1=2 w2=2 0.6 2015-01-08 11:59:00
1 2015-01-14 12:00:00 rrr = 0.5 y WW = 2 w1=2 w2=2 0.5 2015-01-14 11:55:00
1 2015-01-16 12:00:00 rrr = 4.5 y WW = 15 w1=2 w2=2 4.5 2015-01-16 11:53:00
1 2015-01-16 18:00:00 rrr = s/p y WW = 2 w1=8 w2=2 0.0 2015-01-16 17:52:00
1 2015-01-19 12:00:00 rrr = trazas y WW = 2 w1=2 w2=2 0.0 2015-01-19 11:50:00
1 2015-01-23 00:00:00 rrr = 0.3 y WW = 2 w1=2 w2=1 0.3 2015-01-22 23:58:00
1 2015-01-25 00:00:00 rrr = 0.6 y WW = 1 w1=2 w2=1 0.6 2015-01-24 23:54:00
1 2015-02-06 12:00:00 rrr = 0.5 y WW = 2 w1=1 w2=0 0.5 2015-02-06 11:47:00
1 2015-02-09 12:00:00 rrr = 0.1 y WW = 1 w1=2 w2=2 0.1 2015-02-09 12:02:00
1 2015-02-10 12:00:00 rrr = 0.4 y WW = 2 w1=2 w2=2 0.4 2015-02-10 11:53:00
1 2015-02-11 12:00:00 rrr = 1.5 y WW = 3 w1=2 w2=2 1.5 2015-02-11 12:00:00
1 2015-02-12 18:00:00 rrr = s/p y WW = 2 w1=8 w2=2 0.0 2015-02-12 17:57:00
1 2015-02-16 18:00:00 rrr = trazas y WW = 3 w1=2 w2=2 0.0 2015-02-16 17:54:00
1 2015-02-18 12:00:00 rrr = 0.6 y WW = 2 w1=2 w2=2 0.6 2015-02-18 11:52:00
1 2015-02-19 12:00:00 rrr = 0.5 y WW = 3 w1=2 w2=2 0.5 2015-02-19 11:58:00
1 2015-02-20 12:00:00 rrr = 0.2 y WW = 2 w1=2 w2=2 0.2 2015-02-20 11:54:00
1 2015-02-22 12:00:00 rrr = 0.2 y WW = 2 w1=2 w2=2 0.2 2015-02-22 11:56:00
1 2015-02-23 12:00:00 rrr = 1.9 y WW = 3 w1=2 w2=2 1.9 2015-02-23 11:59:00
1 2015-02-24 12:00:00 rrr = trazas y WW = 2 w1=2 w2=1 0.0 2015-02-24 11:54:00
1 2015-02-24 18:00:00 rrr = 0.3 y WW = 3 w1=2 w2=2 0.3 2015-02-24 17:55:00
1 2015-02-25 00:00:00 rrr = 0.3 y WW = 1 w1=2 w2=2 0.3 2015-02-24 23:58:00
1 2015-02-25 12:00:00 rrr = 0.1 y WW = 3 w1=0 w2=0 0.1 2015-02-25 12:00:00
1 2015-03-05 12:00:00 rrr = 0.2 y WW = 0 w1=0 w2=0 0.2 2015-03-05 11:56:00
1 2015-03-07 18:00:00 rrr = 20.0 y WW = 2 w1=0 w2=0 20.0 2015-03-07 17:54:00
1 2015-03-09 18:00:00 rrr = 0.1 y WW = 3 w1=2 w2=2 0.1 2015-03-09 17:54:00
1 2015-03-10 12:00:00 rrr = 4.9 y WW = 3 w1=1 w2=1 4.9 2015-03-10 11:57:00
1 2015-03-13 12:00:00 rrr = 1.2 y WW = 2 w1=2 w2=2 1.2 2015-03-13 11:54:00
1 2015-03-13 18:00:00 rrr = 0.3 y WW = 3 w1=2 w2=2 0.3 2015-03-13 17:56:00
1 2015-03-16 12:00:00 rrr = 0.1 y WW = 3 w1=2 w2=2 0.1 2015-03-16 12:01:00
1 2015-03-17 12:00:00 rrr = 0.1 y WW = 3 w1=2 w2=2 0.1 2015-03-17 11:56:00
1 2015-03-20 12:00:00 rrr = 0.3 y WW = 3 w1=1 w2=1 0.3 2015-03-20 11:55:00
1 2015-03-21 18:00:00 rrr = 0.2 y WW = 3 w1=2 w2=2 0.2 2015-03-21 17:58:00
1 2015-03-24 12:00:00 rrr = 0.1 y WW = 0 w1=0 w2=0 0.1 2015-03-24 11:58:00
1 2015-03-25 18:00:00 rrr = 2.7 y WW = 16 w1=2 w2=2 2.7 2015-03-25 17:59:00
1 2015-03-28 18:00:00 rrr = s/p y WW = 51 w1=5 w2=2 0.0 2015-03-28 17:54:00
1 2015-03-30 18:00:00 rrr = s/p y WW = 3 w1=8 w2=2 0.0 2015-03-30 17:55:00
1 2015-03-31 12:00:00 rrr = 0.7 y WW = 2 w1=1 w2=0 0.7 2015-03-31 11:51:00
1 2015-04-06 18:00:00 rrr = 0.2 y WW = 1 w1=0 w2=0 0.2 2015-04-06 18:02:00
1 2015-04-08 18:00:00 rrr = 0.2 y WW = 3 w1=1 w2=1 0.2 2015-04-08 17:57:00
1 2015-04-09 12:00:00 rrr = 0.3 y WW = 3 w1=1 w2=1 0.3 2015-04-09 11:59:00
1 2015-04-14 12:00:00 rrr = 0.1 y WW = 2 w1=2 w2=2 0.1 2015-04-14 11:50:00
1 2015-04-20 12:00:00 rrr = 1.5 y WW = 2 w1=2 w2=2 1.5 2015-04-20 11:59:00
1 2015-04-21 12:00:00 rrr = 0.1 y WW = 3 w1=1 w2=1 0.1 2015-04-21 11:57:00
1 2015-04-22 12:00:00 rrr = 0.2 y WW = 2 w1=2 w2=2 0.2 2015-04-22 11:52:00
1 2015-04-23 18:00:00 rrr = 0.5 y WW = 2 w1=1 w2=0 0.5 2015-04-23 17:59:00
1 2015-04-28 12:00:00 rrr = trazas y WW = 2 w1=2 w2=2 0.0 2015-04-28 11:51:00
1 2015-04-30 12:00:00 rrr = trazas y WW = 2 w1=2 w2=1 0.0 2015-04-30 11:46:00
1 2015-05-12 12:00:00 rrr = 0.1 y WW = 1 w1=2 w2=2 0.1 2015-05-12 12:01:00
1 2015-05-13 12:00:00 rrr = 4.7 y WW = 2 w1=1 w2=0 4.7 2015-05-13 11:58:00
1 2015-05-15 12:00:00 rrr = trazas y WW = 1 w1=0 w2=0 0.0 2015-05-15 11:54:00
1 2015-05-20 18:00:00 rrr = s/p y WW = 81 w1=8 w2=2 0.0 2015-05-20 17:51:00
1 2015-06-07 12:00:00 rrr = trazas y WW = 2 w1=2 w2=1 0.0 2015-06-07 11:49:00
1 2015-06-07 18:00:00 rrr = 1.1 y WW = 2 w1=2 w2=1 1.1 2015-06-07 17:42:00
1 2015-06-09 12:00:00 rrr = 0.2 y WW = 2 w1=0 w2=0 0.2 2015-06-09 11:54:00
1 2015-06-11 12:00:00 rrr = 1.5 y WW = 3 w1=2 w2=2 1.5 2015-06-11 13:58:00
1 2015-06-15 12:00:00 rrr = 18.0 y WW = 3 w1=1 w2=1 18.0 2015-06-15 14:57:00
1 2015-06-16 18:00:00 rrr = 5.0 y WW = 2 w1=2 w2=2 5.0 2015-06-16 17:59:00
1 2015-06-19 12:00:00 rrr = 0.1 y WW = 2 w1=2 w2=2 0.1 2015-06-19 11:59:00
1 2015-06-20 12:00:00 rrr = 0.1 y WW = 2 w1=2 w2=1 0.1 2015-06-20 12:00:00
1 2015-06-22 12:00:00 rrr = 7.3 y WW = 3 w1=0 w2=0 7.3 2015-06-22 12:01:00
1 2015-06-23 12:00:00 rrr = trazas y WW = 3 w1=1 w2=1 0.0 2015-06-23 11:52:00
1 2015-07-01 12:00:00 rrr = 4.4 y WW = 16 w1=2 w2=2 4.4 2015-07-01 14:23:00
1 2015-07-01 18:00:00 rrr = 4.0 y WW = 3 w1=1 w2=1 4.0 2015-07-01 17:57:00
1 2015-07-02 12:00:00 rrr = 0.3 y WW = 3 w1=2 w2=2 0.3 2015-07-02 12:00:00
1 2015-07-06 12:00:00 rrr = 0.1 y WW = 3 w1=2 w2=2 0.1 2015-07-06 11:56:00
1 2015-07-18 18:00:00 rrr = 0.8 y WW = 1 w1=1 w2=1 0.8 2015-07-18 17:57:00
1 2015-07-26 12:00:00 rrr = 0.1 y WW = 40 w1=2 w2=2 0.1 2015-07-26 12:00:00
1 2015-08-03 12:00:00 rrr = 0.1 y WW = 2 w1=2 w2=2 0.1 2015-08-03 12:00:00
1 2015-08-03 18:00:00 rrr = 1.8 y WW = 1 w1=2 w2=2 1.8 2015-08-03 17:53:00
1 2015-08-04 12:00:00 rrr = 3.0 y WW = 3 w1=0 w2=0 3.0 2015-08-04 11:49:00
1 2015-08-05 18:00:00 rrr = 1.3 y WW = 3 w1=2 w2=2 1.3 2015-08-05 17:59:00
1 2015-08-10 12:00:00 rrr = s/p y WW = 51 w1=2 w2=2 0.0 2015-08-10 12:00:00
1 2015-08-10 18:00:00 rrr = 0.5 y WW = 3 w1=2 w2=2 0.5 2015-08-10 17:56:00
1 2015-08-12 12:00:00 rrr = 2.8 y WW = 2 w1=2 w2=1 2.8 2015-08-12 11:51:00
1 2015-08-19 12:00:00 rrr = 30.0 y WW = 2 w1=2 w2=2 30.0 2015-08-19 11:58:00
1 2015-08-24 12:00:00 rrr = trazas y WW = 2 w1=2 w2=1 0.0 2015-08-24 11:59:00
1 2015-08-31 12:00:00 rrr = 4.0 y WW = 3 w1=0 w2=0 4.0 2015-08-31 12:01:00
1 2015-09-02 12:00:00 rrr = trazas y WW = 2 w1=0 w2=0 0.0 2015-09-02 11:59:00
1 2015-09-08 18:00:00 rrr = 3.6 y WW = 3 w1=1 w2=1 3.6 2015-09-08 17:59:00
1 2015-09-10 12:00:00 rrr = 10.0 y WW = 15 w1=2 w2=2 10.0 2015-09-10 11:59:00
1 2015-09-11 18:00:00 rrr = 0.2 y WW = 3 w1=1 w2=1 0.2 2015-09-11 17:58:00
1 2015-10-20 12:00:00 rrr = 0.2 y WW = 2 w1=2 w2=2 0.2 2015-10-20 12:02:00
1 2015-10-20 18:00:00 rrr = 1.1 y WW = 3 w1=2 w2=2 1.1 2015-10-20 17:55:00
1 2015-10-21 12:00:00 rrr = 0.1 y WW = 1 w1=2 w2=2 0.1 2015-10-21 11:59:00
1 2015-10-29 12:00:00 rrr = 0.7 y WW = 3 w1=1 w2=1 0.7 2015-10-29 11:58:00
1 2015-10-30 18:00:00 rrr = 0.6 y WW = 1 w1=2 w2=2 0.6 2015-10-30 17:53:00
1 2015-11-05 12:00:00 rrr = 0.7 y WW = 2 w1=2 w2=2 0.7 2015-11-05 11:57:00
1 2015-11-09 12:00:00 rrr = 0.5 y WW = 2 w1=2 w2=2 0.5 2015-11-09 11:59:00
1 2015-11-11 12:00:00 rrr = 0.6 y WW = 1 w1=2 w2=1 0.6 2015-11-11 11:56:00
1 2015-11-11 18:00:00 rrr = s/p y WW = 1 w1=8 w2=2 0.0 2015-11-11 17:58:00
1 2015-11-13 12:00:00 rrr = 0.1 y WW = 3 w1=0 w2=0 0.1 2015-11-13 11:53:00
1 2015-11-17 12:00:00 rrr = 3.3 y WW = 3 w1=2 w2=2 3.3 2015-11-17 11:58:00
1 2015-11-20 18:00:00 rrr = 0.1 y WW = 1 w1=2 w2=2 0.1 2015-11-20 18:01:00
1 2015-11-22 18:00:00 rrr = 0.3 y WW = 3 w1=2 w2=2 0.3 2015-11-22 17:57:00
1 2015-11-23 12:00:00 rrr = trazas y WW = 3 w1=2 w2=2 0.0 2015-11-23 12:01:00
1 2015-11-29 12:00:00 rrr = 5.0 y WW = 2 w1=2 w2=1 5.0 2015-11-29 11:56:00
1 2015-11-30 12:00:00 rrr = 0.6 y WW = 3 w1=2 w2=2 0.6 2015-11-30 11:58:00
1 2015-12-01 18:00:00 rrr = 0.6 y WW = 1 w1=1 w2=1 0.6 2015-12-01 17:56:00
1 2015-12-03 12:00:00 rrr = 1.5 y WW = 3 w1=2 w2=2 1.5 2015-12-03 11:59:00
1 2015-12-04 12:00:00 rrr = 0.7 y WW = 3 w1=2 w2=2 0.7 2015-12-14 12:02:00
1 2015-12-09 12:00:00 rrr = 0.8 y WW = 3 w1=2 w2=2 0.8 2015-12-14 14:40:00
1 2015-12-11 18:00:00 rrr = 0.4 y WW = 3 w1=2 w2=2 0.4 2015-12-11 17:55:00
1 2015-12-14 12:00:00 rrr = 0.5 y WW = 3 w1=2 w2=2 0.5 2015-12-14 12:00:00
1 2015-12-16 12:00:00 rrr = trazas y WW = 2 w1=2 w2=2 0.0 2015-12-16 11:57:00
1 2015-12-19 12:00:00 rrr = trazas y WW = 2 w1=1 w2=1 0.0 2015-12-19 12:15:00
1 2015-12-22 12:00:00 rrr = 0.1 y WW = 2 w1=2 w2=2 0.1 2015-12-22 11:58:00
1 2015-12-22 18:00:00 rrr = s/p y WW = 50 w1=8 w2=2 0.0 2015-12-22 18:00:00
1 2015-12-23 12:00:00 rrr = 0.8 y WW = 1 w1=1 w2=1 0.8 2015-12-23 11:57:00
1 2015-12-23 18:00:00 rrr = trazas y WW = 1 w1=2 w2=2 0.0 2015-12-23 17:59:00
1 2015-12-24 12:00:00 rrr = 3.8 y WW = 2 w1=2 w2=2 3.8 2015-12-24 11:55:00
1 2015-12-25 12:00:00 rrr = s/p y WW = 80 w1=8 w2=2 0.0 2015-12-25 11:55:00
1 2015-12-31 12:00:00 rrr = 0.2 y WW = 3 w1=2 w2=2 0.2 2015-12-31 12:02:00
1 2016-01-02 18:00:00 rrr = s/p y WW = 0 w1=8 w2=2 0.0 2016-01-02 17:52:00
1 2016-01-04 18:00:00 rrr = s/p y WW = 2 w1=8 w2=2 0.0 2016-01-04 17:51:00
1 2016-01-06 12:00:00 rrr = 0.2 y WW = 2 w1=2 w2=2 0.2 2016-01-06 11:54:00
1 2016-01-07 18:00:00 rrr = s/p y WW = 80 w1=5 w2=2 0.0 2016-01-07 17:53:00
1 2016-01-08 12:00:00 rrr = 3.7 y WW = 3 w1=2 w2=2 3.7 2016-01-08 11:55:00
1 2016-01-18 18:00:00 rrr = trazas y WW = 3 w1=2 w2=2 0.0 2016-01-18 17:53:00
1 2016-01-19 18:00:00 rrr = s/p y WW = 2 w1=8 w2=2 0.0 2016-01-19 17:56:00
1 2016-01-22 12:00:00 rrr = 2.0 y WW = 2 w1=2 w2=1 2.0 2016-01-22 11:59:00
1 2016-01-25 12:00:00 rrr = trazas y WW = 2 w1=2 w2=2 0.0 2016-01-25 11:58:00
1 2016-01-27 00:00:00 rrr = 0.2 y WW = 1 w1=2 w2=2 0.2 2016-02-01 19:11:00
1 2016-01-28 00:00:00 rrr = 0.2 y WW = 1 w1=2 w2=2 0.2 2016-01-28 00:04:00
1 2016-01-29 12:00:00 rrr = trazas y WW = 2 w1=2 w2=2 0.0 2016-01-29 11:58:00
1 2016-01-30 12:00:00 rrr = trazas y WW = 2 w1=2 w2=2 0.0 2016-01-30 11:57:00
1 2016-02-01 12:00:00 rrr = 2.0 y WW = 2 w1=2 w2=2 2.0 2016-02-01 11:54:00
1 2016-02-01 18:00:00 rrr = trazas y WW = 2 w1=2 w2=2 0.0 2016-02-01 17:56:00
1 2016-02-04 12:00:00 rrr = 0.2 y WW = 1 w1=2 w2=2 0.2 2016-02-04 11:57:00
1 2016-02-08 18:00:00 rrr = 0.1 y WW = 3 w1=2 w2=2 0.1 2016-02-08 17:59:00
1 2016-02-09 12:00:00 rrr = 1.2 y WW = 3 w1=0 w2=0 1.2 2016-02-09 11:57:00
1 2016-02-10 12:00:00 rrr = 7.2 y WW = 2 w1=2 w2=1 7.2 2016-02-10 11:56:00
1 2016-02-11 12:00:00 rrr = 1.3 y WW = 3 w1=2 w2=2 1.3 2016-02-11 11:53:00
1 2016-02-13 12:00:00 rrr = 0.6 y WW = 2 w1=1 w2=1 0.6 2016-02-13 11:53:00
1 2016-02-16 12:00:00 rrr = 0.3 y WW = 2 w1=1 w2=0 0.3 2016-02-16 11:54:00
1 2016-02-17 12:00:00 rrr = 0.3 y WW = 3 w1=2 w2=2 0.3 2016-02-17 11:59:00
1 2016-02-18 12:00:00 rrr = 0.6 y WW = 3 w1=2 w2=2 0.6 2016-02-18 11:58:00
1 2016-02-22 12:00:00 rrr = 0.2 y WW = 3 w1=2 w2=2 0.2 2016-02-22 11:58:00
1 2016-02-24 12:00:00 rrr = 2.6 y WW = 2 w1=2 w2=2 2.6 2016-02-24 11:59:00
1 2016-02-25 12:00:00 rrr = 0.7 y WW = 3 w1=2 w2=2 0.7 2016-02-25 11:55:00
1 2016-02-25 18:00:00 rrr = s/p y WW = 50 w1=5 w2=2 0.0 2016-02-25 17:56:00
1 2016-03-01 12:00:00 rrr = 1.4 y WW = 2 w1=2 w2=2 1.4 2016-03-01 11:54:00
1 2016-03-04 12:00:00 rrr = 1.1 y WW = 3 w1=2 w2=2 1.1 2016-03-04 11:56:00
1 2016-03-05 00:00:00 rrr = 0.1 y WW = 2 w1=2 w2=2 0.1 2016-03-04 23:57:00
1 2016-03-11 12:00:00 rrr = 0.4 y WW = 3 w1=2 w2=2 0.4 2016-03-11 11:55:00
1 2016-03-20 12:00:00 rrr = 0.1 y WW = 3 w1=2 w2=2 0.1 2016-03-20 11:58:00
1 2016-03-21 18:00:00 rrr = 2.2 y WW = 2 w1=2 w2=2 2.2 2016-03-21 17:52:00
1 2016-03-22 12:00:00 rrr = 0.6 y WW = 2 w1=0 w2=0 0.6 2016-03-22 12:00:00
1 2016-03-28 12:00:00 rrr = 0.2 y WW = 1 w1=2 w2=2 0.2 2016-03-28 12:01:00
1 2016-04-01 12:00:00 rrr = 0.1 y WW = 2 w1=2 w2=2 0.1 2016-04-01 11:54:00
1 2016-04-01 18:00:00 rrr = s/p y WW = 51 w1=8 w2=2 0.0 2016-04-01 17:52:00
1 2016-04-06 18:00:00 rrr = trazas y WW = 2 w1=2 w2=1 0.0 2016-04-06 17:57:00
1 2016-04-07 12:00:00 rrr = 2.2 y WW = 2 w1=1 w2=0 2.2 2016-04-07 11:56:00
1 2016-04-11 12:00:00 rrr = 0.1 y WW = 2 w1=2 w2=2 0.1 2016-04-11 12:00:00
1 2016-04-12 12:00:00 rrr = 1.8 y WW = 2 w1=2 w2=2 1.8 2016-04-12 12:00:00
1 2016-04-13 18:00:00 rrr = trazas y WW = 2 w1=2 w2=2 0.0 2016-04-13 17:56:00
1 2016-04-15 12:00:00 rrr = 1.5 y WW = 2 w1=2 w2=0 1.5 2016-04-15 11:59:00
1 2016-04-18 12:00:00 rrr = 1.2 y WW = 2 w1=2 w2=2 1.2 2016-05-12 18:58:00
1 2016-04-20 12:00:00 rrr = 0.9 y WW = 2 w1=2 w2=2 0.9 2016-04-20 11:57:00
1 2016-04-21 12:00:00 rrr = 3.3 y WW = 16 w1=2 w2=2 3.3 2016-04-21 12:07:00
1 2016-04-21 18:00:00 rrr = 1.8 y WW = 3 w1=2 w2=2 1.8 2016-04-21 17:58:00
1 2016-04-25 18:00:00 rrr = 0.3 y WW = 1 w1=1 w2=1 0.3 2016-04-25 17:56:00
1 2016-04-27 12:00:00 rrr = 0.1 y WW = 3 w1=2 w2=2 0.1 2016-04-27 11:54:00
1 2016-04-27 18:00:00 rrr = 0.2 y WW = 16 w1=2 w2=2 0.2 2016-04-27 17:56:00
1 2016-04-28 12:00:00 rrr = 1.5 y WW = 3 w1=1 w2=1 1.5 2016-04-28 11:50:00
1 2016-05-02 12:00:00 rrr = 0.8 y WW = 3 w1=2 w2=2 0.8 2016-05-02 12:00:00
1 2016-05-03 18:00:00 rrr = 0.1 y WW = 1 w1=2 w2=2 0.1 2016-05-03 17:57:00
1 2016-05-04 18:00:00 rrr = trazas y WW = 2 w1=2 w2=2 0.0 2016-05-04 17:57:00
1 2016-05-05 00:00:00 rrr = trazas y WW = 2 w1=2 w2=2 0.0 2016-05-04 23:58:00
1 2016-05-05 12:00:00 rrr = trazas y WW = 2 w1=2 w2=1 0.0 2016-05-05 11:53:00
1 2016-05-12 12:00:00 rrr = 0.3 y WW = 2 w1=2 w2=2 0.3 2016-05-12 11:57:00
1 2016-05-19 12:00:00 rrr = 0.2 y WW = 2 w1=2 w2=2 0.2 2016-05-19 11:59:00
1 2016-06-03 06:00:00 rrr = 0.1 y WW = 2 w1=0 w2=0 0.1 2016-06-03 05:55:00
1 2016-06-07 18:00:00 rrr = 0.1 y WW = 1 w1=2 w2=2 0.1 2016-06-07 17:54:00
1 2016-06-12 18:00:00 rrr = 0.1 y WW = 3 w1=2 w2=2 0.1 2016-06-12 17:55:00
1 2016-06-13 18:00:00 rrr = trazas y WW = 2 w1=2 w2=2 0.0 2016-06-13 17:56:00
1 2016-06-23 18:00:00 rrr = 0.1 y WW = 1 w1=2 w2=2 0.1 2016-06-23 17:55:00
1 2016-07-01 18:00:00 rrr = 1.5 y WW = 2 w1=2 w2=2 1.5 2016-07-01 17:54:00
1 2016-07-04 18:00:00 rrr = 0.2 y WW = 1 w1=1 w2=1 0.2 2016-07-04 17:58:00
1 2016-07-07 18:00:00 rrr = 0.1 y WW = 2 w1=2 w2=2 0.1 2016-07-07 17:54:00
1 2016-08-15 18:00:00 rrr = trazas y WW = 2 w1=2 w2=2 0.0 2016-08-15 17:57:00
1 2016-08-16 18:00:00 rrr = 1.4 y WW = 2 w1=2 w2=2 1.4 2016-08-16 17:59:00
1 2016-08-17 12:00:00 rrr = 2.1 y WW = 2 w1=2 w2=2 2.1 2016-08-17 11:59:00
1 2016-08-23 12:00:00 rrr = trazas y WW = 2 w1=2 w2=1 0.0 2016-08-23 11:58:00
1 2016-08-30 12:00:00 rrr = 0.2 y WW = 3 w1=2 w2=2 0.2 2016-08-30 12:00:00
1 2016-08-30 18:00:00 rrr = 1.8 y WW = 1 w1=2 w2=2 1.8 2016-08-30 17:52:00
1 2016-08-31 12:00:00 rrr = 0.9 y WW = 2 w1=2 w2=2 0.9 2016-08-31 11:57:00
1 2016-08-31 18:00:00 rrr = trazas y WW = 2 w1=2 w2=1 0.0 2016-08-31 17:58:00
1 2016-09-01 18:00:00 rrr = 1.8 y WW = 16 w1=2 w2=2 1.8 2016-09-01 17:57:00
1 2016-09-12 12:00:00 rrr = 0.5 y WW = 2 w1=2 w2=2 0.5 2016-09-12 11:59:00
1 2016-09-22 12:00:00 rrr = 0.4 y WW = 3 w1=0 w2=0 0.4 2016-09-22 11:58:00
1 2016-09-26 12:00:00 rrr = 0.2 y WW = 2 w1=2 w2=2 0.2 2016-09-26 11:57:00
1 2016-09-30 12:00:00 rrr = 0.2 y WW = 2 w1=2 w2=2 0.2 2016-09-30 11:53:00
1 2016-10-04 12:00:00 rrr = 6.3 y WW = 16 w1=2 w2=2 6.3 2016-10-04 12:01:00
1 2016-10-05 12:00:00 rrr = 0.1 y WW = 0 w1=0 w2=0 0.1 2016-10-05 11:51:00
1 2016-10-06 18:00:00 rrr = trazas y WW = 2 w1=2 w2=2 0.0 2016-10-06 17:43:00
1 2016-10-11 00:00:00 rrr = 0.9 y WW = 1 w1=0 w2=0 0.9 2016-10-10 23:59:00
1 2016-10-11 12:00:00 rrr = 0.1 y WW = 2 w1=0 w2=0 0.1 2016-10-11 12:00:00
1 2016-10-13 12:00:00 rrr = 1.1 y WW = 3 w1=2 w2=2 1.1 2016-10-13 12:00:00
1 2016-10-27 12:00:00 rrr = s/p y WW = 3 w1=8 w2=2 0.0 2016-10-27 11:58:00
1 2016-10-29 18:00:00 rrr = s/p y WW = 3 w1=6 w2=2 0.0 2016-10-29 17:50:00
1 2016-11-11 18:00:00 rrr = 0.9 y WW = 3 w1=2 w2=2 0.9 2016-11-11 17:56:00
1 2016-11-14 12:00:00 rrr = 0.7 y WW = 2 w1=2 w2=2 0.7 2016-11-14 11:53:00
1 2016-11-21 12:00:00 rrr = 2.4 y WW = 3 w1=2 w2=2 2.4 2016-11-21 11:54:00
1 2016-11-28 12:00:00 rrr = 0.4 y WW = 2 w1=2 w2=2 0.4 2016-11-28 11:54:00
1 2016-11-29 18:00:00 rrr = 0.1 y WW = 2 w1=1 w2=1 0.1 2016-11-29 17:55:00
1 2016-12-02 12:00:00 rrr = 0.1 y WW = 2 w1=2 w2=2 0.1 2016-12-02 11:59:00
1 2016-12-04 18:00:00 rrr = 12.0 y WW = 2 w1=1 w2=1 12.0 2016-12-04 17:59:00
1 2016-12-06 18:00:00 rrr = 1.1 y WW = 2 w1=2 w2=2 1.1 2016-12-06 18:02:00
1 2016-12-07 12:00:00 rrr = 0.1 y WW = 3 w1=2 w2=2 0.1 2016-12-07 12:04:00
1 2016-12-09 12:00:00 rrr = 0.7 y WW = 2 w1=2 w2=2 0.7 2016-12-09 11:56:00
1 2016-12-13 12:00:00 rrr = 1.2 y WW = 2 w1=2 w2=2 1.2 2016-12-13 11:53:00
1 2016-12-14 12:00:00 rrr = trazas y WW = 2 w1=2 w2=2 0.0 2016-12-14 11:54:00
1 2016-12-15 12:00:00 rrr = 4.3 y WW = 3 w1=1 w2=1 4.3 2016-12-15 11:57:00
1 2016-12-21 12:00:00 rrr = 0.9 y WW = 3 w1=2 w2=2 0.9 2016-12-21 11:57:00
1 2016-12-22 12:00:00 rrr = 1.5 y WW = 2 w1=2 w2=2 1.5 2016-12-22 11:59:00
1 2016-12-22 18:00:00 rrr = 3.7 y WW = 3 w1=2 w2=2 3.7 2016-12-22 17:58:00
1 2016-12-26 12:00:00 rrr = 0.2 y WW = 2 w1=2 w2=2 0.2 2016-12-26 11:53:00
1 2016-12-28 12:00:00 rrr = 0.6 y WW = 2 w1=2 w2=2 0.6 2016-12-28 11:59:00
1 2017-01-02 12:00:00 rrr = 0.3 y WW = 0 w1=2 w2=2 0.3 2017-01-02 11:59:00
1 2017-01-02 18:00:00 rrr = 1.1 y WW = 15 w1=2 w2=2 1.1 2017-01-02 17:59:00
1 2017-01-03 12:00:00 rrr = 0.8 y WW = 2 w1=2 w2=2 0.8 2017-01-03 11:59:00
1 2017-01-05 12:00:00 rrr = 1.0 y WW = 2 w1=2 w2=2 1.0 2017-01-05 11:59:00
1 2017-01-06 12:00:00 rrr = 1.0 y WW = 16 w1=2 w2=2 1.0 2017-01-06 12:03:00
1 2017-01-09 12:00:00 rrr = 2.4 y WW = 2 w1=0 w2=0 2.4 2017-01-09 11:56:00
1 2017-01-09 18:00:00 rrr = 0.4 y WW = 3 w1=2 w2=2 0.4 2017-01-09 17:51:00
1 2017-01-11 12:00:00 rrr = 0.2 y WW = 2 w1=2 w2=2 0.2 2017-01-11 11:55:00
1 2017-01-12 12:00:00 rrr = 0.1 y WW = 3 w1=2 w2=2 0.1 2017-01-12 11:51:00
1 2017-01-20 12:00:00 rrr = 0.1 y WW = 2 w1=1 w2=1 0.1 2017-01-20 11:56:00
1 2017-01-22 12:00:00 rrr = 0.5 y WW = 3 w1=2 w2=2 0.5 2017-01-22 11:55:00
1 2017-01-24 12:00:00 rrr = 0.1 y WW = 3 w1=2 w2=2 0.1 2017-01-24 12:00:00
1 2017-01-24 18:00:00 rrr = trazas y WW = 2 w1=2 w2=2 0.0 2017-01-24 17:55:00
1 2017-01-26 12:00:00 rrr = 0.1 y WW = 2 w1=2 w2=2 0.1 2017-01-26 11:59:00
1 2017-01-30 12:00:00 rrr = 1.2 y WW = 2 w1=2 w2=2 1.2 2017-01-30 11:57:00
1 2017-01-30 18:00:00 rrr = 0.1 y WW = 3 w1=2 w2=2 0.1 2017-01-30 17:58:00
1 2017-02-03 12:00:00 rrr = 0.5 y WW = 3 w1=2 w2=2 0.5 2017-02-03 11:56:00
1 2017-02-06 12:00:00 rrr = 0.3 y WW = 3 w1=2 w2=2 0.3 2017-02-06 11:52:00
1 2017-02-07 12:00:00 rrr = 0.9 y WW = 2 w1=2 w2=2 0.9 2017-02-07 11:57:00
1 2017-02-09 12:00:00 rrr = 0.2 y WW = 2 w1=2 w2=1 0.2 2017-02-09 11:56:00
1 2017-02-10 12:00:00 rrr = trazas y WW = 2 w1=2 w2=2 0.0 2017-02-10 11:52:00
1 2017-02-13 12:00:00 rrr = 0.2 y WW = 1 w1=1 w2=0 0.2 2017-02-13 11:54:00
1 2017-02-16 12:00:00 rrr = 1.6 y WW = 3 w1=2 w2=2 1.6 2017-02-16 11:59:00
1 2017-02-20 12:00:00 rrr = 1.1 y WW = 2 w1=2 w2=2 1.1 2017-02-20 11:54:00
1 2017-02-21 12:00:00 rrr = trazas y WW = 2 w1=2 w2=2 0.0 2017-02-21 11:57:00
1 2017-02-24 12:00:00 rrr = 0.1 y WW = 3 w1=2 w2=2 0.1 2017-02-24 11:58:00
1 2017-02-27 12:00:00 rrr = 1.0 y WW = 3 w1=2 w2=2 1.0 2017-02-27 12:01:00
1 2017-02-28 18:00:00 rrr = 0.3 y WW = 3 w1=2 w2=2 0.3 2017-02-28 17:55:00
1 2017-03-01 12:00:00 rrr = 0.4 y WW = 3 w1=2 w2=2 0.4 2017-03-01 11:58:00
1 2017-03-03 12:00:00 rrr = trazas y WW = 2 w1=2 w2=2 0.0 2017-03-03 12:02:00
1 2017-03-08 00:00:00 rrr = 0.1 y WW = 3 w1=2 w2=2 0.1 2017-03-07 23:55:00
1 2017-03-15 18:00:00 rrr = s/p y WW = 3 w1=8 w2=2 0.0 2017-03-15 17:55:00
1 2017-03-16 18:00:00 rrr = trazas y WW = 2 w1=2 w2=2 0.0 2017-03-16 17:54:00
1 2017-03-17 12:00:00 rrr = 3.3 y WW = 1 w1=2 w2=2 3.3 2017-03-17 12:01:00
1 2017-03-23 12:00:00 rrr = 0.7 y WW = 3 w1=2 w2=2 0.7 2017-03-23 12:00:00
1 2017-03-29 18:00:00 rrr = 0.1 y WW = 1 w1=2 w2=2 0.1 2017-03-29 17:58:00
1 2017-03-31 12:00:00 rrr = 0.1 y WW = 2 w1=0 w2=0 0.1 2017-03-31 11:54:00
1 2017-04-10 18:00:00 rrr = 0.3 y WW = 3 w1=2 w2=2 0.3 2017-04-10 17:50:00
1 2017-04-12 12:00:00 rrr = 1.5 y WW = 2 w1=2 w2=2 1.5 2017-04-12 12:00:00
1 2017-04-13 12:00:00 rrr = 2.5 y WW = 3 w1=2 w2=2 2.5 2017-04-13 11:57:00
1 2017-04-21 12:00:00 rrr = 1.5 y WW = 2 w1=2 w2=2 1.5 2017-04-21 11:57:00
1 2017-04-24 18:00:00 rrr = s/p y WW = 80 w1=8 w2=2 0.0 2017-04-24 17:55:00
1 2017-04-25 12:00:00 rrr = s/p y WW = 50 w1=5 w2=2 0.0 2017-04-25 11:57:00
1 2017-05-05 12:00:00 rrr = 0.1 y WW = 2 w1=2 w2=2 0.1 2017-05-05 11:58:00
1 2017-05-05 18:00:00 rrr = 0.1 y WW = 2 w1=2 w2=2 0.1 2017-05-05 17:58:00
1 2017-05-08 12:00:00 rrr = trazas y WW = 2 w1=2 w2=2 0.0 2017-05-08 11:58:00
1 2017-05-09 12:00:00 rrr = 0.7 y WW = 2 w1=2 w2=2 0.7 2017-05-09 11:58:00
1 2017-05-13 12:00:00 rrr = s/p y WW = 51 w1=2 w2=2 0.0 2017-05-13 12:00:00
1 2017-05-14 18:00:00 rrr = 1.1 y WW = 2 w1=2 w2=2 1.1 2017-05-14 17:58:00
1 2017-05-15 12:00:00 rrr = 1.1 y WW = 2 w1=1 w2=0 1.1 2017-05-15 11:56:00
1 2017-05-19 12:00:00 rrr = 0.4 y WW = 2 w1=2 w2=2 0.4 2017-05-19 11:52:00
1 2017-05-20 12:00:00 rrr = 0.3 y WW = 2 w1=1 w2=1 0.3 2017-05-20 11:58:00
1 2017-05-24 12:00:00 rrr = 0.8 y WW = 2 w1=1 w2=0 0.8 2017-05-24 11:57:00
1 2017-05-25 12:00:00 rrr = 3.4 y WW = 1 w1=2 w2=2 3.4 2017-05-25 11:59:00
1 2017-05-29 18:00:00 rrr = 0.1 y WW = 1 w1=2 w2=2 0.1 2017-05-29 17:56:00
1 2017-06-06 12:00:00 rrr = 0.3 y WW = 2 w1=2 w2=2 0.3 2017-06-06 11:59:00
1 2017-06-08 12:00:00 rrr = 0.8 y WW = 2 w1=2 w2=2 0.8 2017-06-08 11:56:00
1 2017-06-09 12:00:00 rrr = 0.2 y WW = 2 w1=2 w2=2 0.2 2017-06-09 11:59:00
1 2017-06-14 18:00:00 rrr = 0.6 y WW = 3 w1=2 w2=2 0.6 2017-06-14 17:55:00
1 2017-06-22 12:00:00 rrr = 6.5 y WW = 16 w1=2 w2=2 6.5 2017-06-22 11:59:00
1 2017-06-24 18:00:00 rrr = s/p y WW = 2 w1=8 w2=0 0.0 2017-06-24 17:54:00
1 2017-06-26 12:00:00 rrr = 3.9 y WW = 3 w1=1 w2=1 3.9 2017-06-26 12:06:00
1 2017-07-03 12:00:00 rrr = 0.1 y WW = 2 w1=2 w2=2 0.1 2017-07-03 11:59:00
1 2017-07-03 18:00:00 rrr = 1.1 y WW = 3 w1=2 w2=2 1.1 2017-07-03 17:54:00
1 2017-07-06 12:00:00 rrr = 1.0 y WW = 3 w1=1 w2=1 1.0 2017-07-06 11:57:00
1 2017-07-10 12:00:00 rrr = 0.4 y WW = 3 w1=0 w2=0 0.4 2017-07-10 11:57:00
1 2017-07-14 12:00:00 rrr = 5.0 y WW = 3 w1=2 w2=2 5.0 2017-07-14 12:01:00
1 2017-07-15 12:00:00 rrr = 5.2 y WW = 3 w1=1 w2=1 5.2 2017-07-15 11:55:00
1 2017-07-15 18:00:00 rrr = 1.8 y WW = 16 w1=2 w2=2 1.8 2017-07-15 17:54:00
1 2017-07-21 18:00:00 rrr = 0.1 y WW = 3 w1=2 w2=2 0.1 2017-07-21 17:59:00
1 2017-07-22 12:00:00 rrr = 0.9 y WW = 2 w1=2 w2=2 0.9 2017-07-22 11:57:00
1 2017-07-27 12:00:00 rrr = 4.0 y WW = 2 w1=2 w2=2 4.0 2017-07-27 12:00:00
1 2017-07-31 18:00:00 rrr = 0.2 y WW = 1 w1=2 w2=2 0.2 2017-07-31 17:59:00
1 2017-08-02 12:00:00 rrr = 0.5 y WW = 2 w1=1 w2=0 0.5 2017-08-02 11:55:00
1 2017-08-04 12:00:00 rrr = 0.2 y WW = 2 w1=2 w2=2 0.2 2017-08-04 11:56:00
1 2017-08-08 12:00:00 rrr = trazas y WW = 2 w1=2 w2=2 0.0 2017-08-08 11:59:00
1 2017-08-09 18:00:00 rrr = 0.7 y WW = 16 w1=2 w2=2 0.7 2017-08-09 17:58:00
1 2017-08-10 12:00:00 rrr = 0.1 y WW = 3 w1=1 w2=1 0.1 2017-08-10 12:01:00
1 2017-08-12 12:00:00 rrr = 0.1 y WW = 2 w1=2 w2=1 0.1 2017-08-12 11:52:00
1 2017-08-14 12:00:00 rrr = 0.4 y WW = 2 w1=2 w2=1 0.4 2017-08-14 11:59:00
1 2017-08-16 12:00:00 rrr = trazas y WW = 2 w1=2 w2=2 0.0 2017-08-16 11:54:00
1 2017-08-17 18:00:00 rrr = 0.8 y WW = 2 w1=2 w2=2 0.8 2017-08-17 17:58:00
1 2017-08-18 12:00:00 rrr = 1.0 y WW = 2 w1=2 w2=1 1.0 2017-08-18 12:38:00
1 2017-08-19 12:00:00 rrr = 0.2 y WW = 2 w1=2 w2=2 0.2 2017-08-19 11:54:00
1 2017-08-22 12:00:00 rrr = 2.0 y WW = 2 w1=2 w2=2 2.0 2017-08-22 11:57:00
1 2017-08-23 12:00:00 rrr = trazas y WW = 2 w1=2 w2=1 0.0 2017-08-23 11:55:00
1 2017-08-24 18:00:00 rrr = 1.4 y WW = 16 w1=2 w2=2 1.4 2017-08-24 17:54:00
1 2017-08-25 18:00:00 rrr = 2.2 y WW = 16 w1=2 w2=2 2.2 2017-08-25 17:52:00
1 2017-08-29 12:00:00 rrr = 0.2 y WW = 16 w1=2 w2=2 0.2 2017-08-29 11:58:00
1 2017-08-30 12:00:00 rrr = 0.1 y WW = 3 w1=2 w2=2 0.1 2017-08-30 11:49:00
1 2017-09-04 12:00:00 rrr = 1.1 y WW = 3 w1=1 w2=1 1.1 2017-09-04 11:53:00
1 2017-09-05 18:00:00 rrr = 0.9 y WW = 16 w1=2 w2=2 0.9 2017-09-05 17:59:00
1 2017-09-08 12:00:00 rrr = 2.0 y WW = 1 w1=0 w2=0 2.0 2017-09-08 11:47:00
1 2017-09-13 00:00:00 rrr = 0.1 y WW = 2 w1=1 w2=1 0.1 2017-09-12 23:55:00
1 2017-09-13 12:00:00 rrr = 3.0 y WW = 2 w1=2 w2=2 3.0 2017-09-13 11:56:00
1 2017-09-13 18:00:00 rrr = 0.8 y WW = 3 w1=2 w2=2 0.8 2017-09-13 17:56:00
1 2017-09-14 18:00:00 rrr = 3.0 y WW = 16 w1=2 w2=2 3.0 2017-09-14 18:00:00
1 2017-09-15 12:00:00 rrr = 12.9 y WW = 2 w1=2 w2=2 12.9 2017-09-15 11:53:00
1 2017-09-25 12:00:00 rrr = 0.5 y WW = 2 w1=2 w2=2 0.5 2017-09-25 11:58:00
1 2017-09-27 18:00:00 rrr = 0.1 y WW = 2 w1=2 w2=2 0.1 2017-09-27 17:56:00
1 2017-10-02 12:00:00 rrr = 0.5 y WW = 3 w1=2 w2=2 0.5 2017-10-02 11:56:00
1 2017-10-05 18:00:00 rrr = 1.3 y WW = 16 w1=2 w2=2 1.3 2017-10-05 17:58:00
1 2017-10-06 12:00:00 rrr = 1.8 y WW = 2 w1=2 w2=2 1.8 2017-10-06 11:59:00
1 2017-10-17 12:00:00 rrr = 0.1 y WW = 2 w1=2 w2=1 0.1 2017-10-17 11:54:00
1 2017-10-18 18:00:00 rrr = 0.3 y WW = 3 w1=2 w2=2 0.3 2017-10-18 17:52:00
1 2017-10-20 12:00:00 rrr = 0.1 y WW = 2 w1=2 w2=2 0.1 2017-10-20 11:58:00
1 2017-10-24 18:00:00 rrr = 0.1 y WW = 2 w1=2 w2=2 0.1 2017-10-24 17:57:00
1 2017-10-25 18:00:00 rrr = 0.3 y WW = 2 w1=2 w2=2 0.3 2017-10-25 17:55:00
1 2017-11-07 18:00:00 rrr = 0.6 y WW = 1 w1=2 w2=0 0.6 2017-11-07 17:54:00
1 2017-11-10 12:00:00 rrr = 0.3 y WW = 2 w1=0 w2=0 0.3 2017-11-10 11:57:00
1 2017-11-15 18:00:00 rrr = 0.3 y WW = 2 w1=2 w2=2 0.3 2017-11-16 11:52:00
1 2017-11-18 12:00:00 rrr = 1.0 y WW = 16 w1=2 w2=2 1.0 2017-11-18 12:00:00
1 2017-11-20 18:00:00 rrr = 0.3 y WW = 1 w1=2 w2=2 0.3 2017-11-20 17:55:00
1 2017-11-25 12:00:00 rrr = 0.8 y WW = 16 w1=2 w2=2 0.8 2017-11-25 12:00:00
1 2017-12-04 18:00:00 rrr = 0.8 y WW = 1 w1=2 w2=2 0.8 2017-12-04 18:06:00
1 2017-12-08 00:00:00 rrr = 0.5 y WW = 3 w1=2 w2=2 0.5 2017-12-07 23:56:00
1 2017-12-15 18:00:00 rrr = 0.1 y WW = 16 w1=2 w2=2 0.1 2017-12-15 18:00:00
1 2017-12-18 12:00:00 rrr = 0.1 y WW = 2 w1=0 w2=0 0.1 2017-12-18 12:02:00
1 2017-12-20 12:00:00 rrr = 2.3 y WW = 2 w1=2 w2=2 2.3 2017-12-20 11:59:00
1 2017-12-21 12:00:00 rrr = 2.0 y WW = 0 w1=2 w2=2 2.0 2017-12-21 11:58:00
1 2017-12-21 18:00:00 rrr = s/p y WW = 1 w1=8 w2=2 0.0 2017-12-21 17:59:00
1 2017-12-26 18:00:00 rrr = s/p y WW = 2 w1=8 w2=5 0.0 2017-12-26 17:57:00
1 2017-12-30 00:00:00 rrr = 0.2 y WW = 15 w1=2 w2=2 0.2 2017-12-29 23:57:00
1 2018-01-02 12:00:00 rrr = 0.3 y WW = 2 w1=2 w2=2 0.3 2018-01-02 11:59:00
1 2018-01-04 12:00:00 rrr = 0.7 y WW = 2 w1=2 w2=2 0.7 2018-01-04 11:58:00
1 2018-01-13 18:00:00 rrr = 2.1 y WW = 16 w1=2 w2=2 2.1 2018-01-13 17:59:00
1 2018-01-14 12:00:00 rrr = 2.3 y WW = 3 w1=2 w2=2 2.3 2018-01-14 12:15:00
1 2018-01-16 18:00:00 rrr = 0.7 y WW = 1 w1=2 w2=2 0.7 2018-01-16 17:57:00
1 2018-01-20 12:00:00 rrr = 1.4 y WW = 2 w1=1 w2=1 1.4 2018-01-20 11:58:00
1 2018-01-21 12:00:00 rrr = 0.5 y WW = 2 w1=1 w2=1 0.5 2018-01-21 11:59:00
1 2018-01-23 18:00:00 rrr = 0.1 y WW = 2 w1=2 w2=2 0.1 2018-01-23 17:56:00
1 2018-01-26 18:00:00 rrr = 0.1 y WW = 16 w1=2 w2=2 0.1 2018-01-26 17:59:00
1 2018-01-27 12:00:00 rrr = 0.6 y WW = 2 w1=2 w2=2 0.6 2018-01-27 11:57:00
1 2018-01-30 18:00:00 rrr = 0.2 y WW = 3 w1=2 w2=2 0.2 2018-01-31 11:47:00
1 2018-02-02 18:00:00 rrr = 0.1 y WW = 1 w1=2 w2=2 0.1 2018-02-02 17:57:00
1 2018-02-10 18:00:00 rrr = 0.2 y WW = 1 w1=2 w2=2 0.2 2018-02-10 17:55:00
1 2018-02-12 12:00:00 rrr = 0.1 y WW = 2 w1=0 w2=0 0.1 2018-02-12 11:53:00
1 2018-02-19 12:00:00 rrr = 0.4 y WW = 1 w1=0 w2=0 0.4 2018-02-19 11:53:00
1 2018-03-01 12:00:00 rrr = 0.2 y WW = 2 w1=2 w2=2 0.2 2018-03-01 11:57:00
1 2018-03-01 18:00:00 rrr = trazas y WW = 2 w1=0 w2=0 0.0 2018-03-01 17:55:00
1 2018-03-02 12:00:00 rrr = 0.1 y WW = 3 w1=0 w2=0 0.1 2018-03-02 11:58:00
1 2018-03-08 12:00:00 rrr = 0.1 y WW = 2 w1=2 w2=2 0.1 2018-03-08 11:57:00
1 2018-03-10 12:00:00 rrr = 0.1 y WW = 2 w1=0 w2=0 0.1 2018-03-10 11:58:00
1 2018-03-12 12:00:00 rrr = 0.3 y WW = 2 w1=0 w2=0 0.3 2018-03-12 11:55:00
1 2018-03-16 18:00:00 rrr = 1.3 y WW = 3 w1=2 w2=2 1.3 2018-03-16 17:55:00
1 2018-03-19 18:00:00 rrr = 0.2 y WW = 1 w1=2 w2=2 0.2 2018-03-19 17:55:00
1 2018-04-04 18:00:00 rrr = 0.1 y WW = 2 w1=2 w2=2 0.1 2018-04-04 17:55:00
1 2018-04-05 12:00:00 rrr = 0.3 y WW = 2 w1=2 w2=2 0.3 2018-04-05 11:58:00
1 2018-04-12 12:00:00 rrr = 0.1 y WW = 3 w1=2 w2=2 0.1 2018-04-12 11:55:00
1 2018-04-17 18:00:00 rrr = 0.1 y WW = 2 w1=2 w2=2 0.1 2018-04-17 17:56:00
1 2018-04-22 18:00:00 rrr = 0.1 y WW = 2 w1=2 w2=2 0.1 2018-04-22 17:55:00
1 2018-04-26 12:00:00 rrr = trazas y WW = 3 w1=2 w2=2 0.0 2018-04-26 11:58:00
1 2018-04-26 18:00:00 rrr = 0.2 y WW = 3 w1=2 w2=2 0.2 2018-04-26 17:58:00
1 2018-04-27 18:00:00 rrr = 0.4 y WW = 2 w1=2 w2=2 0.4 2018-04-27 17:54:00
1 2018-05-04 18:00:00 rrr = trazas y WW = 2 w1=2 w2=2 0.0 2018-05-04 17:56:00
1 2018-05-16 12:00:00 rrr = 0.1 y WW = 2 w1=2 w2=2 0.1 2018-05-16 11:59:00
1 2018-05-28 18:00:00 rrr = 0.1 y WW = 3 w1=2 w2=0 0.1 2018-05-28 17:58:00
1 2018-06-08 12:00:00 rrr = 1.2 y WW = 3 w1=2 w2=2 1.2 2018-06-08 11:49:00
1 2018-06-20 18:00:00 rrr = 0.1 y WW = 2 w1=2 w2=2 0.1 2018-06-20 17:57:00
1 2018-06-22 18:00:00 rrr = 5.0 y WW = 16 w1=2 w2=2 5.0 2018-06-22 18:00:00
1 2018-06-23 18:00:00 rrr = 0.7 y WW = 16 w1=2 w2=2 0.7 2018-06-23 17:59:00
1 2018-06-26 12:00:00 rrr = 1.0 y WW = 3 w1=2 w2=2 1.0 2018-06-26 11:58:00
1 2018-07-13 18:00:00 rrr = 0.1 y WW = 16 w1=2 w2=2 0.1 2018-07-13 17:54:00
1 2018-07-24 18:00:00 rrr = 0.3 y WW = 2 w1=2 w2=2 0.3 2018-07-24 17:48:00
1 2018-07-30 18:00:00 rrr = 0.2 y WW = 3 w1=2 w2=2 0.2 2018-07-30 17:46:00
1 2018-07-31 12:00:00 rrr = 0.8 y WW = 2 w1=2 w2=2 0.8 2018-07-31 11:56:00
1 2018-08-02 12:00:00 rrr = 0.3 y WW = 3 w1=2 w2=2 0.3 2018-08-02 11:47:00
1 2018-08-09 18:00:00 rrr = trazas y WW = 1 w1=2 w2=2 0.0 2018-08-09 17:58:00
1 2018-08-14 12:00:00 rrr = 0.1 y WW = 2 w1=2 w2=2 0.1 2018-08-14 11:58:00
1 2018-08-22 18:00:00 rrr = 0.2 y WW = 1 w1=2 w2=2 0.2 2018-08-22 17:54:00
1 2018-08-27 12:00:00 rrr = 0.1 y WW = 3 w1=2 w2=2 0.1 2018-08-27 12:01:00
1 2018-09-12 12:00:00 rrr = 0.1 y WW = 3 w1=2 w2=2 0.1 2018-09-12 11:59:00
1 2018-09-15 18:00:00 rrr = trazas y WW = 1 w1=2 w2=2 0.0 2018-09-15 17:57:00
1 2018-09-24 18:00:00 rrr = 0.1 y WW = 2 w1=2 w2=2 0.1 2018-09-24 17:55:00
1 2018-10-01 18:00:00 rrr = 1.3 y WW = 2 w1=2 w2=2 1.3 2018-10-01 17:59:00
1 2018-10-04 12:00:00 rrr = 0.1 y WW = 2 w1=2 w2=2 0.1 2018-10-04 11:59:00
1 2018-10-09 18:00:00 rrr = 2.0 y WW = 2 w1=2 w2=2 2.0 2018-10-09 17:58:00
1 2018-10-10 18:00:00 rrr = 0.5 y WW = 1 w1=2 w2=2 0.5 2018-10-10 17:56:00
1 2018-10-12 12:00:00 rrr = 0.2 y WW = 3 w1=2 w2=2 0.2 2018-10-12 11:42:00
1 2018-10-17 12:00:00 rrr = 0.1 y WW = 2 w1=2 w2=2 0.1 2018-10-17 11:57:00
1 2018-10-20 12:00:00 rrr = 0.1 y WW = 2 w1=2 w2=2 0.1 2018-10-20 11:57:00
1 2018-11-08 12:00:00 rrr = s/p y WW = 16 w1=8 w2=2 0.0 2018-11-08 11:56:00
1 2018-11-10 00:00:00 rrr = trazas y WW = 2 w1=2 w2=2 0.0 2018-11-09 23:56:00
1 2018-11-14 18:00:00 rrr = 0.1 y WW = 3 w1=2 w2=2 0.1 2018-11-14 17:57:00
1 2018-11-16 12:00:00 rrr = 0.7 y WW = 16 w1=0 w2=0 0.7 2018-11-16 11:58:00
1 2018-11-16 18:00:00 rrr = 0.1 y WW = 16 w1=2 w2=2 0.1 2018-11-16 17:58:00
1 2018-11-23 12:00:00 rrr = 0.2 y WW = 3 w1=0 w2=0 0.2 2018-11-23 11:40:00
1 2018-11-26 18:00:00 rrr = 1.1 y WW = 3 w1=2 w2=2 1.1 2018-11-26 17:53:00
1 2018-12-05 12:00:00 rrr = 0.2 y WW = 3 w1=2 w2=2 0.2 2018-12-05 11:40:00
1 2018-12-11 12:00:00 rrr = 0.2 y WW = 3 w1=2 w2=2 0.2 2018-12-11 11:53:00
1 2018-12-14 12:00:00 rrr = 0.3 y WW = 2 w1=2 w2=2 0.3 2018-12-14 12:00:00
1 2018-12-14 18:00:00 rrr = trazas y WW = 2 w1=2 w2=2 0.0 2018-12-14 17:54:00
1 2018-12-15 12:00:00 rrr = 0.4 y WW = 2 w1=2 w2=2 0.4 2018-12-15 12:00:00
1 2018-12-28 12:00:00 rrr = 1.2 y WW = 2 w1=2 w2=2 1.2 2018-12-28 11:56:00
1 2018-12-29 12:00:00 rrr = 1.2 y WW = 2 w1=2 w2=2 1.2 2018-12-29 11:59:00
1 2019-01-04 00:00:00 rrr = trazas y WW = 2 w1=2 w2=2 0.0 2019-01-03 23:55:00
1 2019-01-04 12:00:00 rrr = 0.1 y WW = 3 w1=2 w2=2 0.1 2019-01-04 11:56:00
1 2019-01-08 18:00:00 rrr = 0.1 y WW = 2 w1=2 w2=2 0.1 2019-01-08 17:58:00
1 2019-01-09 12:00:00 rrr = 0.1 y WW = 2 w1=2 w2=2 0.1 2019-01-09 11:59:00
1 2019-01-11 18:00:00 rrr = 0.2 y WW = 1 w1=2 w2=0 0.2 2019-01-11 17:55:00
1 2019-01-22 18:00:00 rrr = s/p y WW = 3 w1=8 w2=2 0.0 2019-01-22 17:57:00
1 2019-01-25 06:00:00 rrr = 0.3 y WW = 16 w1=2 w2=2 0.3 2019-01-25 05:58:00
1 2019-01-28 18:00:00 rrr = trazas y WW = 2 w1=2 w2=2 0.0 2019-01-28 17:59:00
1 2019-01-29 18:00:00 rrr = 0.1 y WW = 3 w1=2 w2=2 0.1 2019-01-29 17:51:00
1 2019-02-01 18:00:00 rrr = 0.1 y WW = 1 w1=2 w2=2 0.1 2019-02-01 17:53:00
1 2019-02-02 12:00:00 rrr = 3.9 y WW = 3 w1=2 w2=2 3.9 2019-02-02 12:00:00
1 2019-02-08 18:00:00 rrr = 0.6 y WW = 3 w1=1 w2=1 0.6 2019-02-08 17:59:00
1 2019-02-12 18:00:00 rrr = 0.3 y WW = 2 w1=2 w2=2 0.3 2019-02-12 17:56:00
1 2019-02-14 12:00:00 rrr = 0.2 y WW = 2 w1=2 w2=2 0.2 2019-02-14 12:01:00
1 2019-02-18 18:00:00 rrr = 0.2 y WW = 16 w1=2 w2=2 0.2 2019-02-18 17:53:00
1 2019-02-21 12:00:00 rrr = 0.3 y WW = 2 w1=2 w2=2 0.3 2019-02-21 11:56:00
1 2019-02-21 18:00:00 rrr = 0.3 y WW = 2 w1=2 w2=2 0.3 2019-02-21 17:57:00
1 2019-03-01 12:00:00 rrr = 0.6 y WW = 2 w1=2 w2=2 0.6 2019-03-01 11:59:00
1 2019-03-18 12:00:00 rrr = 1.2 y WW = 2 w1=2 w2=2 1.2 2019-03-18 11:58:00
1 2019-03-21 12:00:00 rrr = 0.1 y WW = 16 w1=2 w2=2 0.1 2019-03-21 11:37:00
1 2019-03-22 12:00:00 rrr = 0.2 y WW = 2 w1=2 w2=2 0.2 2019-03-22 12:00:00
1 2019-03-23 12:00:00 rrr = 0.1 y WW = 2 w1=2 w2=2 0.1 2019-03-23 11:59:00
1 2019-03-26 12:00:00 rrr = 0.2 y WW = 2 w1=2 w2=2 0.2 2019-03-26 12:03:00
1 2019-03-30 12:00:00 rrr = 1.3 y WW = 16 w1=2 w2=2 1.3 2019-03-30 12:00:00
1 2019-03-31 12:00:00 rrr = 0.3 y WW = 16 w1=2 w2=2 0.3 2019-03-31 12:00:00
1 2019-04-03 18:00:00 rrr = trazas y WW = 3 w1=2 w2=2 0.0 2019-04-03 17:59:00
1 2019-04-05 18:00:00 rrr = 0.1 y WW = 2 w1=2 w2=2 0.1 2019-04-05 17:59:00
1 2019-04-10 12:00:00 rrr = 0.2 y WW = 2 w1=2 w2=2 0.2 2019-04-10 11:57:00
1 2019-04-29 18:00:00 rrr = trazas y WW = 15 w1=2 w2=1 0.0 2019-04-29 17:50:00
1 2019-04-30 12:00:00 rrr = trazas y WW = 2 w1=2 w2=2 0.0 2019-04-30 11:54:00
1 2019-05-02 12:00:00 rrr = 3.1 y WW = 16 w1=2 w2=2 3.1 2019-05-02 11:49:00
1 2019-05-17 18:00:00 rrr = 0.2 y WW = 2 w1=2 w2=2 0.2 2019-05-17 17:59:00
1 2019-05-24 12:00:00 rrr = 1.3 y WW = 2 w1=2 w2=2 1.3 2019-05-24 11:59:00
1 2019-05-28 12:00:00 rrr = 1.0 y WW = 3 w1=2 w2=2 1.0 2019-05-28 12:02:00
1 2019-05-28 18:00:00 rrr = 0.1 y WW = 2 w1=2 w2=2 0.1 2019-05-28 17:59:00
1 2019-06-05 12:00:00 rrr = 0.1 y WW = 3 w1=0 w2=0 0.1 2019-06-05 11:51:00
1 2019-06-19 12:00:00 rrr = 0.1 y WW = 2 w1=0 w2=0 0.1 2019-06-19 11:58:00
1 2019-06-20 18:00:00 rrr = 0.3 y WW = 3 w1=0 w2=0 0.3 2019-06-20 17:57:00
1 2019-06-21 12:00:00 rrr = s/p y WW = 51 w1=2 w2=2 0.0 2019-06-21 11:57:00
1 2019-06-22 12:00:00 rrr = 1.2 y WW = 2 w1=2 w2=2 1.2 2019-06-22 11:58:00
1 2019-06-25 18:00:00 rrr = 0.4 y WW = 3 w1=1 w2=1 0.4 2019-06-25 17:55:00
1 2019-07-01 18:00:00 rrr = s/p y WW = 80 w1=5 w2=2 0.0 2019-07-01 17:59:00
1 2019-07-02 12:00:00 rrr = 0.1 y WW = 3 w1=2 w2=2 0.1 2019-07-02 12:00:00
1 2019-07-02 18:00:00 rrr = 0.6 y WW = 16 w1=2 w2=2 0.6 2019-07-02 17:59:00
1 2019-07-05 12:00:00 rrr = 0.1 y WW = 1 w1=2 w2=2 0.1 2019-07-05 12:37:00
1 2019-07-10 18:00:00 rrr = 0.1 y WW = 2 w1=0 w2=0 0.1 2019-07-10 18:00:00
1 2019-07-16 18:00:00 rrr = s/p y WW = 2 w1=5 w2=2 0.0 2019-07-16 17:58:00
1 2019-07-19 12:00:00 rrr = 1.0 y WW = 2 w1=2 w2=1 1.0 2019-07-19 11:59:00
1 2019-07-23 18:00:00 rrr = 2.8 y WW = 3 w1=2 w2=2 2.8 2019-07-23 17:58:00
1 2019-07-26 18:00:00 rrr = 0.1 y WW = 3 w1=2 w2=2 0.1 2019-07-26 18:00:00
1 2019-07-27 12:00:00 rrr = 2.1 y WW = 2 w1=2 w2=2 2.1 2019-07-27 11:56:00
1 2019-08-12 18:00:00 rrr = 0.4 y WW = 2 w1=1 w2=1 0.4 2019-08-12 17:59:00
1 2019-08-26 18:00:00 rrr = 4.1 y WW = 2 w1=2 w2=2 4.1 2019-08-26 17:54:00
1 2019-08-30 12:00:00 rrr = 0.1 y WW = 2 w1=0 w2=0 0.1 2019-08-30 11:59:00
1 2019-09-03 12:00:00 rrr = 1.0 y WW = 2 w1=2 w2=2 1.0 2019-09-11 19:23:00
1 2019-09-03 18:00:00 rrr = 14.0 y WW = 16 w1=2 w2=2 14.0 2019-09-11 19:21:00
1 2019-09-09 18:00:00 rrr = 0.2 y WW = 3 w1=2 w2=2 0.2 2019-09-09 17:56:00
1 2019-09-11 12:00:00 rrr = s/p y WW = 2 w1=8 w2=2 0.0 2019-09-11 11:59:00
1 2019-09-16 12:00:00 rrr = 0.1 y WW = 2 w1=2 w2=2 0.1 2019-09-16 11:59:00
1 2019-09-25 18:00:00 rrr = 0.9 y WW = 15 w1=0 w2=0 0.9 2019-09-25 17:55:00
1 2019-10-01 18:00:00 rrr = 1.6 y WW = 2 w1=2 w2=2 1.6 2019-10-01 17:57:00
1 2019-10-04 12:00:00 rrr = 0.1 y WW = 2 w1=0 w2=0 0.1 2019-10-04 11:59:00
1 2019-10-09 12:00:00 rrr = 0.6 y WW = 2 w1=2 w2=2 0.6 2019-10-09 11:59:00
1 2019-10-17 18:00:00 rrr = 0.7 y WW = 3 w1=2 w2=2 0.7 2019-10-17 17:58:00
1 2019-10-21 12:00:00 rrr = trazas y WW = 2 w1=1 w2=0 0.0 2019-10-21 11:58:00
1 2019-10-24 18:00:00 rrr = 0.1 y WW = 2 w1=2 w2=2 0.1 2019-10-24 17:56:00
1 2019-10-26 12:00:00 rrr = 1.2 y WW = 3 w1=2 w2=2 1.2 2019-10-26 11:49:00
1 2019-10-28 18:00:00 rrr = trazas y WW = 2 w1=2 w2=1 0.0 2019-10-28 17:55:00
1 2019-11-01 12:00:00 rrr = s/p y WW = 15 w1=8 w2=2 0.0 2019-11-01 11:59:00
1 2019-11-05 18:00:00 rrr = 0.5 y WW = 3 w1=2 w2=2 0.5 2019-11-05 17:51:00
1 2019-11-06 12:00:00 rrr = 0.1 y WW = 16 w1=2 w2=2 0.1 2019-11-06 11:44:00
1 2019-11-08 18:00:00 rrr = 0.3 y WW = 3 w1=2 w2=2 0.3 2019-11-08 17:54:00
1 2019-11-09 12:00:00 rrr = 1.5 y WW = 0 w1=2 w2=2 1.5 2019-11-10 17:42:00
1 2019-11-09 18:00:00 rrr = 0.4 y WW = 2 w1=2 w2=2 0.4 2019-11-09 18:20:00
1 2019-11-14 18:00:00 rrr = 0.5 y WW = 15 w1=2 w2=2 0.5 2019-11-14 17:58:00
1 2019-11-16 12:00:00 rrr = 0.1 y WW = 2 w1=2 w2=2 0.1 2019-11-16 11:58:00
1 2019-11-20 12:00:00 rrr = trazas y WW = 15 w1=2 w2=2 0.0 2019-11-20 11:52:00
1 2019-11-21 00:00:00 rrr = trazas y WW = 1 w1=2 w2=1 0.0 2019-11-20 23:57:00
1 2019-12-06 12:00:00 rrr = trazas y WW = 2 w1=2 w2=2 0.0 2019-12-06 11:53:00
1 2019-12-07 12:00:00 rrr = trazas y WW = 2 w1=2 w2=2 0.0 2019-12-07 11:58:00
1 2019-12-09 12:00:00 rrr = 0.3 y WW = 3 w1=1 w2=1 0.3 2019-12-09 11:47:00
1 2019-12-17 12:00:00 rrr = 0.6 y WW = 3 w1=2 w2=2 0.6 2019-12-17 11:58:00
1 2020-01-06 12:00:00 rrr = 0.2 y WW = 16 w1=2 w2=2 0.2 2020-01-06 11:59:00
1 2020-01-07 12:00:00 rrr = 0.3 y WW = 2 w1=2 w2=2 0.3 2020-01-07 11:57:00
1 2020-01-11 12:00:00 rrr = 0.2 y WW = 3 w1=2 w2=2 0.2 2020-01-11 11:58:00
1 2020-01-13 18:00:00 rrr = 0.3 y WW = 2 w1=2 w2=2 0.3 2020-01-13 17:56:00
1 2020-01-14 12:00:00 rrr = 0.4 y WW = 16 w1=2 w2=2 0.4 2020-01-14 12:02:00
1 2020-01-16 12:00:00 rrr = 0.6 y WW = 3 w1=2 w2=2 0.6 2020-01-16 11:50:00
1 2020-01-18 12:00:00 rrr = 0.1 y WW = 2 w1=0 w2=0 0.1 2020-01-18 12:00:00
1 2020-01-20 12:00:00 rrr = 0.2 y WW = 16 w1=2 w2=2 0.2 2020-01-20 11:55:00
1 2020-01-24 12:00:00 rrr = 0.1 y WW = 2 w1=2 w2=2 0.1 2020-01-24 11:58:00
1 2020-01-26 00:00:00 rrr = 0.3 y WW = 2 w1=2 w2=2 0.3 2020-01-25 23:58:00
1 2020-01-29 12:00:00 rrr = trazas y WW = 2 w1=2 w2=0 0.0 2020-01-29 11:55:00
1 2020-02-04 12:00:00 rrr = 0.5 y WW = 2 w1=2 w2=2 0.5 2020-02-04 11:58:00
1 2020-02-10 12:00:00 rrr = 1.6 y WW = 2 w1=2 w2=2 1.6 2020-02-10 11:59:00
1 2020-02-13 12:00:00 rrr = 0.1 y WW = 2 w1=2 w2=2 0.1 2020-02-13 11:55:00
1 2020-02-19 12:00:00 rrr = 2.5 y WW = 16 w1=2 w2=2 2.5 2020-02-19 11:50:00
1 2020-02-20 12:00:00 rrr = 0.7 y WW = 2 w1=2 w2=2 0.7 2020-02-20 11:58:00
1 2020-03-03 12:00:00 rrr = 0.1 y WW = 2 w1=2 w2=2 0.1 2020-03-03 11:59:00
1 2020-03-05 12:00:00 rrr = 0.1 y WW = 2 w1=2 w2=2 0.1 2020-03-05 11:57:00
1 2020-03-16 18:00:00 rrr = 0.7 y WW = 3 w1=1 w2=1 0.7 2020-03-16 17:56:00
1 2020-03-18 18:00:00 rrr = 0.3 y WW = 16 w1=2 w2=2 0.3 2020-03-18 18:23:00
1 2020-04-20 12:00:00 rrr = 0.1 y WW = 3 w1=2 w2=2 0.1 2020-04-20 12:01:00
1 2020-04-30 18:00:00 rrr = 0.1 y WW = 3 w1=2 w2=2 0.1 2020-04-30 17:58:00
1 2020-05-11 18:00:00 rrr = 0.4 y WW = 2 w1=2 w2=2 0.4 2020-05-11 17:57:00
1 2020-05-13 18:00:00 rrr = trazas y WW = 3 w1=2 w2=2 0.0 2020-05-13 17:56:00
1 2020-05-15 18:00:00 rrr = 0.1 y WW = 3 w1=0 w2=0 0.1 2020-05-15 17:59:00
1 2020-05-25 12:00:00 rrr = s/p y WW = 2 w1=5 w2=2 0.0 2020-05-25 11:54:00
1 2020-05-28 18:00:00 rrr = 2.0 y WW = 2 w1=2 w2=2 2.0 2020-05-28 17:56:00
1 2020-06-20 18:00:00 rrr = 0.1 y WW = 3 w1=2 w2=2 0.1 2020-06-20 17:56:00
1 2020-06-22 18:00:00 rrr = 0.1 y WW = 28 w1=4 w2=4 0.1 2020-06-22 17:57:00
1 2020-06-24 18:00:00 rrr = 0.1 y WW = 1 w1=2 w2=2 0.1 2020-06-24 17:59:00
1 2020-07-09 18:00:00 rrr = 0.1 y WW = 2 w1=2 w2=2 0.1 2020-07-09 17:57:00
1 2020-08-17 00:00:00 rrr = 0.2 y WW = 2 w1=2 w2=2 0.2 2020-08-16 23:59:00
1 2020-08-21 12:00:00 rrr = 0.1 y WW = 3 w1=2 w2=2 0.1 2020-08-21 11:51:00
1 2020-08-31 12:00:00 rrr = 20.0 y WW = 16 w1=2 w2=2 20.0 2020-09-07 13:35:00
1 2020-08-31 18:00:00 rrr = 7.3 y WW = 2 w1=2 w2=2 7.3 2020-08-31 17:51:00
1 2020-09-04 12:00:00 rrr = 0.1 y WW = 16 w1=2 w2=2 0.1 2020-09-04 12:00:00
1 2020-10-02 18:00:00 rrr = 0.9 y WW = 2 w1=2 w2=2 0.9 2020-10-02 17:54:00
1 2020-10-14 12:00:00 rrr = 0.7 y WW = 1 w1=2 w2=1 0.7 2020-10-14 11:56:00
1 2020-10-16 12:00:00 rrr = 1.3 y WW = 2 w1=1 w2=1 1.3 2020-10-16 11:57:00
1 2020-10-20 12:00:00 rrr = 0.8 y WW = 16 w1=2 w2=2 0.8 2020-10-20 12:00:00
1 2020-10-28 18:00:00 rrr = 0.3 y WW = 2 w1=1 w2=1 0.3 2020-10-28 17:52:00
1 2020-11-17 12:00:00 rrr = trazas y WW = 2 w1=2 w2=2 0.0 2020-11-17 11:51:00
1 2020-11-27 12:00:00 rrr = 0.9 y WW = 2 w1=2 w2=1 0.9 2020-11-27 11:57:00
1 2020-12-01 18:00:00 rrr = 1.2 y WW = 3 w1=2 w2=2 1.2 2020-12-01 17:59:00
1 2020-12-03 12:00:00 rrr = 4.9 y WW = 16 w1=2 w2=2 4.9 2020-12-03 11:51:00
1 2020-12-03 18:00:00 rrr = 0.3 y WW = 3 w1=2 w2=2 0.3 2020-12-03 17:56:00
1 2020-12-15 18:00:00 rrr = 1.6 y WW = 3 w1=2 w2=2 1.6 2020-12-15 17:52:00
1 2020-12-29 18:00:00 rrr = 0.3 y WW = 3 w1=3 w2=2 0.3 2020-12-29 17:58:00
1 2021-01-07 12:00:00 rrr = 1.1 y WW = 2 w1=1 w2=1 1.1 2021-01-07 11:55:00
1 2021-01-08 18:00:00 rrr = 0.1 y WW = 3 w1=2 w2=2 0.1 2021-01-08 17:54:00
1 2021-01-12 12:00:00 rrr = 1.8 y WW = 3 w1=2 w2=2 1.8 2021-01-12 12:00:00
1 2021-01-14 18:00:00 rrr = 8.7 y WW = 1 w1=2 w2=2 8.7 2021-01-14 18:00:00
1 2021-01-18 12:00:00 rrr = 0.1 y WW = 3 w1=2 w2=2 0.1 2021-01-18 11:57:00
1 2021-02-22 12:00:00 rrr = 0.3 y WW = 2 w1=2 w2=2 0.3 2021-02-22 12:00:00
1 2021-02-25 12:00:00 rrr = 0.1 y WW = 2 w1=2 w2=1 0.1 2021-02-25 11:57:00
1 2021-03-10 12:00:00 rrr = 0.3 y WW = 2 w1=0 w2=0 0.3 2021-03-10 11:52:00
1 2021-03-13 12:00:00 rrr = 0.3 y WW = 2 w1=2 w2=2 0.3 2021-03-13 11:58:00
1 2021-03-15 12:00:00 rrr = 0.5 y WW = 2 w1=2 w2=2 0.5 2021-03-15 11:56:00
1 2021-03-15 18:00:00 rrr = 0.1 y WW = 2 w1=2 w2=2 0.1 2021-03-15 17:56:00
1 2021-03-20 12:00:00 rrr = 0.7 y WW = 3 w1=2 w2=2 0.7 2021-03-20 12:01:00
1 2021-04-13 12:00:00 rrr = 0.9 y WW = 3 w1=1 w2=1 0.9 2021-04-13 11:50:00
1 2021-04-16 12:00:00 rrr = 0.2 y WW = 3 w1=1 w2=1 0.2 2021-04-16 11:55:00
1 2021-04-27 12:00:00 rrr = 0.1 y WW = 3 w1=2 w2=2 0.1 2021-04-27 12:00:00
1 2021-04-28 18:00:00 rrr = 0.1 y WW = 3 w1=2 w2=2 0.1 2021-04-28 17:51:00
1 2021-05-22 12:00:00 rrr = 0.1 y WW = 2 w1=2 w2=2 0.1 2021-05-22 11:58:00
1 2021-05-25 12:00:00 rrr = 3.0 y WW = 3 w1=2 w2=2 3.0 2021-05-29 15:05:00
1 2021-05-27 12:00:00 rrr = 4.0 y WW = 16 w1=2 w2=2 4.0 2021-05-29 15:35:00
1 2021-05-30 18:00:00 rrr = 0.1 y WW = 3 w1=2 w2=2 0.1 2021-05-30 17:52:00
1 2021-06-01 12:00:00 rrr = trazas y WW = 2 w1=2 w2=2 0.0 2021-06-01 11:59:00
1 2021-06-08 18:00:00 rrr = 0.2 y WW = 16 w1=2 w2=2 0.2 2021-06-08 17:55:00
1 2021-06-16 18:00:00 rrr = 0.1 y WW = 3 w1=1 w2=0 0.1 2021-06-16 17:56:00
1 2021-06-17 18:00:00 rrr = 0.1 y WW = 3 w1=2 w2=2 0.1 2021-06-17 17:52:00
1 2021-06-24 18:00:00 rrr = 0.9 y WW = 2 w1=2 w2=2 0.9 2021-06-24 17:46:00
1 2021-07-01 12:00:00 rrr = trazas y WW = 2 w1=2 w2=2 0.0 2021-07-01 11:55:00
1 2021-07-01 18:00:00 rrr = 0.3 y WW = 2 w1=2 w2=2 0.3 2021-07-01 17:58:00
1 2021-07-06 12:00:00 rrr = 0.5 y WW = 3 w1=0 w2=0 0.5 2021-07-06 11:57:00
1 2021-07-08 18:00:00 rrr = 0.1 y WW = 2 w1=2 w2=2 0.1 2021-07-08 17:49:00
1 2021-07-24 18:00:00 rrr = 0.1 y WW = 3 w1=2 w2=2 0.1 2021-07-24 17:54:00
1 2021-08-06 18:00:00 rrr = 0.5 y WW = 1 w1=2 w2=2 0.5 2021-08-06 17:51:00
1 2021-08-10 18:00:00 rrr = 0.5 y WW = 1 w1=2 w2=1 0.5 2021-08-10 17:54:00
1 2021-08-14 12:00:00 rrr = trazas y WW = 2 w1=2 w2=2 0.0 2021-08-14 11:58:00
1 2021-08-14 18:00:00 rrr = trazas y WW = 2 w1=1 w2=0 0.0 2021-08-14 17:55:00
1 2021-08-28 12:00:00 rrr = 0.3 y WW = 3 w1=1 w2=1 0.3 2021-08-28 11:57:00
1 2021-09-07 12:00:00 rrr = 0.1 y WW = 2 w1=2 w2=2 0.1 2021-09-07 11:57:00
1 2021-09-16 12:00:00 rrr = 0.1 y WW = 2 w1=2 w2=1 0.1 2021-09-16 11:58:00
1 2021-09-22 12:00:00 rrr = 0.5 y WW = 2 w1=2 w2=2 0.5 2021-09-22 11:58:00
1 2021-09-30 12:00:00 rrr = 0.1 y WW = 2 w1=1 w2=0 0.1 2021-09-30 11:56:00
1 2021-10-08 18:00:00 rrr = 1.1 y WW = 16 w1=2 w2=2 1.1 2021-10-08 17:58:00
1 2021-10-09 00:00:00 rrr = 0.2 y WW = 16 w1=2 w2=2 0.2 2021-10-08 23:48:00
1 2021-10-25 12:00:00 rrr = 1.1 y WW = 16 w1=2 w2=2 1.1 2021-10-25 11:58:00
1 2021-10-26 12:00:00 rrr = 0.2 y WW = 3 w1=2 w2=2 0.2 2021-10-26 11:56:00
1 2021-11-15 18:00:00 rrr = 0.1 y WW = 2 w1=2 w2=2 0.1 2021-11-15 18:00:00
1 2021-11-16 18:00:00 rrr = s/p y WW = 1 w1=8 w2=0 0.0 2021-11-16 17:55:00
1 2021-11-18 00:00:00 rrr = 0.1 y WW = 2 w1=2 w2=2 0.1 2021-11-17 23:56:00
1 2021-12-06 18:00:00 rrr = trazas y WW = 2 w1=2 w2=2 0.0 2021-12-06 18:02:00
1 2021-12-07 12:00:00 rrr = trazas y WW = 2 w1=2 w2=1 0.0 2021-12-07 11:59:00
1 2021-12-07 18:00:00 rrr = trazas y WW = 2 w1=2 w2=2 0.0 2021-12-07 17:58:00
1 2021-12-15 18:00:00 rrr = 1.5 y WW = 3 w1=2 w2=2 1.5 2021-12-15 17:54:00
1 2022-01-04 18:00:00 rrr = 0.2 y WW = 2 w1=2 w2=2 0.2 2022-01-04 17:55:00
1 2022-01-05 12:00:00 rrr = 0.1 y WW = 1 w1=2 w2=1 0.1 2022-01-05 11:56:00
1 2022-01-06 18:00:00 rrr = 1.0 y WW = 3 w1=2 w2=2 1.0 2022-01-06 17:57:00
1 2010-01-29 17:00:00 ts > 5.0 y ((ww >= 70 y ww <= 79) || (ww >= 85 y ww <= 88))) 86 2024-05-20 20:38:00
1 2010-02-11 13:00:00 ts > 5.0 y ((ww >= 70 y ww <= 79) || (ww >= 85 y ww <= 88))) 86 2024-05-22 17:37:00
1 2010-02-15 14:00:00 ts > 5.0 y ((ww >= 70 y ww <= 79) || (ww >= 85 y ww <= 88))) 86 2024-05-22 18:32:00
1 2010-11-08 18:00:00 ts > 5.0 y ((ww >= 70 y ww <= 79) || (ww >= 85 y ww <= 88))) 87 2024-06-11 15:37:00
1 2010-11-08 19:00:00 ts > 5.0 y ((ww >= 70 y ww <= 79) || (ww >= 85 y ww <= 88))) 88 2024-06-11 15:37:00
1 2010-11-08 20:00:00 ts > 5.0 y ((ww >= 70 y ww <= 79) || (ww >= 85 y ww <= 88))) 87 2024-06-11 15:37:00
1 2012-01-17 14:00:00 (ts - td > 5.0) y ((ww >= 40 y ww <= 49)) 45 2024-05-10 14:27:00
1 2012-01-17 16:00:00 (ts - td > 5.0) y ((ww >= 40 y ww <= 49)) 45 2024-05-10 14:27:00
1 2012-01-17 17:00:00 (ts - td > 5.0) y ((ww >= 40 y ww <= 49)) 45 2024-05-10 14:27:00
1 2012-01-17 19:00:00 (ts - td > 5.0) y ((ww >= 40 y ww <= 49)) 45 2024-05-10 14:27:00
1 2012-01-17 20:00:00 (ts - td > 5.0) y ((ww >= 40 y ww <= 49)) 45 2024-05-10 14:27:00
1 2012-02-23 14:00:00 ts > 3.0 y ( (ww >= 48 y ww <= 49) o (ww >= 56 y ww <= 57) o (ww >=66 y ww <= 67)) 66 2024-05-14 14:27:00
1 2012-05-28 12:00:00 ts < -2.0 y ((ww >= 50 y ww <= 55) o (ww >= 58 y ww <= 65) o (ww >= 80 y $ww <= 82)) 80 2016-08-23 18:51:00
1 2015-11-03 18:00:00 ts > 5.0 y ((ww >= 70 y ww <= 79) || (ww >= 85 y ww <= 88))) 86 2015-11-03 17:55:00
1 2015-11-30 18:00:00 ts > 5.0 y ((ww >= 70 y ww <= 79) || (ww >= 85 y ww <= 88))) 87 2015-11-30 18:00:00
1 2021-05-19 15:00:00 ts > 3.0 y ( (ww >= 48 y ww <= 49) o (ww >= 56 y ww <= 57) o (ww >=66 y ww <= 67)) 56 2021-05-19 14:59:00
1 2021-08-11 18:00:00 ts > 3.0 y ( (ww >= 48 y ww <= 49) o (ww >= 56 y ww <= 57) o (ww >=66 y ww <= 67)) 48 2021-08-11 17:51:00
1 2021-10-08 15:00:00 ts > 5.0 y ((ww >= 70 y ww <= 79) || (ww >= 85 y ww <= 88))) 88 2021-10-08 14:54:00
Errores del Nivel 1026
Nivel Fecha del Dato Descripción Información Error Fecha Ingreso
2 1970-02-11 00:00:00 Temperatura 16.4 del 10-02-1970 21:00, Mayor que la Máxima 15.5 11-02-1970 00:00 16.4 -- 15.5 2011-09-23 21:10:00
2 1973-06-22 00:00:00 Temperatura -0.3 del 21-06-1973 15:00, Mayor que la Máxima -1.0 22-06-1973 00:00 -0.3 -- -1.0 2011-09-23 21:11:00
2 1974-09-02 00:00:00 Temperatura 4.6 del 01-09-1974 15:00, Mayor que la Máxima 4.4 02-09-1974 00:00 4.6 -- 4.4 2011-09-23 21:12:00
2 1976-01-09 00:00:00 Temperatura 13.5 del 08-01-1976 18:00, Mayor que la Máxima 11.0 09-01-1976 00:00 13.5 -- 11.0 2011-09-23 21:12:00
2 1976-05-09 00:00:00 Temperatura 4.4 del 08-05-1976 18:00, Mayor que la Máxima 4.0 09-05-1976 00:00 4.4 -- 4.0 2011-09-23 21:12:00
2 1988-05-14 00:00:00 Temperatura 5.8 del 13-05-1988 19:00, Mayor que la Máxima 5.5 14-05-1988 00:00 5.8 -- 5.5 2011-09-23 21:17:00
2 1988-08-07 00:00:00 Temperatura 3.7 del 06-08-1988 17:00, Mayor que la Máxima 3.3 07-08-1988 00:00 3.7 -- 3.3 2011-09-23 21:17:00
2 1989-10-26 00:00:00 Temperatura 7.3 del 25-10-1989 15:00, Mayor que la Máxima 7.2 26-10-1989 00:00 7.3 -- 7.2 2011-09-23 21:18:00
2 1990-02-16 00:00:00 Temperatura 16.2 del 15-02-1990 22:00, Mayor que la Máxima 12.1 16-02-1990 00:00 16.2 -- 12.1 2011-09-23 21:18:00
2 1991-01-19 00:00:00 Temperatura 14.0 del 18-01-1991 21:00, Mayor que la Máxima 13.0 19-01-1991 00:00 14.0 -- 13.0 2011-09-23 21:18:00
2 1994-08-07 00:00:00 Temperatura 6.4 del 06-08-1994 19:00, Mayor que la Máxima 6.2 07-08-1994 00:00 6.4 -- 6.2 2011-09-23 21:20:00
2 1994-08-10 00:00:00 Temperatura 9.0 del 09-08-1994 20:00, Mayor que la Máxima 4.4 10-08-1994 00:00 9.0 -- 4.4 2011-09-23 21:20:00
2 1994-08-11 00:00:00 Temperatura 26.0 del 10-08-1994 13:00, Mayor que la Máxima 5.2 11-08-1994 00:00 26.0 -- 5.2 2011-09-23 21:20:00
2 1994-08-26 00:00:00 Temperatura 7.6 del 25-08-1994 22:00, Mayor que la Máxima 7.4 26-08-1994 00:00 7.6 -- 7.4 2011-09-23 21:20:00
2 1994-12-21 00:00:00 Temperatura 11.0 del 20-12-1994 22:00, Mayor que la Máxima 10.6 21-12-1994 00:00 11.0 -- 10.6 2011-09-23 21:20:00
2 1995-03-01 00:00:00 Temperatura 15.9 del 28-02-1995 19:00, Mayor que la Máxima 9.4 01-03-1995 00:00 15.9 -- 9.4 2011-09-23 21:20:00
2 1995-08-05 00:00:00 Temperatura -1.0 del 04-08-1995 20:00, Mayor que la Máxima -1.4 05-08-1995 00:00 -1.0 -- -1.4 2011-09-23 21:20:00
2 1995-08-10 00:00:00 Temperatura 3.8 del 09-08-1995 15:00, Mayor que la Máxima 2.2 10-08-1995 00:00 3.8 -- 2.2 2011-09-23 21:20:00
2 1997-01-10 00:00:00 Temperatura 12.6 del 09-01-1997 21:00, Mayor que la Máxima 12.0 10-01-1997 00:00 12.6 -- 12.0 2011-09-23 21:21:00
2 1997-01-18 00:00:00 Temperatura 16.6 del 17-01-1997 16:00, Mayor que la Máxima 16.4 18-01-1997 00:00 16.6 -- 16.4 2011-09-23 21:21:00
2 1997-02-15 00:00:00 Temperatura 12.2 del 14-02-1997 20:00, Mayor que la Máxima 11.4 15-02-1997 00:00 12.2 -- 11.4 2011-09-23 21:21:00
2 1997-03-25 00:00:00 Temperatura 9.7 del 24-03-1997 19:00, Mayor que la Máxima 9.6 25-03-1997 00:00 9.7 -- 9.6 2011-09-23 21:21:00
2 1997-05-28 00:00:00 Temperatura 3.8 del 27-05-1997 14:00, Mayor que la Máxima 3.2 28-05-1997 00:00 3.8 -- 3.2 2011-09-23 21:21:00
2 1997-06-08 00:00:00 Temperatura 3.6 del 07-06-1997 15:00, Mayor que la Máxima 3.5 08-06-1997 00:00 3.6 -- 3.5 2011-09-23 21:21:00
2 1997-06-10 00:00:00 Temperatura 11.0 del 09-06-1997 20:00, Mayor que la Máxima 1.5 10-06-1997 00:00 11.0 -- 1.5 2011-09-23 21:21:00
2 1997-07-05 00:00:00 Temperatura -0.6 del 04-07-1997 20:00, Mayor que la Máxima -0.7 05-07-1997 00:00 -0.6 -- -0.7 2011-09-23 21:21:00
2 1997-07-31 00:00:00 Temperatura -1.2 del 30-07-1997 22:00, Mayor que la Máxima -1.6 31-07-1997 00:00 -1.2 -- -1.6 2011-09-23 21:21:00
2 1997-08-24 00:00:00 Temperatura 11.7 del 23-08-1997 19:00, Mayor que la Máxima 11.4 24-08-1997 00:00 11.7 -- 11.4 2011-09-23 21:21:00
2 1997-09-24 00:00:00 Temperatura 9.2 del 23-09-1997 18:00, Mayor que la Máxima 8.2 24-09-1997 00:00 9.2 -- 8.2 2011-09-23 21:21:00
2 1997-11-04 00:00:00 Temperatura 20.2 del 03-11-1997 19:00, Mayor que la Máxima 11.4 04-11-1997 00:00 20.2 -- 11.4 2011-09-23 21:21:00
2 1997-11-22 00:00:00 Temperatura 19.2 del 21-11-1997 20:00, Mayor que la Máxima 12.4 22-11-1997 00:00 19.2 -- 12.4 2011-09-23 21:21:00
2 1997-12-06 00:00:00 Temperatura 10.6 del 05-12-1997 15:00, Mayor que la Máxima 9.4 06-12-1997 00:00 10.6 -- 9.4 2011-09-23 21:21:00
2 1998-06-06 00:00:00 Temperatura 6.1 del 05-06-1998 15:00, Mayor que la Máxima 5.8 06-06-1998 00:00 6.1 -- 5.8 2011-09-23 21:21:00
2 1998-08-20 00:00:00 Temperatura -0.8 del 19-08-1998 15:00, Mayor que la Máxima -1.0 20-08-1998 00:00 -0.8 -- -1.0 2011-09-23 21:21:00
2 1999-01-30 00:00:00 Temperatura 14.8 del 29-01-1999 19:00, Mayor que la Máxima 14.2 30-01-1999 00:00 14.8 -- 14.2 2011-09-23 21:21:00
2 1999-02-06 00:00:00 Temperatura 12.2 del 05-02-1999 18:00, Mayor que la Máxima 12.0 06-02-1999 00:00 12.2 -- 12.0 2011-09-23 21:21:00
2 1999-05-12 00:00:00 Temperatura 8.8 del 11-05-1999 19:00, Mayor que la Máxima 8.2 12-05-1999 00:00 8.8 -- 8.2 2011-09-23 21:21:00
2 1999-08-25 00:00:00 Temperatura 9.0 del 24-08-1999 16:00, Mayor que la Máxima 8.8 25-08-1999 00:00 9.0 -- 8.8 2011-09-23 21:21:00
2 1999-09-01 00:00:00 Temperatura 5.0 del 31-08-1999 20:00, Mayor que la Máxima 4.8 01-09-1999 00:00 5.0 -- 4.8 2011-09-23 21:21:00
2 1999-10-28 00:00:00 Temperatura 4.2 del 27-10-1999 20:00, Mayor que la Máxima 3.6 28-10-1999 00:00 4.2 -- 3.6 2011-09-23 21:22:00
2 2000-02-17 00:00:00 Temperatura 11.6 del 16-02-2000 16:00, Mayor que la Máxima 11.4 17-02-2000 00:00 11.6 -- 11.4 2011-09-23 21:22:00
2 2000-03-09 00:00:00 Temperatura 19.6 del 08-03-2000 19:00, Mayor que la Máxima 19.0 09-03-2000 00:00 19.6 -- 19.0 2011-09-23 21:22:00
2 2000-03-24 00:00:00 Temperatura 9.8 del 23-03-2000 14:00, Mayor que la Máxima 8.8 24-03-2000 00:00 9.8 -- 8.8 2011-09-23 21:22:00
2 2000-06-06 00:00:00 Temperatura 5.4 del 05-06-2000 19:00, Mayor que la Máxima 4.8 06-06-2000 00:00 5.4 -- 4.8 2011-09-23 21:22:00
2 2000-06-24 00:00:00 Temperatura -0.2 del 23-06-2000 19:00, Mayor que la Máxima -0.4 24-06-2000 00:00 -0.2 -- -0.4 2011-09-23 21:22:00
2 2000-08-10 00:00:00 Temperatura 6.0 del 09-08-2000 20:00, Mayor que la Máxima 5.8 10-08-2000 00:00 6.0 -- 5.8 2011-09-23 21:22:00
2 2000-08-25 00:00:00 Temperatura 6.2 del 24-08-2000 16:00, Mayor que la Máxima 5.8 25-08-2000 00:00 6.2 -- 5.8 2011-09-23 21:22:00
2 2000-09-14 00:00:00 Temperatura 5.6 del 13-09-2000 19:00, Mayor que la Máxima 5.0 14-09-2000 00:00 5.6 -- 5.0 2011-09-23 21:22:00
2 2000-09-16 00:00:00 Temperatura 5.6 del 15-09-2000 19:00, Mayor que la Máxima 5.5 16-09-2000 00:00 5.6 -- 5.5 2011-09-23 21:22:00
2 2000-10-04 00:00:00 Temperatura 9.0 del 03-10-2000 19:00, Mayor que la Máxima 8.8 04-10-2000 00:00 9.0 -- 8.8 2011-09-23 21:22:00
2 2000-10-07 00:00:00 Temperatura 7.6 del 06-10-2000 19:00, Mayor que la Máxima 7.2 07-10-2000 00:00 7.6 -- 7.2 2011-09-23 21:22:00
2 2000-10-19 00:00:00 Temperatura 10.6 del 18-10-2000 17:00, Mayor que la Máxima 10.0 19-10-2000 00:00 10.6 -- 10.0 2011-09-23 21:22:00
2 2000-10-27 00:00:00 Temperatura 6.0 del 26-10-2000 13:00, Mayor que la Máxima 5.8 27-10-2000 00:00 6.0 -- 5.8 2011-09-23 21:22:00
2 2000-12-05 00:00:00 Temperatura 14.4 del 04-12-2000 20:00, Mayor que la Máxima 14.0 05-12-2000 00:00 14.4 -- 14.0 2011-09-23 21:22:00
2 2000-12-07 00:00:00 Temperatura 12.2 del 06-12-2000 20:00, Mayor que la Máxima 12.1 07-12-2000 00:00 12.2 -- 12.1 2011-09-23 21:22:00
2 2000-12-08 00:00:00 Temperatura 11.0 del 07-12-2000 20:00, Mayor que la Máxima 10.5 08-12-2000 00:00 11.0 -- 10.5 2011-09-23 21:22:00
2 2000-12-16 00:00:00 Temperatura 10.4 del 15-12-2000 16:00, Mayor que la Máxima 10.2 16-12-2000 00:00 10.4 -- 10.2 2011-09-23 21:22:00
2 2000-12-21 00:00:00 Temperatura 15.2 del 20-12-2000 17:00, Mayor que la Máxima 14.0 21-12-2000 00:00 15.2 -- 14.0 2011-09-23 21:22:00
2 2001-02-07 00:00:00 Temperatura 11.2 del 06-02-2001 17:00, Mayor que la Máxima 11.0 07-02-2001 00:00 11.2 -- 11.0 2011-09-23 21:22:00
2 2001-02-13 00:00:00 Temperatura 14.6 del 12-02-2001 19:00, Mayor que la Máxima 14.2 13-02-2001 00:00 14.6 -- 14.2 2011-09-23 21:22:00
2 2001-02-15 00:00:00 Temperatura 15.9 del 14-02-2001 16:00, Mayor que la Máxima 15.2 15-02-2001 00:00 15.9 -- 15.2 2011-09-23 21:22:00
2 2001-02-16 00:00:00 Temperatura 14.8 del 15-02-2001 19:00, Mayor que la Máxima 14.2 16-02-2001 00:00 14.8 -- 14.2 2011-09-23 21:22:00
2 2001-02-20 00:00:00 Temperatura 19.4 del 19-02-2001 20:00, Mayor que la Máxima 11.1 20-02-2001 00:00 19.4 -- 11.1 2011-09-23 21:22:00
2 2001-02-22 00:00:00 Temperatura 12.0 del 21-02-2001 20:00, Mayor que la Máxima 11.7 22-02-2001 00:00 12.0 -- 11.7 2011-09-23 21:22:00
2 2001-02-23 00:00:00 Temperatura 13.8 del 22-02-2001 20:00, Mayor que la Máxima 13.0 23-02-2001 00:00 13.8 -- 13.0 2011-09-23 21:22:00
2 2001-02-24 00:00:00 Temperatura 9.9 del 23-02-2001 16:00, Mayor que la Máxima 9.7 24-02-2001 00:00 9.9 -- 9.7 2011-09-23 21:22:00
2 2001-02-28 00:00:00 Temperatura 14.0 del 27-02-2001 16:00, Mayor que la Máxima 13.6 28-02-2001 00:00 14.0 -- 13.6 2011-09-23 21:22:00
2 2001-03-03 00:00:00 Temperatura 7.7 del 02-03-2001 13:00, Mayor que la Máxima 7.0 03-03-2001 00:00 7.7 -- 7.0 2011-09-23 21:22:00
2 2001-03-15 00:00:00 Temperatura 12.2 del 14-03-2001 19:00, Mayor que la Máxima 12.0 15-03-2001 00:00 12.2 -- 12.0 2011-09-23 21:22:00
2 2001-03-24 00:00:00 Temperatura 11.4 del 23-03-2001 20:00, Mayor que la Máxima 11.2 24-03-2001 00:00 11.4 -- 11.2 2011-09-23 21:22:00
2 2001-05-08 00:00:00 Temperatura 7.4 del 07-05-2001 19:00, Mayor que la Máxima 7.2 08-05-2001 00:00 7.4 -- 7.2 2011-09-23 21:22:00
2 2001-06-27 00:00:00 Temperatura 4.2 del 26-06-2001 16:00, Mayor que la Máxima 4.1 27-06-2001 00:00 4.2 -- 4.1 2011-09-23 21:22:00
2 2001-09-27 00:00:00 Temperatura 17.2 del 26-09-2001 16:00, Mayor que la Máxima 14.0 27-09-2001 00:00 17.2 -- 14.0 2011-09-23 21:22:00
2 2001-10-04 00:00:00 Temperatura 12.2 del 03-10-2001 19:00, Mayor que la Máxima 11.5 04-10-2001 00:00 12.2 -- 11.5 2011-09-23 21:22:00
2 2001-10-27 00:00:00 Temperatura 12.6 del 26-10-2001 19:00, Mayor que la Máxima 12.2 27-10-2001 00:00 12.6 -- 12.2 2011-09-23 21:22:00
2 2001-11-06 00:00:00 Temperatura 9.8 del 05-11-2001 17:00, Mayor que la Máxima 9.0 06-11-2001 00:00 9.8 -- 9.0 2011-09-23 21:22:00
2 2001-11-30 00:00:00 Temperatura 17.8 del 29-11-2001 17:00, Mayor que la Máxima 17.5 30-11-2001 00:00 17.8 -- 17.5 2011-09-23 21:22:00
2 2001-12-05 00:00:00 Temperatura 13.2 del 04-12-2001 16:00, Mayor que la Máxima 12.8 05-12-2001 00:00 13.2 -- 12.8 2011-09-23 21:22:00
2 2002-02-02 00:00:00 Temperatura 14.6 del 01-02-2002 19:00, Mayor que la Máxima 14.5 02-02-2002 00:00 14.6 -- 14.5 2011-09-23 21:22:00
2 2002-06-05 00:00:00 Temperatura 2.2 del 04-06-2002 19:00, Mayor que la Máxima 2.0 05-06-2002 00:00 2.2 -- 2.0 2011-09-23 21:22:00
2 2002-06-07 00:00:00 Temperatura -1.6 del 06-06-2002 17:00, Mayor que la Máxima -1.8 07-06-2002 00:00 -1.6 -- -1.8 2011-09-23 21:22:00
2 2002-06-14 00:00:00 Temperatura 1.6 del 13-06-2002 15:00, Mayor que la Máxima 0.8 14-06-2002 00:00 1.6 -- 0.8 2011-09-23 21:22:00
2 2002-07-10 00:00:00 Temperatura 9.4 del 09-07-2002 14:00, Mayor que la Máxima 1.2 10-07-2002 00:00 9.4 -- 1.2 2011-09-23 21:22:00
2 2002-08-07 00:00:00 Temperatura 9.8 del 06-08-2002 13:00, Mayor que la Máxima 3.0 07-08-2002 00:00 9.8 -- 3.0 2011-09-23 21:22:00
2 2002-09-03 00:00:00 Temperatura 9.2 del 02-09-2002 14:00, Mayor que la Máxima 4.8 03-09-2002 00:00 9.2 -- 4.8 2011-09-23 21:22:00
2 2002-10-09 00:00:00 Temperatura 10.2 del 08-10-2002 19:00, Mayor que la Máxima 10.0 09-10-2002 00:00 10.2 -- 10.0 2011-09-23 21:22:00
2 2003-01-03 00:00:00 Temperatura 12.6 del 02-01-2003 14:00, Mayor que la Máxima 11.4 03-01-2003 00:00 12.6 -- 11.4 2011-09-23 21:22:00
2 2003-01-04 00:00:00 Temperatura 12.4 del 03-01-2003 19:00, Mayor que la Máxima 12.2 04-01-2003 00:00 12.4 -- 12.2 2011-09-23 21:22:00
2 2003-01-09 00:00:00 Temperatura 15.4 del 08-01-2003 19:00, Mayor que la Máxima 15.2 09-01-2003 00:00 15.4 -- 15.2 2011-09-23 21:22:00
2 2003-01-10 00:00:00 Temperatura 15.6 del 09-01-2003 20:00, Mayor que la Máxima 15.0 10-01-2003 00:00 15.6 -- 15.0 2011-09-23 21:22:00
2 2003-02-05 00:00:00 Temperatura 11.2 del 04-02-2003 15:00, Mayor que la Máxima 10.6 05-02-2003 00:00 11.2 -- 10.6 2011-09-23 21:22:00
2 2003-02-14 00:00:00 Temperatura 12.6 del 13-02-2003 18:00, Mayor que la Máxima 12.4 14-02-2003 00:00 12.6 -- 12.4 2011-09-23 21:22:00
2 2003-03-08 00:00:00 Temperatura 12.0 del 07-03-2003 19:00, Mayor que la Máxima 11.0 08-03-2003 00:00 12.0 -- 11.0 2011-09-23 21:22:00
2 2003-06-11 00:00:00 Temperatura 0.8 del 10-06-2003 19:00, Mayor que la Máxima -0.6 11-06-2003 00:00 0.8 -- -0.6 2011-09-23 21:22:00
2 2003-07-12 00:00:00 Temperatura 6.6 del 11-07-2003 16:00, Mayor que la Máxima 6.4 12-07-2003 00:00 6.6 -- 6.4 2011-09-23 21:22:00
2 2003-07-31 00:00:00 Temperatura 7.2 del 30-07-2003 13:00, Mayor que la Máxima 5.4 31-07-2003 00:00 7.2 -- 5.4 2011-09-23 21:22:00
2 2003-08-07 00:00:00 Temperatura 7.8 del 06-08-2003 16:00, Mayor que la Máxima 7.4 07-08-2003 00:00 7.8 -- 7.4 2011-09-23 21:22:00
2 2003-09-05 00:00:00 Temperatura 7.8 del 04-09-2003 17:00, Mayor que la Máxima 7.6 05-09-2003 00:00 7.8 -- 7.6 2011-09-23 21:22:00
2 2003-11-25 00:00:00 Temperatura 6.0 del 24-11-2003 17:00, Mayor que la Máxima 0.6 25-11-2003 00:00 6.0 -- 0.6 2011-09-23 21:22:00
2 2003-11-27 00:00:00 Temperatura 4.4 del 26-11-2003 13:00, Mayor que la Máxima 4.2 27-11-2003 00:00 4.4 -- 4.2 2011-09-23 21:22:00
2 2003-12-02 00:00:00 Temperatura 19.0 del 01-12-2003 20:00, Mayor que la Máxima 12.4 02-12-2003 00:00 19.0 -- 12.4 2011-09-23 21:22:00
2 2003-12-30 00:00:00 Temperatura 11.8 del 29-12-2003 20:00, Mayor que la Máxima 10.2 30-12-2003 00:00 11.8 -- 10.2 2011-09-23 21:22:00
2 2004-01-03 00:00:00 Temperatura 16.8 del 02-01-2004 17:00, Mayor que la Máxima 15.6 03-01-2004 00:00 16.8 -- 15.6 2011-09-23 21:22:00
2 2004-03-03 00:00:00 Temperatura 12.0 del 02-03-2004 20:00, Mayor que la Máxima 11.6 03-03-2004 00:00 12.0 -- 11.6 2011-09-23 21:23:00
2 2004-05-08 00:00:00 Temperatura 8.8 del 07-05-2004 20:00, Mayor que la Máxima 8.2 08-05-2004 00:00 8.8 -- 8.2 2011-09-23 21:23:00
2 2004-07-07 00:00:00 Temperatura -0.6 del 06-07-2004 20:00, Mayor que la Máxima -1.0 07-07-2004 00:00 -0.6 -- -1.0 2011-09-23 21:23:00
2 2004-08-03 00:00:00 Temperatura 11.8 del 02-08-2004 20:00, Mayor que la Máxima 2.6 03-08-2004 00:00 11.8 -- 2.6 2011-09-23 21:23:00
2 2004-08-05 00:00:00 Temperatura 1.6 del 04-08-2004 20:00, Mayor que la Máxima 1.2 05-08-2004 00:00 1.6 -- 1.2 2011-09-23 21:23:00
2 2004-09-09 00:00:00 Temperatura 9.8 del 08-09-2004 16:00, Mayor que la Máxima 3.4 09-09-2004 00:00 9.8 -- 3.4 2011-09-23 21:23:00
2 2004-10-05 00:00:00 Temperatura 12.9 del 04-10-2004 19:00, Mayor que la Máxima 12.0 05-10-2004 00:00 12.9 -- 12.0 2011-09-23 21:23:00
2 2004-10-08 00:00:00 Temperatura 13.0 del 07-10-2004 17:00, Mayor que la Máxima 12.2 08-10-2004 00:00 13.0 -- 12.2 2011-09-23 21:23:00
2 2005-01-04 00:00:00 Temperatura 22.0 del 03-01-2005 19:00, Mayor que la Máxima 21.8 04-01-2005 00:00 22.0 -- 21.8 2011-09-23 21:23:00
2 2005-02-16 00:00:00 Temperatura 17.0 del 15-02-2005 17:00, Mayor que la Máxima 12.8 16-02-2005 00:00 17.0 -- 12.8 2011-09-23 21:23:00
2 2005-04-02 00:00:00 Temperatura 12.0 del 01-04-2005 17:00, Mayor que la Máxima 11.4 02-04-2005 00:00 12.0 -- 11.4 2011-09-23 21:23:00
2 2005-04-05 00:00:00 Temperatura 12.2 del 04-04-2005 16:00, Mayor que la Máxima 9.2 05-04-2005 00:00 12.2 -- 9.2 2011-09-23 21:23:00
2 2005-05-03 00:00:00 Temperatura 5.4 del 02-05-2005 19:00, Mayor que la Máxima 5.2 03-05-2005 00:00 5.4 -- 5.2 2011-09-23 21:23:00
2 2005-06-03 00:00:00 Temperatura 5.0 del 02-06-2005 20:00, Mayor que la Máxima 4.6 03-06-2005 00:00 5.0 -- 4.6 2011-09-23 21:23:00
2 2005-06-18 00:00:00 Temperatura 1.0 del 17-06-2005 18:00, Mayor que la Máxima 0.8 18-06-2005 00:00 1.0 -- 0.8 2011-09-23 21:23:00
2 2005-08-03 00:00:00 Temperatura 6.6 del 02-08-2005 16:00, Mayor que la Máxima 5.0 03-08-2005 00:00 6.6 -- 5.0 2011-09-23 21:23:00
2 2005-11-09 00:00:00 Temperatura 18.9 del 08-11-2005 20:00, Mayor que la Máxima 18.8 09-11-2005 00:00 18.9 -- 18.8 2011-09-23 21:23:00
2 2005-11-24 00:00:00 Temperatura 9.2 del 23-11-2005 16:00, Mayor que la Máxima 5.4 24-11-2005 00:00 9.2 -- 5.4 2011-09-23 21:23:00
2 2005-11-29 00:00:00 Temperatura 9.4 del 28-11-2005 17:00, Mayor que la Máxima 9.0 29-11-2005 00:00 9.4 -- 9.0 2011-09-23 21:23:00
2 2005-12-01 00:00:00 Temperatura 10.6 del 30-11-2005 19:00, Mayor que la Máxima 10.4 01-12-2005 00:00 10.6 -- 10.4 2011-09-23 21:23:00
2 2006-01-04 00:00:00 Temperatura 14.6 del 03-01-2006 16:00, Mayor que la Máxima 13.8 04-01-2006 00:00 14.6 -- 13.8 2011-09-23 21:23:00
2 2006-01-05 00:00:00 Temperatura 16.6 del 04-01-2006 17:00, Mayor que la Máxima 16.4 05-01-2006 00:00 16.6 -- 16.4 2011-09-23 21:23:00
2 2006-02-09 00:00:00 Temperatura 13.4 del 08-02-2006 19:00, Mayor que la Máxima 12.5 09-02-2006 00:00 13.4 -- 12.5 2011-09-23 21:23:00
2 2006-03-04 00:00:00 Temperatura 16.6 del 03-03-2006 19:00, Mayor que la Máxima 16.0 04-03-2006 00:00 16.6 -- 16.0 2011-09-23 21:23:00
2 2006-03-08 00:00:00 Temperatura 12.4 del 07-03-2006 20:00, Mayor que la Máxima 12.2 08-03-2006 00:00 12.4 -- 12.2 2011-09-23 21:23:00
2 2006-04-06 00:00:00 Temperatura 9.0 del 05-04-2006 17:00, Mayor que la Máxima 8.0 06-04-2006 00:00 9.0 -- 8.0 2011-09-23 21:23:00
2 2006-04-08 00:00:00 Temperatura 8.6 del 07-04-2006 18:00, Mayor que la Máxima 8.0 08-04-2006 00:00 8.6 -- 8.0 2011-09-23 21:23:00
2 2006-04-14 00:00:00 Temperatura 3.0 del 13-04-2006 16:00, Mayor que la Máxima 1.0 14-04-2006 00:00 3.0 -- 1.0 2011-09-23 21:23:00
2 2006-05-09 00:00:00 Temperatura 13.0 del 08-05-2006 14:00, Mayor que la Máxima 12.0 09-05-2006 00:00 13.0 -- 12.0 2011-09-23 21:23:00
2 2006-05-11 00:00:00 Temperatura 8.3 del 10-05-2006 18:00, Mayor que la Máxima 8.2 11-05-2006 00:00 8.3 -- 8.2 2011-09-23 21:23:00
2 2006-06-10 00:00:00 Temperatura 1.4 del 09-06-2006 18:00, Mayor que la Máxima 1.0 10-06-2006 00:00 1.4 -- 1.0 2011-09-23 21:23:00
2 2006-07-13 00:00:00 Temperatura 0.2 del 12-07-2006 14:00, Mayor que la Máxima 0.0 13-07-2006 00:00 0.2 -- 0.0 2011-09-23 21:23:00
2 2006-08-02 00:00:00 Temperatura 4.0 del 01-08-2006 18:00, Mayor que la Máxima 3.8 02-08-2006 00:00 4.0 -- 3.8 2011-09-23 21:23:00
2 2006-08-05 00:00:00 Temperatura 6.6 del 04-08-2006 16:00, Mayor que la Máxima 6.4 05-08-2006 00:00 6.6 -- 6.4 2011-09-23 21:23:00
2 2006-08-11 00:00:00 Temperatura 4.4 del 10-08-2006 19:00, Mayor que la Máxima 3.4 11-08-2006 00:00 4.4 -- 3.4 2011-09-23 21:23:00
2 2006-08-12 00:00:00 Temperatura 2.8 del 11-08-2006 13:00, Mayor que la Máxima 2.6 12-08-2006 00:00 2.8 -- 2.6 2011-09-23 21:23:00
2 2006-09-15 00:00:00 Temperatura 4.6 del 14-09-2006 17:00, Mayor que la Máxima 4.4 15-09-2006 00:00 4.6 -- 4.4 2011-09-23 21:23:00
2 2006-12-05 00:00:00 Temperatura 17.4 del 04-12-2006 16:00, Mayor que la Máxima 16.4 05-12-2006 00:00 17.4 -- 16.4 2011-09-23 21:23:00
2 2007-01-04 00:00:00 Temperatura 14.4 del 03-01-2007 17:00, Mayor que la Máxima 11.2 04-01-2007 00:00 14.4 -- 11.2 2011-09-23 21:23:00
2 2007-01-09 00:00:00 Temperatura 20.6 del 08-01-2007 19:00, Mayor que la Máxima 14.6 09-01-2007 00:00 20.6 -- 14.6 2011-09-23 21:23:00
2 2007-01-12 00:00:00 Temperatura 14.0 del 11-01-2007 14:00, Mayor que la Máxima 12.0 12-01-2007 00:00 14.0 -- 12.0 2011-09-23 21:23:00
2 2007-01-17 00:00:00 Temperatura 10.8 del 16-01-2007 14:00, Mayor que la Máxima 8.0 17-01-2007 00:00 10.8 -- 8.0 2011-09-23 21:23:00
2 2007-08-02 00:00:00 Temperatura 7.0 del 01-08-2007 17:00, Mayor que la Máxima 6.8 02-08-2007 00:00 7.0 -- 6.8 2011-09-23 21:24:00
2 2007-08-04 00:00:00 Temperatura 5.2 del 03-08-2007 17:00, Mayor que la Máxima 5.0 04-08-2007 00:00 5.2 -- 5.0 2011-09-23 21:24:00
2 2007-09-02 00:00:00 Temperatura 12.2 del 01-09-2007 15:00, Mayor que la Máxima 8.0 02-09-2007 00:00 12.2 -- 8.0 2011-09-23 21:24:00
2 2007-10-12 00:00:00 Temperatura 11.4 del 11-10-2007 17:00, Mayor que la Máxima 10.6 12-10-2007 00:00 11.4 -- 10.6 2011-09-23 21:24:00
2 2007-11-06 00:00:00 Temperatura 8.6 del 05-11-2007 19:00, Mayor que la Máxima 8.4 06-11-2007 00:00 8.6 -- 8.4 2011-09-23 21:24:00
2 2007-12-09 00:00:00 Temperatura 8.4 del 08-12-2007 14:00, Mayor que la Máxima 6.2 09-12-2007 00:00 8.4 -- 6.2 2011-09-23 21:24:00
2 2008-02-06 00:00:00 Temperatura 14.4 del 05-02-2008 20:00, Mayor que la Máxima 8.6 06-02-2008 00:00 14.4 -- 8.6 2011-09-23 21:24:00
2 2008-02-08 00:00:00 Temperatura 12.0 del 07-02-2008 19:00, Mayor que la Máxima 8.0 08-02-2008 00:00 12.0 -- 8.0 2011-09-23 21:24:00
2 2008-02-17 00:00:00 Temperatura 15.8 del 16-02-2008 15:00, Mayor que la Máxima 15.6 17-02-2008 00:00 15.8 -- 15.6 2011-09-23 21:24:00
2 2008-04-02 00:00:00 Temperatura 13.8 del 01-04-2008 21:00, Mayor que la Máxima 9.2 02-04-2008 00:00 13.8 -- 9.2 2011-09-23 21:24:00
2 2008-04-05 00:00:00 Temperatura 11.6 del 04-04-2008 17:00, Mayor que la Máxima 11.0 05-04-2008 00:00 11.6 -- 11.0 2011-09-23 21:24:00
2 2009-06-02 00:00:00 Temperatura 5.8 del 01-06-2009 16:00, Mayor que la Máxima 5.0 02-06-2009 00:00 5.8 -- 5.0 2011-09-23 21:24:00
2 2009-06-05 00:00:00 Temperatura 7.2 del 04-06-2009 13:00, Mayor que la Máxima 7.0 05-06-2009 00:00 7.2 -- 7.0 2011-09-23 21:24:00
2 2009-06-06 00:00:00 Temperatura 7.4 del 05-06-2009 17:00, Mayor que la Máxima 6.0 06-06-2009 00:00 7.4 -- 6.0 2011-09-23 21:24:00
2 2009-07-02 00:00:00 Temperatura 3.6 del 01-07-2009 19:00, Mayor que la Máxima 0.0 02-07-2009 00:00 3.6 -- 0.0 2011-09-23 21:24:00
2 2009-07-04 00:00:00 Temperatura 5.4 del 03-07-2009 17:00, Mayor que la Máxima 4.4 04-07-2009 00:00 5.4 -- 4.4 2011-09-23 21:24:00
2 2009-07-08 00:00:00 Temperatura 5.2 del 07-07-2009 15:00, Mayor que la Máxima 3.4 08-07-2009 00:00 5.2 -- 3.4 2011-09-23 21:24:00
2 2009-07-09 00:00:00 Temperatura 4.2 del 08-07-2009 19:00, Mayor que la Máxima 2.0 09-07-2009 00:00 4.2 -- 2.0 2011-09-23 21:24:00
2 2009-07-12 00:00:00 Temperatura 5.0 del 11-07-2009 15:00, Mayor que la Máxima -1.6 12-07-2009 00:00 5.0 -- -1.6 2011-09-23 21:24:00
2 2009-07-16 00:00:00 Temperatura 8.6 del 15-07-2009 17:00, Mayor que la Máxima 8.0 16-07-2009 00:00 8.6 -- 8.0 2011-09-23 21:24:00
2 2009-07-17 00:00:00 Temperatura 5.8 del 16-07-2009 15:00, Mayor que la Máxima 4.2 17-07-2009 00:00 5.8 -- 4.2 2011-09-23 21:24:00
2 2009-07-21 00:00:00 Temperatura 3.4 del 20-07-2009 17:00, Mayor que la Máxima 1.0 21-07-2009 00:00 3.4 -- 1.0 2011-09-23 21:24:00
2 2009-07-24 00:00:00 Temperatura 7.4 del 23-07-2009 13:00, Mayor que la Máxima 4.6 24-07-2009 00:00 7.4 -- 4.6 2011-09-23 21:24:00
2 2009-08-04 00:00:00 Temperatura 7.4 del 03-08-2009 18:00, Mayor que la Máxima 4.2 04-08-2009 00:00 7.4 -- 4.2 2011-09-23 21:24:00
2 2009-08-14 00:00:00 Temperatura 6.2 del 13-08-2009 18:00, Mayor que la Máxima 3.0 14-08-2009 00:00 6.2 -- 3.0 2011-09-23 21:24:00
2 2009-08-16 00:00:00 Temperatura 3.4 del 15-08-2009 15:00, Mayor que la Máxima 3.0 16-08-2009 00:00 3.4 -- 3.0 2011-09-23 21:24:00
2 2009-08-18 00:00:00 Temperatura 1.8 del 17-08-2009 16:00, Mayor que la Máxima 1.2 18-08-2009 00:00 1.8 -- 1.2 2011-09-23 21:24:00
2 2009-08-21 00:00:00 Temperatura 3.8 del 20-08-2009 18:00, Mayor que la Máxima 3.4 21-08-2009 00:00 3.8 -- 3.4 2011-09-23 21:24:00
2 2009-08-25 00:00:00 Temperatura 5.6 del 24-08-2009 18:00, Mayor que la Máxima 5.2 25-08-2009 00:00 5.6 -- 5.2 2011-09-23 21:24:00
2 2009-08-26 00:00:00 Temperatura 6.0 del 25-08-2009 18:00, Mayor que la Máxima 5.4 26-08-2009 00:00 6.0 -- 5.4 2011-09-23 21:24:00
2 2009-08-27 00:00:00 Temperatura 4.4 del 26-08-2009 16:00, Mayor que la Máxima 4.2 27-08-2009 00:00 4.4 -- 4.2 2011-09-23 21:24:00
2 2009-08-28 00:00:00 Temperatura 5.2 del 27-08-2009 20:00, Mayor que la Máxima 4.8 28-08-2009 00:00 5.2 -- 4.8 2011-09-23 21:24:00
2 2009-08-29 00:00:00 Temperatura 4.2 del 28-08-2009 18:00, Mayor que la Máxima 3.4 29-08-2009 00:00 4.2 -- 3.4 2011-09-23 21:24:00
2 2009-09-05 00:00:00 Temperatura 8.4 del 04-09-2009 17:00, Mayor que la Máxima 2.0 05-09-2009 00:00 8.4 -- 2.0 2011-09-23 21:24:00
2 2009-09-11 00:00:00 Temperatura 9.0 del 10-09-2009 18:00, Mayor que la Máxima 8.9 11-09-2009 00:00 9.0 -- 8.9 2011-09-23 21:24:00
2 2009-09-12 00:00:00 Temperatura 9.4 del 11-09-2009 20:00, Mayor que la Máxima 9.2 12-09-2009 00:00 9.4 -- 9.2 2011-09-23 21:24:00
2 2009-09-13 00:00:00 Temperatura 5.8 del 12-09-2009 19:00, Mayor que la Máxima 5.0 13-09-2009 00:00 5.8 -- 5.0 2011-09-23 21:24:00
2 2009-09-15 00:00:00 Temperatura 9.8 del 14-09-2009 20:00, Mayor que la Máxima 8.2 15-09-2009 00:00 9.8 -- 8.2 2011-09-23 21:24:00
2 2009-09-17 00:00:00 Temperatura 6.6 del 16-09-2009 17:00, Mayor que la Máxima 4.0 17-09-2009 00:00 6.6 -- 4.0 2011-09-23 21:24:00
2 2009-09-23 00:00:00 Temperatura 9.4 del 22-09-2009 20:00, Mayor que la Máxima 7.6 23-09-2009 00:00 9.4 -- 7.6 2011-09-23 21:24:00
2 2009-09-24 00:00:00 Temperatura 8.8 del 23-09-2009 16:00, Mayor que la Máxima 7.2 24-09-2009 00:00 8.8 -- 7.2 2011-09-23 21:24:00
2 2009-09-25 00:00:00 Temperatura 7.8 del 24-09-2009 18:00, Mayor que la Máxima 4.0 25-09-2009 00:00 7.8 -- 4.0 2011-09-23 21:24:00
2 2009-09-26 00:00:00 Temperatura 4.6 del 25-09-2009 17:00, Mayor que la Máxima 4.0 26-09-2009 00:00 4.6 -- 4.0 2011-09-23 21:24:00
2 2009-09-29 00:00:00 Temperatura 14.0 del 28-09-2009 19:00, Mayor que la Máxima 13.0 29-09-2009 00:00 14.0 -- 13.0 2011-09-23 21:24:00
2 2009-09-30 00:00:00 Temperatura 13.4 del 29-09-2009 17:00, Mayor que la Máxima 12.0 30-09-2009 00:00 13.4 -- 12.0 2011-09-23 21:24:00
2 2009-10-01 00:00:00 Temperatura 12.8 del 30-09-2009 19:00, Mayor que la Máxima 9.0 01-10-2009 00:00 12.8 -- 9.0 2011-09-23 21:24:00
2 2009-10-04 00:00:00 Temperatura 3.4 del 03-10-2009 15:00, Mayor que la Máxima 2.4 04-10-2009 00:00 3.4 -- 2.4 2011-09-23 21:24:00
2 2009-10-14 00:00:00 Temperatura 0.2 del 13-10-2009 19:00, Mayor que la Máxima -0.2 14-10-2009 00:00 0.2 -- -0.2 2011-09-23 21:24:00
2 2009-10-15 00:00:00 Temperatura 7.8 del 14-10-2009 17:00, Mayor que la Máxima -1.2 15-10-2009 00:00 7.8 -- -1.2 2011-09-23 21:24:00
2 2009-10-16 00:00:00 Temperatura 11.6 del 15-10-2009 18:00, Mayor que la Máxima 11.2 16-10-2009 00:00 11.6 -- 11.2 2011-09-23 21:24:00
2 2009-10-21 00:00:00 Temperatura 11.2 del 20-10-2009 20:00, Mayor que la Máxima 10.6 21-10-2009 00:00 11.2 -- 10.6 2011-09-23 21:24:00
2 2009-10-23 00:00:00 Temperatura 13.0 del 22-10-2009 18:00, Mayor que la Máxima 8.0 23-10-2009 00:00 13.0 -- 8.0 2011-09-23 21:24:00
2 2009-10-24 00:00:00 Temperatura 7.2 del 23-10-2009 17:00, Mayor que la Máxima 3.5 24-10-2009 00:00 7.2 -- 3.5 2011-09-23 21:24:00
2 2009-11-03 00:00:00 Temperatura 8.2 del 02-11-2009 19:00, Mayor que la Máxima 8.0 03-11-2009 00:00 8.2 -- 8.0 2011-09-23 21:24:00
2 2009-11-12 00:00:00 Temperatura 5.4 del 11-11-2009 16:00, Mayor que la Máxima 5.0 12-11-2009 00:00 5.4 -- 5.0 2011-09-23 21:24:00
2 2009-11-18 00:00:00 Temperatura 6.6 del 17-11-2009 18:00, Mayor que la Máxima 5.5 18-11-2009 00:00 6.6 -- 5.5 2011-09-23 21:24:00
2 2009-11-26 00:00:00 Temperatura 10.6 del 25-11-2009 16:00, Mayor que la Máxima 10.2 26-11-2009 00:00 10.6 -- 10.2 2011-09-23 21:24:00
2 2009-12-01 00:00:00 Temperatura 7.8 del 30-11-2009 18:00, Mayor que la Máxima 7.4 01-12-2009 00:00 7.8 -- 7.4 2011-09-23 21:24:00
2 2009-12-24 00:00:00 Temperatura 12.8 del 23-12-2009 15:00, Mayor que la Máxima 11.4 24-12-2009 00:00 12.8 -- 11.4 2011-09-23 21:24:00
2 2009-12-29 00:00:00 Temperatura 10.2 del 28-12-2009 17:00, Mayor que la Máxima 8.6 29-12-2009 00:00 10.2 -- 8.6 2011-09-23 21:24:00
2 2010-01-01 00:00:00 Temperatura 9.8 del 31-12-2009 16:00, Mayor que la Máxima 9.4 01-01-2010 00:00 9.8 -- 9.4 2011-09-23 21:24:00
2 2010-01-05 00:00:00 Temperatura 13.2 del 04-01-2010 17:00, Mayor que la Máxima 12.4 05-01-2010 00:00 13.2 -- 12.4 2011-09-23 21:24:00
2 2010-01-08 00:00:00 Temperatura 15.4 del 07-01-2010 19:00, Mayor que la Máxima 14.8 08-01-2010 00:00 15.4 -- 14.8 2011-09-23 21:24:00
2 2010-01-13 00:00:00 Temperatura 10.4 del 12-01-2010 23:00, Mayor que la Máxima 10.0 13-01-2010 00:00 10.4 -- 10.0 2011-09-23 21:24:00
2 2010-01-16 00:00:00 Temperatura 12.8 del 15-01-2010 19:00, Mayor que la Máxima 11.8 16-01-2010 00:00 12.8 -- 11.8 2011-09-23 21:24:00
2 2010-01-23 00:00:00 Temperatura 14.0 del 22-01-2010 17:00, Mayor que la Máxima 13.8 23-01-2010 00:00 14.0 -- 13.8 2011-09-23 21:24:00
2 2010-02-02 00:00:00 Temperatura 12.2 del 01-02-2010 18:00, Mayor que la Máxima 12.0 02-02-2010 00:00 12.2 -- 12.0 2011-09-23 21:24:00
2 2010-02-25 00:00:00 Temperatura 12.8 del 24-02-2010 19:00, Mayor que la Máxima 12.6 25-02-2010 00:00 12.8 -- 12.6 2011-09-23 21:24:00
2 2010-03-09 00:00:00 Temperatura 16.2 del 08-03-2010 16:00, Mayor que la Máxima 11.8 09-03-2010 00:00 16.2 -- 11.8 2011-09-23 21:24:00
2 2010-03-13 00:00:00 Temperatura 9.2 del 12-03-2010 15:00, Mayor que la Máxima 9.1 13-03-2010 00:00 9.2 -- 9.1 2011-09-23 21:24:00
2 2010-04-08 00:00:00 Temperatura 12.2 del 07-04-2010 16:00, Mayor que la Máxima 12.1 08-04-2010 00:00 12.2 -- 12.1 2011-09-23 21:24:00
2 2010-04-10 00:00:00 Temperatura 14.2 del 09-04-2010 15:00, Mayor que la Máxima 14.0 10-04-2010 00:00 14.2 -- 14.0 2011-09-23 21:24:00
2 2010-04-21 00:00:00 Temperatura 2.3 del 20-04-2010 18:00, Mayor que la Máxima 2.2 21-04-2010 00:00 2.3 -- 2.2 2011-09-23 21:24:00
2 2010-04-30 00:00:00 Temperatura 12.0 del 29-04-2010 19:00, Mayor que la Máxima 7.6 30-04-2010 00:00 12.0 -- 7.6 2011-09-23 21:24:00
2 2010-05-14 00:00:00 Temperatura 7.2 del 13-05-2010 18:00, Mayor que la Máxima 7.1 14-05-2010 00:00 7.2 -- 7.1 2011-09-23 21:24:00
2 2010-05-30 00:00:00 Temperatura 6.3 del 29-05-2010 14:00, Mayor que la Máxima 6.2 30-05-2010 00:00 6.3 -- 6.2 2011-09-23 21:24:00
2 2010-06-01 00:00:00 Temperatura 6.4 del 31-05-2010 17:00, Mayor que la Máxima 6.2 01-06-2010 00:00 6.4 -- 6.2 2011-09-23 21:24:00
2 2010-06-04 00:00:00 Temperatura 5.1 del 03-06-2010 20:00, Mayor que la Máxima 5.0 04-06-2010 00:00 5.1 -- 5.0 2011-09-23 21:24:00
2 2010-06-05 00:00:00 Temperatura 5.2 del 04-06-2010 20:00, Mayor que la Máxima 5.1 05-06-2010 00:00 5.2 -- 5.1 2011-09-23 21:24:00
2 2010-06-11 00:00:00 Temperatura 6.4 del 10-06-2010 19:00, Mayor que la Máxima 6.2 11-06-2010 00:00 6.4 -- 6.2 2011-09-23 21:24:00
2 2010-06-16 00:00:00 Temperatura 1.9 del 15-06-2010 17:00, Mayor que la Máxima 1.6 16-06-2010 00:00 1.9 -- 1.6 2011-09-23 21:24:00
2 2010-06-30 00:00:00 Temperatura 2.8 del 29-06-2010 17:00, Mayor que la Máxima 2.2 30-06-2010 00:00 2.8 -- 2.2 2011-09-23 21:24:00
2 2010-07-06 00:00:00 Temperatura 0.0 del 05-07-2010 18:00, Mayor que la Máxima -0.2 06-07-2010 00:00 0.0 -- -0.2 2011-09-23 21:24:00
2 2010-07-07 00:00:00 Temperatura 2.0 del 06-07-2010 19:00, Mayor que la Máxima 1.8 07-07-2010 00:00 2.0 -- 1.8 2011-09-23 21:24:00
2 2010-07-08 00:00:00 Temperatura 4.2 del 07-07-2010 18:00, Mayor que la Máxima 4.0 08-07-2010 00:00 4.2 -- 4.0 2011-09-23 21:24:00
2 2010-07-13 00:00:00 Temperatura 4.6 del 12-07-2010 17:00, Mayor que la Máxima 4.1 13-07-2010 00:00 4.6 -- 4.1 2011-09-23 21:24:00
2 2010-07-14 00:00:00 Temperatura 4.2 del 13-07-2010 19:00, Mayor que la Máxima 4.0 14-07-2010 00:00 4.2 -- 4.0 2011-09-23 21:24:00
2 2010-07-15 00:00:00 Temperatura 3.2 del 14-07-2010 19:00, Mayor que la Máxima 3.0 15-07-2010 00:00 3.2 -- 3.0 2011-09-23 21:24:00
2 2010-07-23 00:00:00 Temperatura 4.7 del 22-07-2010 18:00, Mayor que la Máxima 4.6 23-07-2010 00:00 4.7 -- 4.6 2011-09-23 21:24:00
2 2010-07-25 00:00:00 Temperatura 6.0 del 24-07-2010 16:00, Mayor que la Máxima 5.9 25-07-2010 00:00 6.0 -- 5.9 2011-09-23 21:24:00
2 2010-07-31 00:00:00 Temperatura 2.0 del 30-07-2010 14:00, Mayor que la Máxima 1.2 31-07-2010 00:00 2.0 -- 1.2 2011-09-23 21:24:00
2 2010-08-01 00:00:00 Temperatura 1.6 del 31-07-2010 15:00, Mayor que la Máxima 1.0 01-08-2010 00:00 1.6 -- 1.0 2024-06-28 12:09:00
2 2010-08-04 00:00:00 Temperatura 8.8 del 03-08-2010 19:00, Mayor que la Máxima 8.0 04-08-2010 00:00 8.8 -- 8.0 2011-09-23 21:24:00
2 2010-08-07 00:00:00 Temperatura 7.6 del 06-08-2010 18:00, Mayor que la Máxima 7.1 07-08-2010 00:00 7.6 -- 7.1 2011-09-23 21:24:00
2 2010-08-13 00:00:00 Temperatura 6.1 del 12-08-2010 18:00, Mayor que la Máxima 5.2 13-08-2010 00:00 6.1 -- 5.2 2011-09-23 21:24:00
2 2010-08-14 00:00:00 Temperatura 8.4 del 13-08-2010 19:00, Mayor que la Máxima 8.2 14-08-2010 00:00 8.4 -- 8.2 2011-09-23 21:24:00
2 2010-08-19 00:00:00 Temperatura 3.4 del 18-08-2010 18:00, Mayor que la Máxima 3.2 19-08-2010 00:00 3.4 -- 3.2 2011-09-23 21:24:00
2 2010-08-24 00:00:00 Temperatura 7.0 del 23-08-2010 15:00, Mayor que la Máxima 6.7 24-08-2010 00:00 7.0 -- 6.7 2011-09-23 21:24:00
2 2010-08-27 00:00:00 Temperatura 7.0 del 26-08-2010 19:00, Mayor que la Máxima 6.8 27-08-2010 00:00 7.0 -- 6.8 2011-09-23 21:24:00
2 2010-08-31 00:00:00 Temperatura 3.2 del 30-08-2010 20:00, Mayor que la Máxima 2.8 31-08-2010 00:00 3.2 -- 2.8 2011-09-23 21:24:00
2 2010-09-02 00:00:00 Temperatura 5.2 del 01-09-2010 14:00, Mayor que la Máxima 5.0 02-09-2010 00:00 5.2 -- 5.0 2011-09-23 21:24:00
2 2010-09-03 00:00:00 Temperatura 10.5 del 02-09-2010 19:00, Mayor que la Máxima 10.3 03-09-2010 00:00 10.5 -- 10.3 2011-09-23 21:24:00
2 2010-09-10 00:00:00 Temperatura 8.4 del 09-09-2010 19:00, Mayor que la Máxima 8.2 10-09-2010 00:00 8.4 -- 8.2 2011-09-23 21:24:00
2 2010-09-11 00:00:00 Temperatura 7.8 del 10-09-2010 19:00, Mayor que la Máxima 6.9 11-09-2010 00:00 7.8 -- 6.9 2011-09-23 21:24:00
2 2010-09-14 00:00:00 Temperatura 9.2 del 13-09-2010 16:00, Mayor que la Máxima 9.0 14-09-2010 00:00 9.2 -- 9.0 2011-09-23 21:24:00
2 2010-09-15 00:00:00 Temperatura 6.1 del 14-09-2010 20:00, Mayor que la Máxima 5.5 15-09-2010 00:00 6.1 -- 5.5 2011-09-23 21:24:00
2 2010-09-16 00:00:00 Temperatura 8.4 del 15-09-2010 19:00, Mayor que la Máxima 7.9 16-09-2010 00:00 8.4 -- 7.9 2011-09-23 21:24:00
2 2010-09-19 00:00:00 Temperatura 10.2 del 18-09-2010 17:00, Mayor que la Máxima 10.0 19-09-2010 00:00 10.2 -- 10.0 2011-09-23 21:24:00
2 2010-09-20 00:00:00 Temperatura 8.7 del 19-09-2010 20:00, Mayor que la Máxima 8.5 20-09-2010 00:00 8.7 -- 8.5 2011-09-23 21:24:00
2 2010-09-22 00:00:00 Temperatura 4.8 del 21-09-2010 17:00, Mayor que la Máxima 4.3 22-09-2010 00:00 4.8 -- 4.3 2011-09-23 21:24:00
2 2010-09-24 00:00:00 Temperatura 9.2 del 23-09-2010 19:00, Mayor que la Máxima 9.1 24-09-2010 00:00 9.2 -- 9.1 2011-09-23 21:24:00
2 2010-09-25 00:00:00 Temperatura 9.8 del 24-09-2010 16:00, Mayor que la Máxima 9.6 25-09-2010 00:00 9.8 -- 9.6 2011-09-23 21:24:00
2 2010-10-05 00:00:00 Temperatura 7.0 del 04-10-2010 20:00, Mayor que la Máxima 6.8 05-10-2010 00:00 7.0 -- 6.8 2011-09-23 21:24:00
2 2010-10-06 00:00:00 Temperatura 11.6 del 05-10-2010 19:00, Mayor que la Máxima 11.3 06-10-2010 00:00 11.6 -- 11.3 2011-09-23 21:24:00
2 2010-10-13 00:00:00 Temperatura 10.0 del 12-10-2010 17:00, Mayor que la Máxima 9.9 13-10-2010 00:00 10.0 -- 9.9 2011-09-23 21:24:00
2 2010-10-15 00:00:00 Temperatura 12.2 del 14-10-2010 19:00, Mayor que la Máxima 12.0 15-10-2010 00:00 12.2 -- 12.0 2011-09-23 21:24:00
2 2010-10-24 00:00:00 Temperatura 12.4 del 23-10-2010 17:00, Mayor que la Máxima 12.2 24-10-2010 00:00 12.4 -- 12.2 2011-09-23 21:24:00
2 2010-10-26 00:00:00 Temperatura 7.0 del 25-10-2010 14:00, Mayor que la Máxima 6.8 26-10-2010 00:00 7.0 -- 6.8 2011-09-23 21:24:00
2 2010-11-02 00:00:00 Temperatura 12.0 del 01-11-2010 18:00, Mayor que la Máxima 11.4 02-11-2010 00:00 12.0 -- 11.4 2011-09-23 21:24:00
2 2010-11-09 00:00:00 Temperatura 8.6 del 08-11-2010 18:00, Mayor que la Máxima 8.4 09-11-2010 00:00 8.6 -- 8.4 2011-09-23 21:24:00
2 2010-11-16 00:00:00 Temperatura 15.6 del 15-11-2010 17:00, Mayor que la Máxima 15.2 16-11-2010 00:00 15.6 -- 15.2 2011-09-23 21:24:00
2 2010-11-17 00:00:00 Temperatura 15.2 del 16-11-2010 17:00, Mayor que la Máxima 14.9 17-11-2010 00:00 15.2 -- 14.9 2011-09-23 21:24:00
2 2010-11-19 00:00:00 Temperatura 15.0 del 18-11-2010 17:00, Mayor que la Máxima 14.9 19-11-2010 00:00 15.0 -- 14.9 2011-09-23 21:24:00
2 2010-11-26 00:00:00 Temperatura 12.4 del 25-11-2010 18:00, Mayor que la Máxima 12.2 26-11-2010 00:00 12.4 -- 12.2 2011-09-23 21:24:00
2 2010-12-02 00:00:00 Temperatura 6.6 del 01-12-2010 13:00, Mayor que la Máxima 6.4 02-12-2010 00:00 6.6 -- 6.4 2011-09-23 21:24:00
2 2010-12-10 00:00:00 Temperatura 6.1 del 09-12-2010 14:00, Mayor que la Máxima 4.4 10-12-2010 00:00 6.1 -- 4.4 2011-09-23 21:24:00
2 2010-12-24 00:00:00 Temperatura 14.2 del 23-12-2010 19:00, Mayor que la Máxima 14.0 24-12-2010 00:00 14.2 -- 14.0 2011-09-23 21:24:00
2 2010-12-26 00:00:00 Temperatura 9.3 del 25-12-2010 19:00, Mayor que la Máxima 9.2 26-12-2010 00:00 9.3 -- 9.2 2011-09-23 21:24:00
2 2011-07-22 00:00:00 Temperatura 4.4 del 21-07-2011 20:00, Mayor que la Máxima 4.3 22-07-2011 00:00 4.4 -- 4.3 2024-06-11 14:05:00
2 2011-08-01 00:00:00 Temperatura 0.9 del 31-07-2011 18:00, Mayor que la Máxima 0.0 01-08-2011 00:00 0.9 -- 0.0 2024-06-11 16:42:00
2 2011-08-02 00:00:00 Temperatura 3.0 del 01-08-2011 19:00, Mayor que la Máxima 2.7 02-08-2011 00:00 3.0 -- 2.7 2024-06-11 16:52:00
2 2011-08-03 00:00:00 Temperatura 4.0 del 03-08-2011 00:00, Mayor que la Máxima 0.9 03-08-2011 00:00 4.0 -- 0.9 2024-06-11 16:57:00
2 2011-08-05 00:00:00 Temperatura 3.4 del 04-08-2011 17:00, Mayor que la Máxima 3.2 05-08-2011 00:00 3.4 -- 3.2 2024-06-11 18:40:00
2 2011-08-07 00:00:00 Temperatura 1.8 del 07-08-2011 00:00, Mayor que la Máxima 0.4 07-08-2011 00:00 1.8 -- 0.4 2024-06-11 18:49:00
2 2011-08-27 00:00:00 Temperatura 6.5 del 26-08-2011 19:00, Mayor que la Máxima 5.5 27-08-2011 00:00 6.5 -- 5.5 2024-06-11 20:07:00
2 2011-09-07 00:00:00 Temperatura 5.6 del 06-09-2011 19:00, Mayor que la Máxima 5.1 07-09-2011 00:00 5.6 -- 5.1 2024-06-12 12:52:00
2 2011-09-08 00:00:00 Temperatura 4.9 del 07-09-2011 20:00, Mayor que la Máxima 4.8 08-09-2011 00:00 4.9 -- 4.8 2024-06-12 12:55:00
2 2011-09-10 00:00:00 Temperatura 6.6 del 09-09-2011 17:00, Mayor que la Máxima 6.3 10-09-2011 00:00 6.6 -- 6.3 2024-06-12 13:03:00
2 2011-09-21 00:00:00 Temperatura 2.6 del 20-09-2011 13:00, Mayor que la Máxima 2.2 21-09-2011 00:00 2.6 -- 2.2 2024-06-12 14:47:00
2 2011-09-26 00:00:00 Temperatura 5.2 del 25-09-2011 13:00, Mayor que la Máxima 5.0 26-09-2011 00:00 5.2 -- 5.0 2024-06-12 15:10:00
2 2011-09-27 00:00:00 Temperatura 9.2 del 26-09-2011 17:00, Mayor que la Máxima 9.0 27-09-2011 00:00 9.2 -- 9.0 2024-06-12 15:12:00
2 2011-10-03 00:00:00 Temperatura 5.2 del 02-10-2011 18:00, Mayor que la Máxima 5.0 03-10-2011 00:00 5.2 -- 5.0 2024-06-12 16:10:00
2 2011-10-21 00:00:00 Temperatura 11.6 del 20-10-2011 18:00, Mayor que la Máxima 11.2 21-10-2011 00:00 11.6 -- 11.2 2024-06-12 18:55:00
2 2011-10-22 00:00:00 Temperatura 8.6 del 21-10-2011 17:00, Mayor que la Máxima 8.0 22-10-2011 00:00 8.6 -- 8.0 2024-06-12 18:57:00
2 2011-11-01 00:00:00 Temperatura 13.2 del 31-10-2011 14:00, Mayor que la Máxima 12.9 01-11-2011 00:00 13.2 -- 12.9 2024-06-12 20:29:00
2 2011-11-18 00:00:00 Temperatura 15.4 del 17-11-2011 20:00, Mayor que la Máxima 14.9 18-11-2011 00:00 15.4 -- 14.9 2024-06-13 14:51:00
2 2011-11-22 00:00:00 Temperatura 5.2 del 21-11-2011 20:00, Mayor que la Máxima 4.9 22-11-2011 00:00 5.2 -- 4.9 2024-06-13 15:25:00
2 2011-11-23 00:00:00 Temperatura 7.9 del 22-11-2011 20:00, Mayor que la Máxima 7.2 23-11-2011 00:00 7.9 -- 7.2 2024-06-13 15:27:00
2 2011-11-25 00:00:00 Temperatura 8.9 del 24-11-2011 13:00, Mayor que la Máxima 8.2 25-11-2011 00:00 8.9 -- 8.2 2024-06-13 16:13:00
2 2011-12-07 00:00:00 Temperatura 15.7 del 07-12-2011 00:00, Mayor que la Máxima 15.4 07-12-2011 00:00 15.7 -- 15.4 2024-06-13 19:27:00
2 2011-12-13 00:00:00 Temperatura 16.4 del 12-12-2011 20:00, Mayor que la Máxima 15.8 13-12-2011 00:00 16.4 -- 15.8 2024-06-14 13:29:00
2 2011-12-14 00:00:00 Temperatura 18.2 del 13-12-2011 17:00, Mayor que la Máxima 17.7 14-12-2011 00:00 18.2 -- 17.7 2024-06-14 13:31:00
2 2011-12-22 00:00:00 Temperatura 7.2 del 21-12-2011 15:00, Mayor que la Máxima 7.1 22-12-2011 00:00 7.2 -- 7.1 2024-06-14 14:08:00
2 2011-12-27 00:00:00 Temperatura 12.2 del 26-12-2011 16:00, Mayor que la Máxima 12.0 27-12-2011 00:00 12.2 -- 12.0 2024-06-14 14:52:00
2 2011-12-30 00:00:00 Temperatura 15.4 del 29-12-2011 19:00, Mayor que la Máxima 15.2 30-12-2011 00:00 15.4 -- 15.2 2024-06-14 14:55:00
2 2012-01-24 00:00:00 Temperatura 9.6 del 23-01-2012 13:00, Mayor que la Máxima 8.9 24-01-2012 00:00 9.6 -- 8.9 2024-05-08 15:16:00
2 2012-01-25 00:00:00 Temperatura 12.6 del 24-01-2012 21:00, Mayor que la Máxima 12.0 25-01-2012 00:00 12.6 -- 12.0 2024-05-08 15:16:00
2 2012-01-30 00:00:00 Temperatura 14.8 del 29-01-2012 19:00, Mayor que la Máxima 14.7 30-01-2012 00:00 14.8 -- 14.7 2024-05-08 15:16:00